Darstellungsparameter: Aktuell verwendete Einstellungen:
Skalierung der Graphiken ... ?
xyx+y,   Skalierungsfaktor:      Skalierung: Modus: x, Faktor: 1
Darstellungszeitraum ... ?
Vom - - bis: - -   Zeitraum: 03.12.2013 - 09.12.2013
Min/Max/Avg-Anzeige ... ?
Zeige MMA aktuell
Zeige MMA Monat
Zeige MMA alles
Zeige --A aktuell
Zeige --A Monat
Zeige --A alles
Keine MMA-Anzeige
MMA:
Keine MMA-Graphiken
MMA-Basis: 03.12.2013 - 09.12.2013
Quicknavigation für Darstellung... ?
Tage:      1T, 2T, 3T, 5T -1T -2T -3T -5T +1T +2T +3T +5T
Wochen: 1W, 2W, 3W -1W -2W -3W +1W +2W +3W
Monate: 1M, 3M, 6M -1M -3M -6M +1M +3M +6M
Jahre:    1J, 3J, 5J, 10J -1J -3J -5J -10J +1J +3J +5J +10J
Nutze für die Darstellung ... ?
Originaldaten oder Mittelwerte auf ...
Stundenbasis Tagesbasis Wochenbasis
Monatsbasis Jahresbasis      Datenbasis: Original-Daten
Darstellen als:
Statistik (Auto) Statistik J:M      Darstellung:
Zur Graphik,    zurück zur Übersicht aller Sensoren.
 
Tabellarische Datenbersicht: ?
 
Sensor: Nr:Datum:Temp:Abs-Feuchte:Windchill:Wind:
Aussen-T/F 1 03-12-2013 00:00:00 0.3 C 4.75 g/m*3 0.3 C 0 km/h
2 03-12-2013 00:05:00 0.2 C 4.72 g/m*3 0.2 C 0 km/h
3 03-12-2013 00:10:00 0.2 C 4.72 g/m*3 0.2 C 0 km/h
4 03-12-2013 00:15:00 0.2 C 4.72 g/m*3 0.2 C 0 km/h
5 03-12-2013 00:20:00 0.1 C 4.68 g/m*3 0.1 C 0 km/h
6 03-12-2013 00:25:00 0 C 4.65 g/m*3 0 C 0 km/h
7 03-12-2013 00:30:00 -0.1 C 4.62 g/m*3 -0.1 C 0 km/h
8 03-12-2013 00:35:00 -0.1 C 4.62 g/m*3 -0.1 C 0 km/h
9 03-12-2013 00:40:00 0 C 4.65 g/m*3 0 C 1.6 km/h
10 03-12-2013 00:45:00 0 C 4.65 g/m*3 0 C 0 km/h
11 03-12-2013 00:50:00 0 C 4.65 g/m*3 0 C 0 km/h
12 03-12-2013 00:55:00 -0.1 C 4.62 g/m*3 -0.1 C 0 km/h
13 03-12-2013 01:00:00 -0.1 C 4.62 g/m*3 -0.1 C 0 km/h
14 03-12-2013 01:05:00 -0.1 C 4.62 g/m*3 -0.1 C 0 km/h
15 03-12-2013 01:10:00 -0.2 C 4.59 g/m*3 -0.2 C 0 km/h
16 03-12-2013 01:15:00 -0.2 C 4.59 g/m*3 -0.2 C 0 km/h
17 03-12-2013 01:20:00 -0.2 C 4.59 g/m*3 -0.2 C 0 km/h
18 03-12-2013 01:25:00 -0.2 C 4.59 g/m*3 -0.2 C 0 km/h
19 03-12-2013 01:30:00 -0.2 C 4.59 g/m*3 -0.2 C 0 km/h
20 03-12-2013 01:35:00 -0.2 C 4.59 g/m*3 -0.2 C 0 km/h
21 03-12-2013 01:40:00 -0.2 C 4.59 g/m*3 -0.2 C 0 km/h
22 03-12-2013 01:45:00 -0.2 C 4.64 g/m*3 -0.2 C 0 km/h
23 03-12-2013 01:50:00 -0.2 C 4.64 g/m*3 -0.2 C 0 km/h
24 03-12-2013 01:55:00 -0.3 C 4.6 g/m*3 -0.3 C 0 km/h
25 03-12-2013 02:00:00 -0.3 C 4.6 g/m*3 -0.3 C 0 km/h
Sensor: Nr:Datum:Temp:Abs-Feuchte:Windchill:Wind:
Aussen-T/F 26 03-12-2013 02:05:00 -0.3 C 4.6 g/m*3 -0.3 C 0 km/h
27 03-12-2013 02:10:00 -0.3 C 4.6 g/m*3 -0.3 C 0 km/h
28 03-12-2013 02:15:00 -0.3 C 4.6 g/m*3 -0.3 C 0 km/h
29 03-12-2013 02:20:00 -0.3 C 4.6 g/m*3 -0.3 C 0 km/h
30 03-12-2013 02:25:00 -0.3 C 4.6 g/m*3 -0.3 C 0 km/h
31 03-12-2013 02:30:00 -0.3 C 4.6 g/m*3 -0.3 C 0 km/h
32 03-12-2013 02:35:00 -0.3 C 4.6 g/m*3 -0.3 C 0 km/h
33 03-12-2013 02:40:00 -0.3 C 4.6 g/m*3 -0.3 C 0 km/h
34 03-12-2013 02:45:00 -0.3 C 4.6 g/m*3 -0.3 C 0 km/h
35 03-12-2013 02:50:00 -0.3 C 4.6 g/m*3 -0.3 C 0 km/h
36 03-12-2013 02:55:00 -0.3 C 4.6 g/m*3 -0.3 C 0 km/h
37 03-12-2013 03:00:00 -0.3 C 4.6 g/m*3 -0.3 C 0 km/h
38 03-12-2013 03:05:00 -0.3 C 4.6 g/m*3 -0.3 C 0 km/h
39 03-12-2013 03:10:00 -0.3 C 4.6 g/m*3 -0.3 C 0 km/h
40 03-12-2013 03:15:00 -0.4 C 4.57 g/m*3 -0.4 C 0 km/h
41 03-12-2013 03:20:00 -0.4 C 4.57 g/m*3 -0.4 C 0 km/h
42 03-12-2013 03:25:00 -0.5 C 4.54 g/m*3 -0.5 C 0 km/h
43 03-12-2013 03:30:00 -0.6 C 4.51 g/m*3 -0.6 C 0 km/h
44 03-12-2013 03:35:00 -0.6 C 4.51 g/m*3 -0.6 C 0 km/h
45 03-12-2013 03:40:00 -0.6 C 4.51 g/m*3 -0.6 C 0 km/h
46 03-12-2013 03:45:00 -0.7 C 4.48 g/m*3 -0.7 C 0 km/h
47 03-12-2013 03:50:00 -0.7 C 4.48 g/m*3 -0.7 C 1.6 km/h
48 03-12-2013 03:55:00 -0.8 C 4.45 g/m*3 -0.8 C 0 km/h
49 03-12-2013 04:00:00 -0.8 C 4.45 g/m*3 -0.8 C 0 km/h
50 03-12-2013 04:05:00 -0.9 C 4.42 g/m*3 -0.9 C 0 km/h
Sensor: Nr:Datum:Temp:Abs-Feuchte:Windchill:Wind:
Aussen-T/F 51 03-12-2013 04:10:00 -0.9 C 4.42 g/m*3 -0.9 C 0 km/h
52 03-12-2013 04:15:00 -1 C 4.38 g/m*3 -1 C 0 km/h
53 03-12-2013 04:20:00 -1.1 C 4.35 g/m*3 -1.1 C 0 km/h
54 03-12-2013 04:25:00 -1.2 C 4.32 g/m*3 -1.2 C 0 km/h
55 03-12-2013 04:30:00 -1.2 C 4.32 g/m*3 -1.2 C 0 km/h
56 03-12-2013 04:35:00 -1.2 C 4.32 g/m*3 -1.2 C 0 km/h
57 03-12-2013 04:40:00 -1.2 C 4.32 g/m*3 -1.2 C 0 km/h
58 03-12-2013 04:45:00 -1.3 C 4.29 g/m*3 -1.3 C 0 km/h
59 03-12-2013 04:50:00 -1.3 C 4.29 g/m*3 -1.3 C 0 km/h
60 03-12-2013 04:55:00 -1.3 C 4.29 g/m*3 -1.3 C 0 km/h
61 03-12-2013 05:00:00 -1.3 C 4.29 g/m*3 -1.3 C 0 km/h
62 03-12-2013 05:05:00 -1.4 C 4.26 g/m*3 -1.4 C 0 km/h
63 03-12-2013 05:10:00 -1.4 C 4.26 g/m*3 -1.4 C 0 km/h
64 03-12-2013 05:15:00 -1.4 C 4.26 g/m*3 -1.4 C 0 km/h
65 03-12-2013 05:20:00 -1.4 C 4.26 g/m*3 -1.4 C 0 km/h
66 03-12-2013 05:25:00 -1.5 C 4.23 g/m*3 -1.5 C 0 km/h
67 03-12-2013 05:30:00 -1.5 C 4.23 g/m*3 -1.5 C 0 km/h
68 03-12-2013 05:35:00 -1.6 C 4.21 g/m*3 -1.6 C 0 km/h
69 03-12-2013 05:40:00 -1.6 C 4.21 g/m*3 -1.6 C 0 km/h
70 03-12-2013 05:45:00 -1.6 C 4.21 g/m*3 -1.6 C 0 km/h
71 03-12-2013 05:50:00 -1.6 C 4.21 g/m*3 -1.6 C 0 km/h
72 03-12-2013 05:55:00 -1.7 C 4.18 g/m*3 -1.7 C 0 km/h
73 03-12-2013 06:00:00 -1.7 C 4.18 g/m*3 -1.7 C 0 km/h
74 03-12-2013 06:05:00 -1.7 C 4.18 g/m*3 -1.7 C 0 km/h
75 03-12-2013 06:10:00 -1.7 C 4.18 g/m*3 -1.7 C 0 km/h
Sensor: Nr:Datum:Temp:Abs-Feuchte:Windchill:Wind:
Aussen-T/F 76 03-12-2013 06:15:00 -1.7 C 4.18 g/m*3 -1.7 C 0 km/h
77 03-12-2013 06:20:00 -1.7 C 4.18 g/m*3 -1.7 C 0 km/h
78 03-12-2013 06:25:00 -1.7 C 4.18 g/m*3 -1.7 C 0 km/h
79 03-12-2013 06:30:00 -1.7 C 4.18 g/m*3 -1.7 C 0 km/h
80 03-12-2013 06:35:00 -1.7 C 4.18 g/m*3 -1.7 C 0 km/h
81 03-12-2013 06:40:00 -1.7 C 4.18 g/m*3 -1.7 C 0 km/h
82 03-12-2013 06:45:00 -1.8 C 4.15 g/m*3 -1.8 C 0 km/h
83 03-12-2013 06:50:00 -1.8 C 4.15 g/m*3 -1.8 C 0 km/h
84 03-12-2013 06:55:00 -1.9 C 4.12 g/m*3 -1.9 C 0 km/h
85 03-12-2013 07:00:00 -1.9 C 4.12 g/m*3 -1.9 C 0 km/h
86 03-12-2013 07:05:00 -2 C 4.09 g/m*3 -2 C 0 km/h
87 03-12-2013 07:10:00 -2 C 4.09 g/m*3 -2 C 0 km/h
88 03-12-2013 07:15:00 -2.1 C 4.06 g/m*3 -2.1 C 0 km/h
89 03-12-2013 07:20:00 -2.1 C 4.06 g/m*3 -2.1 C 0 km/h
90 03-12-2013 07:25:00 -2.1 C 4.06 g/m*3 -2.1 C 1.6 km/h
91 03-12-2013 07:30:00 -2.1 C 4.06 g/m*3 -2.1 C 0 km/h
92 03-12-2013 07:35:00 -2.1 C 4.06 g/m*3 -2.1 C 0 km/h
93 03-12-2013 07:40:00 -2.1 C 4.06 g/m*3 -2.1 C 0 km/h
94 03-12-2013 07:45:00 -2.1 C 4.06 g/m*3 -2.1 C 0 km/h
95 03-12-2013 07:50:00 -2.1 C 4.06 g/m*3 -2.1 C 0 km/h
96 03-12-2013 07:55:00 -2 C 4.09 g/m*3 -2 C 0 km/h
97 03-12-2013 08:00:00 -2 C 4.09 g/m*3 -2 C 0 km/h
98 03-12-2013 08:05:00 -2.1 C 4.06 g/m*3 -2.1 C 0 km/h
99 03-12-2013 08:10:00 -2.1 C 4.06 g/m*3 -2.1 C 0 km/h
100 03-12-2013 08:15:00 -2.1 C 4.06 g/m*3 -2.1 C 0 km/h
Sensor: Nr:Datum:Temp:Abs-Feuchte:Windchill:Wind:
Aussen-T/F 101 03-12-2013 08:20:00 -2.1 C 4.06 g/m*3 -2.1 C 0 km/h
102 03-12-2013 08:25:00 -2.1 C 4.06 g/m*3 -2.1 C 0 km/h
103 03-12-2013 08:30:00 -2.1 C 4.06 g/m*3 -2.1 C 1.6 km/h
104 03-12-2013 08:35:00 -2 C 4.09 g/m*3 -2 C 1.6 km/h
105 03-12-2013 08:40:00 -1.9 C 4.12 g/m*3 -1.9 C 3.2 km/h
106 03-12-2013 08:45:00 -1.9 C 4.12 g/m*3 -1.9 C 0 km/h
107 03-12-2013 08:50:00 -1.9 C 4.12 g/m*3 -1.9 C 0 km/h
108 03-12-2013 08:55:00 -1.9 C 4.12 g/m*3 -1.9 C 0 km/h
109 03-12-2013 09:00:00 -1.9 C 4.12 g/m*3 -1.9 C 0 km/h
110 03-12-2013 09:05:00 -1.9 C 4.12 g/m*3 -1.9 C 0 km/h
111 03-12-2013 09:10:00 -1.9 C 4.12 g/m*3 -1.9 C 0 km/h
112 03-12-2013 09:15:00 -1.9 C 4.12 g/m*3 -1.9 C 0 km/h
113 03-12-2013 09:20:00 -1.9 C 4.12 g/m*3 -1.9 C 0 km/h
114 03-12-2013 09:25:00 -1.9 C 4.12 g/m*3 -1.9 C 0 km/h
115 03-12-2013 09:30:00 -1.9 C 4.12 g/m*3 -1.9 C 0 km/h
116 03-12-2013 09:35:00 -1.8 C 4.15 g/m*3 -1.8 C 0 km/h
117 03-12-2013 09:40:00 -1.8 C 4.15 g/m*3 -1.8 C 0 km/h
118 03-12-2013 09:45:00 -1.8 C 4.15 g/m*3 -1.8 C 0 km/h
119 03-12-2013 09:50:00 -1.8 C 4.15 g/m*3 -1.8 C 0 km/h
120 03-12-2013 09:55:00 -1.7 C 4.18 g/m*3 -1.7 C 0 km/h
121 03-12-2013 10:00:00 -1.7 C 4.18 g/m*3 -1.7 C 0 km/h
122 03-12-2013 10:05:00 -1.7 C 4.18 g/m*3 -1.7 C 0 km/h
123 03-12-2013 10:10:00 -1.7 C 4.18 g/m*3 -1.7 C 0 km/h
124 03-12-2013 10:15:00 -1.6 C 4.21 g/m*3 -1.6 C 0 km/h
125 03-12-2013 10:20:00 -1.6 C 4.21 g/m*3 -1.6 C 1.6 km/h
Sensor: Nr:Datum:Temp:Abs-Feuchte:Windchill:Wind:
Aussen-T/F 126 03-12-2013 10:25:00 -1.6 C 4.21 g/m*3 -1.6 C 1.6 km/h
127 03-12-2013 10:30:00 -1.6 C 4.21 g/m*3 -1.6 C 0 km/h
128 03-12-2013 10:35:00 -1.6 C 4.21 g/m*3 -1.6 C 0 km/h
129 03-12-2013 10:40:00 -1.5 C 4.23 g/m*3 -1.5 C 0 km/h
130 03-12-2013 10:45:00 -1.5 C 4.23 g/m*3 -1.5 C 0 km/h
131 03-12-2013 10:50:00 -1.4 C 4.26 g/m*3 -1.4 C 0 km/h
132 03-12-2013 10:55:00 -1.4 C 4.26 g/m*3 -1.4 C 0 km/h
133 03-12-2013 11:00:00 -1.4 C 4.26 g/m*3 -1.4 C 0 km/h
134 03-12-2013 11:05:00 -1.4 C 4.26 g/m*3 -1.4 C 0 km/h
135 03-12-2013 11:10:00 -1.4 C 4.26 g/m*3 -1.4 C 0 km/h
136 03-12-2013 11:15:00 -1.3 C 4.29 g/m*3 -1.3 C 0 km/h
137 03-12-2013 11:20:00 -1.3 C 4.29 g/m*3 -1.3 C 0 km/h
138 03-12-2013 11:25:00 -1.3 C 4.34 g/m*3 -1.3 C 0 km/h
139 03-12-2013 11:30:00 -1.3 C 4.34 g/m*3 -1.3 C 0 km/h
140 03-12-2013 11:35:00 -1.2 C 4.37 g/m*3 -1.2 C 0 km/h
141 03-12-2013 11:40:00 -1.2 C 4.32 g/m*3 -1.2 C 0 km/h
142 03-12-2013 11:45:00 -1.1 C 4.35 g/m*3 -1.1 C 0 km/h
143 03-12-2013 11:50:00 -1 C 4.38 g/m*3 -1 C 0 km/h
144 03-12-2013 11:55:00 -0.9 C 4.46 g/m*3 -0.9 C 0 km/h
145 03-12-2013 12:00:00 -0.8 C 4.49 g/m*3 -0.8 C 0 km/h
146 03-12-2013 12:05:00 -0.7 C 4.52 g/m*3 -0.7 C 0 km/h
147 03-12-2013 12:10:00 -0.7 C 4.52 g/m*3 -0.7 C 0 km/h
148 03-12-2013 12:15:00 -0.6 C 4.56 g/m*3 -0.6 C 0 km/h
149 03-12-2013 12:20:00 -0.4 C 4.62 g/m*3 -0.4 C 0 km/h
150 03-12-2013 12:25:00 -0.3 C 4.65 g/m*3 -0.3 C 0 km/h
Sensor: Nr:Datum:Temp:Abs-Feuchte:Windchill:Wind:
Aussen-T/F 151 03-12-2013 12:30:00 -0.3 C 4.65 g/m*3 -0.3 C 0 km/h
152 03-12-2013 12:35:00 -0.1 C 4.72 g/m*3 -0.1 C 0 km/h
153 03-12-2013 12:40:00 0 C 4.75 g/m*3 0 C 0 km/h
154 03-12-2013 12:45:00 0.1 C 4.78 g/m*3 0.1 C 0 km/h
155 03-12-2013 12:50:00 0.2 C 4.81 g/m*3 0.2 C 0 km/h
156 03-12-2013 12:55:00 0.3 C 4.85 g/m*3 0.3 C 0 km/h
157 03-12-2013 13:00:00 0.3 C 4.85 g/m*3 0.3 C 0 km/h
158 03-12-2013 13:05:00 0.3 C 4.85 g/m*3 0.3 C 0 km/h
159 03-12-2013 13:10:00 0.4 C 4.88 g/m*3 0.4 C 0 km/h
160 03-12-2013 13:15:00 0.4 C 4.88 g/m*3 0.4 C 0 km/h
161 03-12-2013 13:20:00 0.4 C 4.88 g/m*3 0.4 C 0 km/h
162 03-12-2013 13:25:00 0.4 C 4.88 g/m*3 0.4 C 0 km/h
163 03-12-2013 13:30:00 0.4 C 4.88 g/m*3 0.4 C 0 km/h
164 03-12-2013 13:35:00 0.4 C 4.88 g/m*3 0.4 C 0 km/h
165 03-12-2013 13:40:00 0.5 C 4.91 g/m*3 0.5 C 0 km/h
166 03-12-2013 13:45:00 0.6 C 4.95 g/m*3 0.6 C 0 km/h
167 03-12-2013 13:50:00 0.6 C 4.95 g/m*3 0.6 C 0 km/h
168 03-12-2013 13:55:00 0.7 C 4.98 g/m*3 0.7 C 0 km/h
169 03-12-2013 14:00:00 0.7 C 4.98 g/m*3 0.7 C 0 km/h
170 03-12-2013 14:05:00 0.8 C 5.02 g/m*3 0.8 C 0 km/h
171 03-12-2013 14:10:00 0.8 C 5.02 g/m*3 0.8 C 0 km/h
172 03-12-2013 14:15:00 0.8 C 5.02 g/m*3 0.8 C 0 km/h
173 03-12-2013 14:20:00 0.8 C 5.02 g/m*3 0.8 C 0 km/h
174 03-12-2013 14:25:00 0.9 C 5.05 g/m*3 0.9 C 0 km/h
175 03-12-2013 14:30:00 0.9 C 5.05 g/m*3 0.9 C 0 km/h
Sensor: Nr:Datum:Temp:Abs-Feuchte:Windchill:Wind:
Aussen-T/F 176 03-12-2013 14:35:00 0.9 C 5.05 g/m*3 0.9 C 0 km/h
177 03-12-2013 14:40:00 0.9 C 5.05 g/m*3 0.9 C 0 km/h
178 03-12-2013 14:45:00 1 C 5.09 g/m*3 1 C 0 km/h
179 03-12-2013 14:50:00 1 C 5.09 g/m*3 1 C 0 km/h
180 03-12-2013 14:55:00 1.1 C 5.12 g/m*3 1.1 C 0 km/h
181 03-12-2013 15:00:00 1.1 C 5.12 g/m*3 1.1 C 0 km/h
182 03-12-2013 15:05:00 1.1 C 5.12 g/m*3 1.1 C 0 km/h
183 03-12-2013 15:10:00 1.1 C 5.12 g/m*3 1.1 C 0 km/h
184 03-12-2013 15:15:00 1.1 C 5.12 g/m*3 1.1 C 0 km/h
185 03-12-2013 15:20:00 1.1 C 5.12 g/m*3 1.1 C 0 km/h
186 03-12-2013 15:25:00 1.1 C 5.12 g/m*3 1.1 C 3.2 km/h
187 03-12-2013 15:30:00 1.1 C 5.12 g/m*3 1.1 C 0 km/h
188 03-12-2013 15:35:00 1.1 C 5.12 g/m*3 1.1 C 0 km/h
189 03-12-2013 15:40:00 1.1 C 5.12 g/m*3 1.1 C 0 km/h
190 03-12-2013 15:45:00 1.1 C 5.12 g/m*3 1.1 C 0 km/h
191 03-12-2013 15:50:00 1.2 C 5.16 g/m*3 1.2 C 0 km/h
192 03-12-2013 15:55:00 1.1 C 5.12 g/m*3 1.1 C 0 km/h
193 03-12-2013 16:00:00 1.1 C 5.12 g/m*3 1.1 C 0 km/h
194 03-12-2013 16:05:00 1.1 C 5.07 g/m*3 1.1 C 0 km/h
195 03-12-2013 16:10:00 1.1 C 5.07 g/m*3 1.1 C 0 km/h
196 03-12-2013 16:15:00 1.1 C 5.07 g/m*3 1.1 C 0 km/h
197 03-12-2013 16:20:00 1 C 5.03 g/m*3 1 C 0 km/h
198 03-12-2013 16:25:00 1.1 C 5.07 g/m*3 1.1 C 0 km/h
199 03-12-2013 16:30:00 1.1 C 5.07 g/m*3 1.1 C 0 km/h
200 03-12-2013 16:35:00 0.9 C 5 g/m*3 0.9 C 0 km/h
Sensor: Nr:Datum:Temp:Abs-Feuchte:Windchill:Wind:
Aussen-T/F 201 03-12-2013 16:40:00 0.8 C 4.97 g/m*3 0.8 C 0 km/h
202 03-12-2013 16:45:00 0.8 C 4.97 g/m*3 0.8 C 0 km/h
203 03-12-2013 16:50:00 0.7 C 4.93 g/m*3 0.7 C 0 km/h
204 03-12-2013 16:55:00 0.6 C 4.9 g/m*3 0.6 C 0 km/h
205 03-12-2013 17:00:00 0.5 C 4.86 g/m*3 0.5 C 0 km/h
206 03-12-2013 17:05:00 0.5 C 4.86 g/m*3 0.5 C 0 km/h
207 03-12-2013 17:10:00 0.6 C 4.9 g/m*3 0.6 C 0 km/h
208 03-12-2013 17:15:00 0.4 C 4.83 g/m*3 0.4 C 1.6 km/h
209 03-12-2013 17:20:00 0.4 C 4.83 g/m*3 0.4 C 1.6 km/h
210 03-12-2013 17:25:00 0.4 C 4.83 g/m*3 0.4 C 0 km/h
211 03-12-2013 17:30:00 0.4 C 4.83 g/m*3 0.4 C 0 km/h
212 03-12-2013 17:35:00 0.3 C 4.8 g/m*3 0.3 C 0 km/h
213 03-12-2013 17:40:00 0.3 C 4.8 g/m*3 0.3 C 0 km/h
214 03-12-2013 17:45:00 0.3 C 4.8 g/m*3 0.3 C 0 km/h
215 03-12-2013 17:50:00 0.4 C 4.83 g/m*3 0.4 C 0 km/h
216 03-12-2013 17:55:00 0.3 C 4.8 g/m*3 0.3 C 0 km/h
217 03-12-2013 18:00:00 0.3 C 4.8 g/m*3 0.3 C 0 km/h
218 03-12-2013 18:05:00 0.2 C 4.77 g/m*3 0.2 C 0 km/h
219 03-12-2013 18:10:00 0.2 C 4.77 g/m*3 0.2 C 0 km/h
220 03-12-2013 18:15:00 0.2 C 4.77 g/m*3 0.2 C 0 km/h
221 03-12-2013 18:20:00 0.2 C 4.77 g/m*3 0.2 C 0 km/h
222 03-12-2013 18:25:00 0.1 C 4.73 g/m*3 0.1 C 0 km/h
223 03-12-2013 18:30:00 0 C 4.7 g/m*3 0 C 0 km/h
224 03-12-2013 18:35:00 -0.1 C 4.67 g/m*3 -0.1 C 0 km/h
225 03-12-2013 18:40:00 -0.1 C 4.67 g/m*3 -0.1 C 0 km/h
Sensor: Nr:Datum:Temp:Abs-Feuchte:Windchill:Wind:
Aussen-T/F 226 03-12-2013 18:45:00 -0.1 C 4.67 g/m*3 -0.1 C 0 km/h
227 03-12-2013 18:50:00 -0.2 C 4.64 g/m*3 -0.2 C 0 km/h
228 03-12-2013 18:55:00 -0.2 C 4.64 g/m*3 -0.2 C 0 km/h
229 03-12-2013 19:00:00 -0.2 C 4.64 g/m*3 -0.2 C 0 km/h
230 03-12-2013 19:05:00 -0.2 C 4.64 g/m*3 -0.2 C 0 km/h
231 03-12-2013 19:10:00 -0.3 C 4.6 g/m*3 -0.3 C 0 km/h
232 03-12-2013 19:15:00 -0.3 C 4.6 g/m*3 -0.3 C 0 km/h
233 03-12-2013 19:20:00 -0.3 C 4.6 g/m*3 -0.3 C 0 km/h
234 03-12-2013 19:25:00 -0.4 C 4.57 g/m*3 -0.4 C 0 km/h
235 03-12-2013 19:30:00 -0.5 C 4.54 g/m*3 -0.5 C 0 km/h
236 03-12-2013 19:35:00 -0.4 C 4.57 g/m*3 -0.4 C 0 km/h
237 03-12-2013 19:40:00 -0.4 C 4.57 g/m*3 -0.4 C 0 km/h
238 03-12-2013 19:45:00 -0.4 C 4.57 g/m*3 -0.4 C 0 km/h
239 03-12-2013 19:50:00 -0.4 C 4.57 g/m*3 -0.4 C 0 km/h
240 03-12-2013 19:55:00 -0.5 C 4.54 g/m*3 -0.5 C 0 km/h
241 03-12-2013 20:00:00 -0.6 C 4.51 g/m*3 -0.6 C 0 km/h
242 03-12-2013 20:05:00 -0.6 C 4.51 g/m*3 -0.6 C 0 km/h
243 03-12-2013 20:10:00 -0.6 C 4.51 g/m*3 -0.6 C 0 km/h
244 03-12-2013 20:15:00 -0.7 C 4.48 g/m*3 -0.7 C 0 km/h
245 03-12-2013 20:20:00 -0.7 C 4.48 g/m*3 -0.7 C 0 km/h
246 03-12-2013 20:25:00 -0.8 C 4.45 g/m*3 -0.8 C 0 km/h
247 03-12-2013 20:30:00 -0.8 C 4.45 g/m*3 -0.8 C 0 km/h
248 03-12-2013 20:35:00 -0.8 C 4.45 g/m*3 -0.8 C 0 km/h
249 03-12-2013 20:40:00 -0.9 C 4.42 g/m*3 -0.9 C 0 km/h
250 03-12-2013 20:45:00 -1 C 4.38 g/m*3 -1 C 0 km/h
Sensor: Nr:Datum:Temp:Abs-Feuchte:Windchill:Wind:
Aussen-T/F 251 03-12-2013 20:50:00 -1 C 4.38 g/m*3 -1 C 0 km/h
252 03-12-2013 20:55:00 -0.9 C 4.42 g/m*3 -0.9 C 0 km/h
253 03-12-2013 21:00:00 -1.1 C 4.35 g/m*3 -1.1 C 0 km/h
254 03-12-2013 21:05:00 -1.1 C 4.35 g/m*3 -1.1 C 0 km/h
255 03-12-2013 21:10:00 -1.2 C 4.32 g/m*3 -1.2 C 0 km/h
256 03-12-2013 21:15:00 -1.2 C 4.32 g/m*3 -1.2 C 0 km/h
257 03-12-2013 21:20:00 -1.1 C 4.35 g/m*3 -1.1 C 0 km/h
258 03-12-2013 21:25:00 -1.1 C 4.35 g/m*3 -1.1 C 1.6 km/h
259 03-12-2013 21:30:00 -0.9 C 4.42 g/m*3 -0.9 C 0 km/h
260 03-12-2013 21:35:00 -0.7 C 4.48 g/m*3 -0.7 C 0 km/h
261 03-12-2013 21:40:00 -0.4 C 4.57 g/m*3 -0.4 C 0 km/h
262 03-12-2013 21:45:00 -0.2 C 4.68 g/m*3 -0.2 C 0 km/h
263 03-12-2013 21:50:00 -0.1 C 4.72 g/m*3 -0.1 C 0 km/h
264 03-12-2013 21:55:00 0.1 C 4.78 g/m*3 0.1 C 0 km/h
265 03-12-2013 22:00:00 0.2 C 4.81 g/m*3 0.2 C 0 km/h
266 03-12-2013 22:05:00 0.3 C 4.85 g/m*3 0.3 C 0 km/h
267 03-12-2013 22:10:00 0.3 C 4.85 g/m*3 0.3 C 0 km/h
268 03-12-2013 22:15:00 0.4 C 4.88 g/m*3 0.4 C 0 km/h
269 03-12-2013 22:20:00 0.5 C 4.91 g/m*3 0.5 C 0 km/h
270 03-12-2013 22:25:00 0.6 C 4.95 g/m*3 0.6 C 3.2 km/h
271 03-12-2013 22:30:00 0.6 C 4.95 g/m*3 0.6 C 0 km/h
272 03-12-2013 22:35:00 0.7 C 4.98 g/m*3 0.7 C 0 km/h
273 03-12-2013 22:40:00 0.7 C 4.98 g/m*3 0.7 C 0 km/h
274 03-12-2013 22:45:00 0.8 C 5.02 g/m*3 0.8 C 0 km/h
275 03-12-2013 22:50:00 0.8 C 5.02 g/m*3 0.8 C 0 km/h
Sensor: Nr:Datum:Temp:Abs-Feuchte:Windchill:Wind:
Aussen-T/F 276 03-12-2013 22:55:00 0.8 C 5.02 g/m*3 0.8 C 0 km/h
277 03-12-2013 23:00:00 0.8 C 5.02 g/m*3 0.8 C 0 km/h
278 03-12-2013 23:05:00 0.8 C 5.02 g/m*3 0.8 C 0 km/h
279 03-12-2013 23:10:00 0.8 C 4.97 g/m*3 0.8 C 0 km/h
280 03-12-2013 23:15:00 0.8 C 5.02 g/m*3 0.8 C 0 km/h
281 03-12-2013 23:20:00 0.8 C 4.97 g/m*3 0.8 C 0 km/h
282 03-12-2013 23:25:00 0.8 C 4.97 g/m*3 0.8 C 0 km/h
283 03-12-2013 23:30:00 0.8 C 4.97 g/m*3 0.8 C 0 km/h
284 03-12-2013 23:35:00 0.8 C 4.97 g/m*3 0.8 C 0 km/h
285 03-12-2013 23:40:00 0.9 C 5 g/m*3 0.9 C 0 km/h
286 03-12-2013 23:45:00 0.9 C 5 g/m*3 0.9 C 0 km/h
287 03-12-2013 23:50:00 0.9 C 5.05 g/m*3 0.9 C 0 km/h
288 03-12-2013 23:55:00 0.9 C 5.05 g/m*3 0.9 C 3.2 km/h
289 04-12-2013 00:00:00 1 C 5.09 g/m*3 1 C 0 km/h
290 04-12-2013 00:05:00 1.1 C 5.07 g/m*3 1.1 C 3.2 km/h
291 04-12-2013 00:10:00 1.1 C 5.07 g/m*3 1.1 C 1.6 km/h
292 04-12-2013 00:15:00 1.1 C 5.07 g/m*3 1.1 C 0 km/h
293 04-12-2013 00:20:00 1.1 C 5.07 g/m*3 1.1 C 4.8 km/h
294 04-12-2013 00:25:00 1.1 C 5.07 g/m*3 1.1 C 0 km/h
295 04-12-2013 00:30:00 1.1 C 5.07 g/m*3 -1.48 C 8.1 km/h
296 04-12-2013 00:35:00 1.1 C 5.07 g/m*3 -1.48 C 8.1 km/h
297 04-12-2013 00:40:00 1.1 C 5.07 g/m*3 1.1 C 0 km/h
298 04-12-2013 00:45:00 1.1 C 5.07 g/m*3 1.1 C 0 km/h
299 04-12-2013 00:50:00 1.1 C 5.07 g/m*3 1.1 C 3.2 km/h
300 04-12-2013 00:55:00 1.1 C 5.07 g/m*3 1.1 C 3.2 km/h
Sensor: Nr:Datum:Temp:Abs-Feuchte:Windchill:Wind:
Aussen-T/F 301 04-12-2013 01:00:00 1.1 C 5.07 g/m*3 1.1 C 1.6 km/h
302 04-12-2013 01:05:00 1.1 C 5.07 g/m*3 1.1 C 4.8 km/h
303 04-12-2013 01:10:00 1.1 C 5.07 g/m*3 -1.48 C 8.1 km/h
304 04-12-2013 01:15:00 1.2 C 5.05 g/m*3 1.2 C 3.2 km/h
305 04-12-2013 01:20:00 1.2 C 5.05 g/m*3 1.2 C 4.8 km/h
306 04-12-2013 01:25:00 1.2 C 5.05 g/m*3 -0.8 C 6.4 km/h
307 04-12-2013 01:30:00 1.2 C 5.05 g/m*3 1.2 C 4.8 km/h
308 04-12-2013 01:35:00 1.2 C 5.05 g/m*3 1.2 C 4.8 km/h
309 04-12-2013 01:40:00 1.2 C 5.05 g/m*3 1.2 C 4.8 km/h
310 04-12-2013 01:45:00 1.2 C 5.05 g/m*3 -0.8 C 6.4 km/h
311 04-12-2013 01:50:00 1.2 C 5 g/m*3 1.2 C 3.2 km/h
312 04-12-2013 01:55:00 1.2 C 5 g/m*3 1.2 C 4.8 km/h
313 04-12-2013 02:00:00 1.2 C 5 g/m*3 -1.36 C 8.1 km/h
314 04-12-2013 02:05:00 1.3 C 5.03 g/m*3 -1.24 C 8.1 km/h
315 04-12-2013 02:10:00 1.3 C 5.03 g/m*3 1.3 C 4.8 km/h
316 04-12-2013 02:15:00 1.3 C 5.03 g/m*3 -1.69 C 9.7 km/h
317 04-12-2013 02:20:00 1.3 C 5.03 g/m*3 -2.07 C 11.3 km/h
318 04-12-2013 02:25:00 1.3 C 4.98 g/m*3 1.3 C 4.8 km/h
319 04-12-2013 02:30:00 1.3 C 4.98 g/m*3 -1.24 C 8.1 km/h
320 04-12-2013 02:35:00 1.3 C 4.98 g/m*3 -1.24 C 8.1 km/h
321 04-12-2013 02:40:00 1.3 C 4.98 g/m*3 -1.24 C 8.1 km/h
322 04-12-2013 02:45:00 1.3 C 4.98 g/m*3 -0.68 C 6.4 km/h
323 04-12-2013 02:50:00 1.3 C 4.98 g/m*3 -2.41 C 12.9 km/h
324 04-12-2013 02:55:00 1.3 C 4.98 g/m*3 -2.07 C 11.3 km/h
325 04-12-2013 03:00:00 1.3 C 4.98 g/m*3 -1.24 C 8.1 km/h
Sensor: Nr:Datum:Temp:Abs-Feuchte:Windchill:Wind:
Aussen-T/F 326 04-12-2013 03:05:00 1.3 C 4.98 g/m*3 -2.41 C 12.9 km/h
327 04-12-2013 03:10:00 1.3 C 4.98 g/m*3 -1.69 C 9.7 km/h
328 04-12-2013 03:15:00 1.3 C 4.98 g/m*3 -2.41 C 12.9 km/h
329 04-12-2013 03:20:00 1.3 C 4.98 g/m*3 -2.41 C 12.9 km/h
330 04-12-2013 03:25:00 1.3 C 4.98 g/m*3 -2.72 C 14.5 km/h
331 04-12-2013 03:30:00 1.3 C 4.93 g/m*3 -3 C 16.1 km/h
332 04-12-2013 03:35:00 1.3 C 4.93 g/m*3 -1.69 C 9.7 km/h
333 04-12-2013 03:40:00 1.3 C 4.93 g/m*3 -2.41 C 12.9 km/h
334 04-12-2013 03:45:00 1.3 C 4.93 g/m*3 -1.24 C 8.1 km/h
335 04-12-2013 03:50:00 1.3 C 4.93 g/m*3 -3.26 C 17.7 km/h
336 04-12-2013 03:55:00 1.3 C 4.93 g/m*3 -2.07 C 11.3 km/h
337 04-12-2013 04:00:00 1.3 C 4.93 g/m*3 -1.69 C 9.7 km/h
338 04-12-2013 04:05:00 1.3 C 4.93 g/m*3 -1.69 C 9.7 km/h
339 04-12-2013 04:10:00 1.3 C 4.93 g/m*3 -3.26 C 17.7 km/h
340 04-12-2013 04:15:00 1.3 C 4.93 g/m*3 -2.07 C 11.3 km/h
341 04-12-2013 04:20:00 1.4 C 4.96 g/m*3 -1.57 C 9.7 km/h
342 04-12-2013 04:25:00 1.4 C 4.96 g/m*3 -1.95 C 11.3 km/h
343 04-12-2013 04:30:00 1.4 C 4.96 g/m*3 -1.12 C 8.1 km/h
344 04-12-2013 04:35:00 1.5 C 4.99 g/m*3 -1.45 C 9.7 km/h
345 04-12-2013 04:40:00 1.6 C 5.03 g/m*3 -0.89 C 8.1 km/h
346 04-12-2013 04:45:00 1.6 C 5.03 g/m*3 -0.89 C 8.1 km/h
347 04-12-2013 04:50:00 1.6 C 5.03 g/m*3 -0.33 C 6.4 km/h
348 04-12-2013 04:55:00 1.6 C 5.03 g/m*3 1.6 C 3.2 km/h
349 04-12-2013 05:00:00 1.6 C 5.03 g/m*3 1.6 C 3.2 km/h
350 04-12-2013 05:05:00 1.6 C 5.03 g/m*3 1.6 C 1.6 km/h
Sensor: Nr:Datum:Temp:Abs-Feuchte:Windchill:Wind:
Aussen-T/F 351 04-12-2013 05:10:00 1.6 C 5.03 g/m*3 1.6 C 3.2 km/h
352 04-12-2013 05:15:00 1.6 C 5.03 g/m*3 1.6 C 4.8 km/h
353 04-12-2013 05:20:00 1.6 C 5.03 g/m*3 1.6 C 4.8 km/h
354 04-12-2013 05:25:00 1.6 C 5.03 g/m*3 1.6 C 3.2 km/h
355 04-12-2013 05:30:00 1.7 C 5.06 g/m*3 1.7 C 4.8 km/h
356 04-12-2013 05:35:00 1.7 C 5.06 g/m*3 -0.77 C 8.1 km/h
357 04-12-2013 05:40:00 1.7 C 5.06 g/m*3 -0.77 C 8.1 km/h
358 04-12-2013 05:45:00 1.7 C 5.06 g/m*3 -1.21 C 9.7 km/h
359 04-12-2013 05:50:00 1.7 C 5.06 g/m*3 -0.77 C 8.1 km/h
360 04-12-2013 05:55:00 1.7 C 5.06 g/m*3 -1.59 C 11.3 km/h
361 04-12-2013 06:00:00 1.7 C 5.12 g/m*3 -0.77 C 8.1 km/h
362 04-12-2013 06:05:00 1.7 C 5.12 g/m*3 -0.22 C 6.4 km/h
363 04-12-2013 06:10:00 1.7 C 5.12 g/m*3 -1.59 C 11.3 km/h
364 04-12-2013 06:15:00 1.7 C 5.12 g/m*3 -0.77 C 8.1 km/h
365 04-12-2013 06:20:00 1.7 C 5.12 g/m*3 -0.77 C 8.1 km/h
366 04-12-2013 06:25:00 1.7 C 5.12 g/m*3 -0.22 C 6.4 km/h
367 04-12-2013 06:30:00 1.8 C 5.15 g/m*3 -1.09 C 9.7 km/h
368 04-12-2013 06:35:00 1.8 C 5.1 g/m*3 -0.1 C 6.4 km/h
369 04-12-2013 06:40:00 1.8 C 5.15 g/m*3 -1.47 C 11.3 km/h
370 04-12-2013 06:45:00 1.8 C 5.15 g/m*3 -1.47 C 11.3 km/h
371 04-12-2013 06:50:00 1.8 C 5.15 g/m*3 -1.09 C 9.7 km/h
372 04-12-2013 06:55:00 1.8 C 5.15 g/m*3 -0.65 C 8.1 km/h
373 04-12-2013 07:00:00 1.9 C 5.19 g/m*3 -1.35 C 11.3 km/h
374 04-12-2013 07:05:00 1.9 C 5.19 g/m*3 -1.35 C 11.3 km/h
375 04-12-2013 07:10:00 1.9 C 5.19 g/m*3 -0.54 C 8.1 km/h
Sensor: Nr:Datum:Temp:Abs-Feuchte:Windchill:Wind:
Aussen-T/F 376 04-12-2013 07:15:00 1.9 C 5.19 g/m*3 -0.97 C 9.7 km/h
377 04-12-2013 07:20:00 1.9 C 5.19 g/m*3 -0.97 C 9.7 km/h
378 04-12-2013 07:25:00 1.9 C 5.19 g/m*3 -0.97 C 9.7 km/h
379 04-12-2013 07:30:00 1.9 C 5.19 g/m*3 -0.97 C 9.7 km/h
380 04-12-2013 07:35:00 2 C 5.22 g/m*3 -0.42 C 8.1 km/h
381 04-12-2013 07:40:00 2.1 C 5.26 g/m*3 -0.73 C 9.7 km/h
382 04-12-2013 07:45:00 2.2 C 5.24 g/m*3 -0.18 C 8.1 km/h
383 04-12-2013 07:50:00 2.2 C 5.24 g/m*3 -0.61 C 9.7 km/h
384 04-12-2013 07:55:00 2.2 C 5.24 g/m*3 -0.18 C 8.1 km/h
385 04-12-2013 08:00:00 2.2 C 5.24 g/m*3 -0.61 C 9.7 km/h
386 04-12-2013 08:05:00 2.3 C 5.27 g/m*3 -0.49 C 9.7 km/h
387 04-12-2013 08:10:00 2.3 C 5.27 g/m*3 -0.87 C 11.3 km/h
388 04-12-2013 08:15:00 2.3 C 5.27 g/m*3 -0.87 C 11.3 km/h
389 04-12-2013 08:20:00 2.4 C 5.31 g/m*3 -0.74 C 11.3 km/h
390 04-12-2013 08:25:00 2.4 C 5.31 g/m*3 -0.37 C 9.7 km/h
391 04-12-2013 08:30:00 2.4 C 5.31 g/m*3 -0.74 C 11.3 km/h
392 04-12-2013 08:35:00 2.4 C 5.31 g/m*3 -1.07 C 12.9 km/h
393 04-12-2013 08:40:00 2.5 C 5.35 g/m*3 -0.26 C 9.7 km/h
394 04-12-2013 08:45:00 2.6 C 5.32 g/m*3 -0.83 C 12.9 km/h
395 04-12-2013 08:50:00 2.6 C 5.38 g/m*3 -0.14 C 9.7 km/h
396 04-12-2013 08:55:00 2.6 C 5.38 g/m*3 -0.5 C 11.3 km/h
397 04-12-2013 09:00:00 2.6 C 5.32 g/m*3 -0.14 C 9.7 km/h
398 04-12-2013 09:05:00 2.7 C 5.36 g/m*3 -0.71 C 12.9 km/h
399 04-12-2013 09:10:00 2.7 C 5.36 g/m*3 -1 C 14.5 km/h
400 04-12-2013 09:15:00 2.7 C 5.36 g/m*3 -0.71 C 12.9 km/h
Sensor: Nr:Datum:Temp:Abs-Feuchte:Windchill:Wind:
Aussen-T/F 401 04-12-2013 09:20:00 2.7 C 5.42 g/m*3 -0.38 C 11.3 km/h
402 04-12-2013 09:25:00 2.7 C 5.42 g/m*3 -0.71 C 12.9 km/h
403 04-12-2013 09:30:00 2.7 C 5.42 g/m*3 -0.38 C 11.3 km/h
404 04-12-2013 09:35:00 2.7 C 5.42 g/m*3 -0.02 C 9.7 km/h
405 04-12-2013 09:40:00 2.7 C 5.42 g/m*3 -0.02 C 9.7 km/h
406 04-12-2013 09:45:00 2.8 C 5.46 g/m*3 1.05 C 6.4 km/h
407 04-12-2013 09:50:00 2.8 C 5.46 g/m*3 0.52 C 8.1 km/h
408 04-12-2013 09:55:00 2.8 C 5.4 g/m*3 0.1 C 9.7 km/h
409 04-12-2013 10:00:00 2.8 C 5.46 g/m*3 0.52 C 8.1 km/h
410 04-12-2013 10:05:00 2.8 C 5.46 g/m*3 0.1 C 9.7 km/h
411 04-12-2013 10:10:00 2.9 C 5.49 g/m*3 0.22 C 9.7 km/h
412 04-12-2013 10:15:00 2.9 C 5.49 g/m*3 0.64 C 8.1 km/h
413 04-12-2013 10:20:00 2.9 C 5.49 g/m*3 0.22 C 9.7 km/h
414 04-12-2013 10:25:00 2.9 C 5.49 g/m*3 0.64 C 8.1 km/h
415 04-12-2013 10:30:00 3 C 5.53 g/m*3 -0.02 C 11.3 km/h
416 04-12-2013 10:35:00 3.1 C 5.57 g/m*3 1.4 C 6.4 km/h
417 04-12-2013 10:40:00 3.1 C 5.57 g/m*3 1.4 C 6.4 km/h
418 04-12-2013 10:45:00 3.1 C 5.57 g/m*3 0.1 C 11.3 km/h
419 04-12-2013 10:50:00 3.1 C 5.51 g/m*3 1.4 C 6.4 km/h
420 04-12-2013 10:55:00 3.2 C 5.54 g/m*3 0.58 C 9.7 km/h
421 04-12-2013 11:00:00 3.2 C 5.54 g/m*3 0.58 C 9.7 km/h
422 04-12-2013 11:05:00 3.2 C 5.54 g/m*3 0.99 C 8.1 km/h
423 04-12-2013 11:10:00 3.2 C 5.54 g/m*3 0.22 C 11.3 km/h
424 04-12-2013 11:15:00 3.2 C 5.54 g/m*3 0.99 C 8.1 km/h
425 04-12-2013 11:20:00 3.2 C 5.54 g/m*3 0.22 C 11.3 km/h
Sensor: Nr:Datum:Temp:Abs-Feuchte:Windchill:Wind:
Aussen-T/F 426 04-12-2013 11:25:00 3.3 C 5.58 g/m*3 0.7 C 9.7 km/h
427 04-12-2013 11:30:00 3.3 C 5.58 g/m*3 0.7 C 9.7 km/h
428 04-12-2013 11:35:00 3.3 C 5.58 g/m*3 0.7 C 9.7 km/h
429 04-12-2013 11:40:00 3.4 C 5.62 g/m*3 1.23 C 8.1 km/h
430 04-12-2013 11:45:00 3.4 C 5.62 g/m*3 0.82 C 9.7 km/h
431 04-12-2013 11:50:00 3.4 C 5.62 g/m*3 0.82 C 9.7 km/h
432 04-12-2013 11:55:00 3.4 C 5.62 g/m*3 0.82 C 9.7 km/h
433 04-12-2013 12:00:00 3.4 C 5.62 g/m*3 3.4 C 4.8 km/h
434 04-12-2013 12:05:00 3.4 C 5.62 g/m*3 0.82 C 9.7 km/h
435 04-12-2013 12:10:00 3.5 C 5.6 g/m*3 0.94 C 9.7 km/h
436 04-12-2013 12:15:00 3.6 C 5.63 g/m*3 1.46 C 8.1 km/h
437 04-12-2013 12:20:00 3.6 C 5.63 g/m*3 1.06 C 9.7 km/h
438 04-12-2013 12:25:00 3.6 C 5.63 g/m*3 1.46 C 8.1 km/h
439 04-12-2013 12:30:00 3.6 C 5.63 g/m*3 1.46 C 8.1 km/h
440 04-12-2013 12:35:00 3.6 C 5.63 g/m*3 1.98 C 6.4 km/h
441 04-12-2013 12:40:00 3.7 C 5.67 g/m*3 1.58 C 8.1 km/h
442 04-12-2013 12:45:00 3.7 C 5.67 g/m*3 2.09 C 6.4 km/h
443 04-12-2013 12:50:00 3.7 C 5.67 g/m*3 1.18 C 9.7 km/h
444 04-12-2013 12:55:00 3.8 C 5.71 g/m*3 1.7 C 8.1 km/h
445 04-12-2013 13:00:00 3.8 C 5.71 g/m*3 3.8 C 4.8 km/h
446 04-12-2013 13:05:00 3.8 C 5.71 g/m*3 3.8 C 4.8 km/h
447 04-12-2013 13:10:00 3.9 C 5.68 g/m*3 1.82 C 8.1 km/h
448 04-12-2013 13:15:00 3.9 C 5.68 g/m*3 3.9 C 4.8 km/h
449 04-12-2013 13:20:00 3.9 C 5.68 g/m*3 1.82 C 8.1 km/h
450 04-12-2013 13:25:00 4 C 5.72 g/m*3 1.53 C 9.7 km/h
Sensor: Nr:Datum:Temp:Abs-Feuchte:Windchill:Wind:
Aussen-T/F 451 04-12-2013 13:30:00 4.1 C 5.76 g/m*3 2.55 C 6.4 km/h
452 04-12-2013 13:35:00 4.1 C 5.76 g/m*3 4.1 C 4.8 km/h
453 04-12-2013 13:40:00 4.1 C 5.76 g/m*3 2.55 C 6.4 km/h
454 04-12-2013 13:45:00 4.1 C 5.76 g/m*3 1.65 C 9.7 km/h
455 04-12-2013 13:50:00 4.1 C 5.7 g/m*3 4.1 C 4.8 km/h
456 04-12-2013 13:55:00 4.1 C 5.7 g/m*3 4.1 C 4.8 km/h
457 04-12-2013 14:00:00 4.2 C 5.73 g/m*3 4.2 C 3.2 km/h
458 04-12-2013 14:05:00 4.2 C 5.67 g/m*3 4.2 C 4.8 km/h
459 04-12-2013 14:10:00 4.3 C 5.71 g/m*3 2.29 C 8.1 km/h
460 04-12-2013 14:15:00 4.3 C 5.64 g/m*3 4.3 C 4.8 km/h
461 04-12-2013 14:20:00 4.4 C 5.68 g/m*3 2.4 C 8.1 km/h
462 04-12-2013 14:25:00 4.4 C 5.62 g/m*3 2.01 C 9.7 km/h
463 04-12-2013 14:30:00 4.5 C 5.65 g/m*3 4.5 C 4.8 km/h
464 04-12-2013 14:35:00 4.6 C 5.62 g/m*3 2.25 C 9.7 km/h
465 04-12-2013 14:40:00 4.7 C 5.66 g/m*3 3.25 C 6.4 km/h
466 04-12-2013 14:45:00 4.7 C 5.66 g/m*3 2.76 C 8.1 km/h
467 04-12-2013 14:50:00 4.7 C 5.66 g/m*3 2.76 C 8.1 km/h
468 04-12-2013 14:55:00 4.8 C 5.7 g/m*3 1.85 C 12.9 km/h
469 04-12-2013 15:00:00 4.8 C 5.7 g/m*3 1.58 C 14.5 km/h
470 04-12-2013 15:05:00 4.8 C 5.7 g/m*3 2.49 C 9.7 km/h
471 04-12-2013 15:10:00 4.8 C 5.63 g/m*3 3.36 C 6.4 km/h
472 04-12-2013 15:15:00 4.8 C 5.7 g/m*3 3.36 C 6.4 km/h
473 04-12-2013 15:20:00 4.9 C 5.74 g/m*3 2.61 C 9.7 km/h
474 04-12-2013 15:25:00 4.9 C 5.74 g/m*3 2.61 C 9.7 km/h
475 04-12-2013 15:30:00 4.8 C 5.7 g/m*3 1.85 C 12.9 km/h
Sensor: Nr:Datum:Temp:Abs-Feuchte:Windchill:Wind:
Aussen-T/F 476 04-12-2013 15:35:00 4.8 C 5.7 g/m*3 2.87 C 8.1 km/h
477 04-12-2013 15:40:00 4.8 C 5.7 g/m*3 2.15 C 11.3 km/h
478 04-12-2013 15:45:00 4.8 C 5.7 g/m*3 2.49 C 9.7 km/h
479 04-12-2013 15:50:00 4.8 C 5.7 g/m*3 2.87 C 8.1 km/h
480 04-12-2013 15:55:00 4.8 C 5.7 g/m*3 2.49 C 9.7 km/h
481 04-12-2013 16:00:00 4.8 C 5.7 g/m*3 4.8 C 4.8 km/h
482 04-12-2013 16:05:00 4.8 C 5.77 g/m*3 3.36 C 6.4 km/h
483 04-12-2013 16:10:00 4.7 C 5.73 g/m*3 2.03 C 11.3 km/h
484 04-12-2013 16:15:00 4.8 C 5.77 g/m*3 2.49 C 9.7 km/h
485 04-12-2013 16:20:00 4.8 C 5.77 g/m*3 2.87 C 8.1 km/h
486 04-12-2013 16:25:00 4.7 C 5.73 g/m*3 3.25 C 6.4 km/h
487 04-12-2013 16:30:00 4.7 C 5.73 g/m*3 3.25 C 6.4 km/h
488 04-12-2013 16:35:00 4.7 C 5.73 g/m*3 2.76 C 8.1 km/h
489 04-12-2013 16:40:00 4.7 C 5.73 g/m*3 2.03 C 11.3 km/h
490 04-12-2013 16:45:00 4.7 C 5.73 g/m*3 3.25 C 6.4 km/h
491 04-12-2013 16:50:00 4.8 C 5.77 g/m*3 3.36 C 6.4 km/h
492 04-12-2013 16:55:00 4.7 C 5.73 g/m*3 3.25 C 6.4 km/h
493 04-12-2013 17:00:00 4.7 C 5.73 g/m*3 3.25 C 6.4 km/h
494 04-12-2013 17:05:00 4.7 C 5.8 g/m*3 2.37 C 9.7 km/h
495 04-12-2013 17:10:00 4.7 C 5.8 g/m*3 3.25 C 6.4 km/h
496 04-12-2013 17:15:00 4.7 C 5.8 g/m*3 2.76 C 8.1 km/h
497 04-12-2013 17:20:00 4.8 C 5.83 g/m*3 4.8 C 4.8 km/h
498 04-12-2013 17:25:00 4.8 C 5.83 g/m*3 2.87 C 8.1 km/h
499 04-12-2013 17:30:00 4.9 C 5.87 g/m*3 2.27 C 11.3 km/h
500 04-12-2013 17:35:00 4.9 C 5.87 g/m*3 1.7 C 14.5 km/h
Sensor: Nr:Datum:Temp:Abs-Feuchte:Windchill:Wind:
Aussen-T/F 501 04-12-2013 17:40:00 4.9 C 5.87 g/m*3 2.61 C 9.7 km/h
502 04-12-2013 17:45:00 5 C 5.91 g/m*3 1.83 C 14.5 km/h
503 04-12-2013 17:50:00 5 C 5.91 g/m*3 2.72 C 9.7 km/h
504 04-12-2013 17:55:00 5 C 5.91 g/m*3 2.72 C 9.7 km/h
505 04-12-2013 18:00:00 5 C 5.91 g/m*3 2.39 C 11.3 km/h
506 04-12-2013 18:05:00 5 C 5.91 g/m*3 1.58 C 16.1 km/h
507 04-12-2013 18:10:00 5.1 C 5.95 g/m*3 2.51 C 11.3 km/h
508 04-12-2013 18:15:00 5 C 5.91 g/m*3 1.15 C 19.3 km/h
509 04-12-2013 18:20:00 5 C 5.98 g/m*3 1.58 C 16.1 km/h
510 04-12-2013 18:25:00 5 C 5.98 g/m*3 2.09 C 12.9 km/h
511 04-12-2013 18:30:00 4.9 C 6.01 g/m*3 1.97 C 12.9 km/h
512 04-12-2013 18:35:00 4.8 C 6.04 g/m*3 2.87 C 8.1 km/h
513 04-12-2013 18:40:00 4.8 C 6.1 g/m*3 1.85 C 12.9 km/h
514 04-12-2013 18:45:00 4.7 C 6.06 g/m*3 2.03 C 11.3 km/h
515 04-12-2013 18:50:00 4.6 C 6.09 g/m*3 1.91 C 11.3 km/h
516 04-12-2013 18:55:00 4.6 C 6.02 g/m*3 2.25 C 9.7 km/h
517 04-12-2013 19:00:00 4.6 C 6.02 g/m*3 2.64 C 8.1 km/h
518 04-12-2013 19:05:00 4.6 C 6.02 g/m*3 1.09 C 16.1 km/h
519 04-12-2013 19:10:00 4.7 C 6.06 g/m*3 2.37 C 9.7 km/h
520 04-12-2013 19:15:00 4.7 C 6.06 g/m*3 2.03 C 11.3 km/h
521 04-12-2013 19:20:00 4.7 C 6.06 g/m*3 2.76 C 8.1 km/h
522 04-12-2013 19:25:00 4.8 C 6.1 g/m*3 1.85 C 12.9 km/h
523 04-12-2013 19:30:00 4.8 C 6.04 g/m*3 2.15 C 11.3 km/h
524 04-12-2013 19:35:00 4.9 C 6.08 g/m*3 1.97 C 12.9 km/h
525 04-12-2013 19:40:00 4.9 C 6.08 g/m*3 0.83 C 20.9 km/h
Sensor: Nr:Datum:Temp:Abs-Feuchte:Windchill:Wind:
Aussen-T/F 526 04-12-2013 19:45:00 5 C 6.05 g/m*3 2.09 C 12.9 km/h
527 04-12-2013 19:50:00 5 C 6.05 g/m*3 1.83 C 14.5 km/h
528 04-12-2013 19:55:00 5 C 6.12 g/m*3 2.39 C 11.3 km/h
529 04-12-2013 20:00:00 4.9 C 6.08 g/m*3 1.97 C 12.9 km/h
530 04-12-2013 20:05:00 4.9 C 6.08 g/m*3 2.27 C 11.3 km/h
531 04-12-2013 20:10:00 4.9 C 6.14 g/m*3 2.27 C 11.3 km/h
532 04-12-2013 20:15:00 4.9 C 6.14 g/m*3 2.99 C 8.1 km/h
533 04-12-2013 20:20:00 4.9 C 6.14 g/m*3 2.27 C 11.3 km/h
534 04-12-2013 20:25:00 4.9 C 6.14 g/m*3 1.97 C 12.9 km/h
535 04-12-2013 20:30:00 4.9 C 6.14 g/m*3 2.27 C 11.3 km/h
536 04-12-2013 20:35:00 4.9 C 6.14 g/m*3 2.61 C 9.7 km/h
537 04-12-2013 20:40:00 4.9 C 6.21 g/m*3 2.61 C 9.7 km/h
538 04-12-2013 20:45:00 4.9 C 6.21 g/m*3 2.27 C 11.3 km/h
539 04-12-2013 20:50:00 4.9 C 6.21 g/m*3 2.61 C 9.7 km/h
540 04-12-2013 20:55:00 4.9 C 6.21 g/m*3 2.27 C 11.3 km/h
541 04-12-2013 21:00:00 4.8 C 6.17 g/m*3 2.49 C 9.7 km/h
542 04-12-2013 21:05:00 4.8 C 6.24 g/m*3 2.87 C 8.1 km/h
543 04-12-2013 21:10:00 4.8 C 6.24 g/m*3 2.15 C 11.3 km/h
544 04-12-2013 21:15:00 4.8 C 6.24 g/m*3 1.85 C 12.9 km/h
545 04-12-2013 21:20:00 4.8 C 6.24 g/m*3 2.87 C 8.1 km/h
546 04-12-2013 21:25:00 4.8 C 6.24 g/m*3 3.36 C 6.4 km/h
547 04-12-2013 21:30:00 4.8 C 6.24 g/m*3 2.87 C 8.1 km/h
548 04-12-2013 21:35:00 4.8 C 6.3 g/m*3 3.36 C 6.4 km/h
549 04-12-2013 21:40:00 4.8 C 6.3 g/m*3 2.87 C 8.1 km/h
550 04-12-2013 21:45:00 4.8 C 6.3 g/m*3 2.87 C 8.1 km/h
Sensor: Nr:Datum:Temp:Abs-Feuchte:Windchill:Wind:
Aussen-T/F 551 04-12-2013 21:50:00 4.8 C 6.3 g/m*3 2.49 C 9.7 km/h
552 04-12-2013 21:55:00 4.8 C 6.3 g/m*3 3.36 C 6.4 km/h
553 04-12-2013 22:00:00 4.7 C 6.33 g/m*3 3.25 C 6.4 km/h
554 04-12-2013 22:05:00 4.7 C 6.33 g/m*3 4.7 C 4.8 km/h
555 04-12-2013 22:10:00 4.7 C 6.33 g/m*3 2.76 C 8.1 km/h
556 04-12-2013 22:15:00 4.7 C 6.33 g/m*3 4.7 C 4.8 km/h
557 04-12-2013 22:20:00 4.8 C 6.37 g/m*3 4.8 C 4.8 km/h
558 04-12-2013 22:25:00 4.7 C 6.33 g/m*3 3.25 C 6.4 km/h
559 04-12-2013 22:30:00 4.8 C 6.37 g/m*3 4.8 C 4.8 km/h
560 04-12-2013 22:35:00 4.8 C 6.44 g/m*3 2.87 C 8.1 km/h
561 04-12-2013 22:40:00 4.8 C 6.37 g/m*3 4.8 C 4.8 km/h
562 04-12-2013 22:45:00 4.8 C 6.37 g/m*3 4.8 C 1.6 km/h
563 04-12-2013 22:50:00 4.8 C 6.44 g/m*3 4.8 C 4.8 km/h
564 04-12-2013 22:55:00 4.9 C 6.48 g/m*3 4.9 C 3.2 km/h
565 04-12-2013 23:00:00 4.9 C 6.48 g/m*3 4.9 C 3.2 km/h
566 04-12-2013 23:05:00 5 C 6.52 g/m*3 5 C 3.2 km/h
567 04-12-2013 23:10:00 5.1 C 6.57 g/m*3 5.1 C 1.6 km/h
568 04-12-2013 23:15:00 5.1 C 6.57 g/m*3 5.1 C 1.6 km/h
569 04-12-2013 23:20:00 5 C 6.52 g/m*3 5 C 3.2 km/h
570 04-12-2013 23:25:00 5 C 6.52 g/m*3 5 C 4.8 km/h
571 04-12-2013 23:30:00 4.9 C 6.48 g/m*3 4.9 C 3.2 km/h
572 04-12-2013 23:35:00 4.9 C 6.48 g/m*3 4.9 C 1.6 km/h
573 04-12-2013 23:40:00 4.9 C 6.48 g/m*3 4.9 C 3.2 km/h
574 04-12-2013 23:45:00 4.9 C 6.48 g/m*3 4.9 C 3.2 km/h
575 04-12-2013 23:50:00 5 C 6.52 g/m*3 5 C 4.8 km/h
Sensor: Nr:Datum:Temp:Abs-Feuchte:Windchill:Wind:
Aussen-T/F 576 04-12-2013 23:55:00 4.9 C 6.48 g/m*3 4.9 C 4.8 km/h
577 05-12-2013 00:00:00 4.9 C 6.48 g/m*3 4.9 C 3.2 km/h
578 05-12-2013 00:05:00 4.8 C 6.44 g/m*3 4.8 C 4.8 km/h
579 05-12-2013 00:10:00 4.6 C 6.29 g/m*3 4.6 C 1.6 km/h
580 05-12-2013 00:15:00 4.4 C 6.27 g/m*3 4.4 C 1.6 km/h
581 05-12-2013 00:20:00 4.4 C 6.27 g/m*3 4.4 C 1.6 km/h
582 05-12-2013 00:25:00 4.3 C 6.23 g/m*3 4.3 C 3.2 km/h
583 05-12-2013 00:30:00 4.3 C 6.23 g/m*3 4.3 C 1.6 km/h
584 05-12-2013 00:35:00 4.2 C 6.19 g/m*3 4.2 C 0 km/h
585 05-12-2013 00:40:00 4.1 C 6.14 g/m*3 4.1 C 3.2 km/h
586 05-12-2013 00:45:00 3.9 C 6.06 g/m*3 3.9 C 3.2 km/h
587 05-12-2013 00:50:00 3.8 C 6.02 g/m*3 3.8 C 3.2 km/h
588 05-12-2013 00:55:00 3.6 C 5.94 g/m*3 3.6 C 3.2 km/h
589 05-12-2013 01:00:00 3.4 C 5.86 g/m*3 3.4 C 3.2 km/h
590 05-12-2013 01:05:00 3.3 C 5.82 g/m*3 3.3 C 3.2 km/h
591 05-12-2013 01:10:00 3.2 C 5.79 g/m*3 3.2 C 1.6 km/h
592 05-12-2013 01:15:00 3.1 C 5.75 g/m*3 3.1 C 3.2 km/h
593 05-12-2013 01:20:00 3 C 5.71 g/m*3 3 C 3.2 km/h
594 05-12-2013 01:25:00 3 C 5.71 g/m*3 3 C 3.2 km/h
595 05-12-2013 01:30:00 3 C 5.71 g/m*3 3 C 3.2 km/h
596 05-12-2013 01:35:00 2.9 C 5.73 g/m*3 2.9 C 1.6 km/h
597 05-12-2013 01:40:00 2.9 C 5.73 g/m*3 2.9 C 3.2 km/h
598 05-12-2013 01:45:00 2.9 C 5.73 g/m*3 2.9 C 0 km/h
599 05-12-2013 01:50:00 2.8 C 5.69 g/m*3 2.8 C 0 km/h
600 05-12-2013 01:55:00 2.8 C 5.69 g/m*3 2.8 C 0 km/h
Sensor: Nr:Datum:Temp:Abs-Feuchte:Windchill:Wind:
Aussen-T/F 601 05-12-2013 02:00:00 2.7 C 5.65 g/m*3 2.7 C 0 km/h
602 05-12-2013 02:05:00 2.6 C 5.61 g/m*3 2.6 C 1.6 km/h
603 05-12-2013 02:10:00 2.6 C 5.61 g/m*3 2.6 C 1.6 km/h
604 05-12-2013 02:15:00 2.6 C 5.61 g/m*3 2.6 C 3.2 km/h
605 05-12-2013 02:20:00 2.5 C 5.58 g/m*3 2.5 C 1.6 km/h
606 05-12-2013 02:25:00 2.4 C 5.54 g/m*3 2.4 C 1.6 km/h
607 05-12-2013 02:30:00 2.4 C 5.54 g/m*3 2.4 C 3.2 km/h
608 05-12-2013 02:35:00 2.3 C 5.5 g/m*3 2.3 C 1.6 km/h
609 05-12-2013 02:40:00 2.3 C 5.5 g/m*3 2.3 C 0 km/h
610 05-12-2013 02:45:00 2.3 C 5.5 g/m*3 2.3 C 3.2 km/h
611 05-12-2013 02:50:00 2.3 C 5.5 g/m*3 2.3 C 0 km/h
612 05-12-2013 02:55:00 2.3 C 5.5 g/m*3 2.3 C 3.2 km/h
613 05-12-2013 03:00:00 2.2 C 5.46 g/m*3 2.2 C 1.6 km/h
614 05-12-2013 03:05:00 2.3 C 5.5 g/m*3 2.3 C 1.6 km/h
615 05-12-2013 03:10:00 2.3 C 5.5 g/m*3 2.3 C 1.6 km/h
616 05-12-2013 03:15:00 2.3 C 5.5 g/m*3 2.3 C 3.2 km/h
617 05-12-2013 03:20:00 2.3 C 5.5 g/m*3 2.3 C 3.2 km/h
618 05-12-2013 03:25:00 2.2 C 5.46 g/m*3 0.36 C 6.4 km/h
619 05-12-2013 03:30:00 2.2 C 5.46 g/m*3 0.36 C 6.4 km/h
620 05-12-2013 03:35:00 2.3 C 5.5 g/m*3 0.47 C 6.4 km/h
621 05-12-2013 03:40:00 2.3 C 5.5 g/m*3 2.3 C 3.2 km/h
622 05-12-2013 03:45:00 2.3 C 5.5 g/m*3 0.47 C 6.4 km/h
623 05-12-2013 03:50:00 2.3 C 5.5 g/m*3 0.47 C 6.4 km/h
624 05-12-2013 03:55:00 2.3 C 5.5 g/m*3 -0.49 C 9.7 km/h
625 05-12-2013 04:00:00 2.3 C 5.5 g/m*3 -0.07 C 8.1 km/h
Sensor: Nr:Datum:Temp:Abs-Feuchte:Windchill:Wind:
Aussen-T/F 626 05-12-2013 04:05:00 2.3 C 5.5 g/m*3 0.47 C 6.4 km/h
627 05-12-2013 04:10:00 2.2 C 5.46 g/m*3 0.36 C 6.4 km/h
628 05-12-2013 04:15:00 2.3 C 5.5 g/m*3 -0.07 C 8.1 km/h
629 05-12-2013 04:20:00 2.3 C 5.5 g/m*3 0.47 C 6.4 km/h
630 05-12-2013 04:25:00 2.3 C 5.5 g/m*3 -0.07 C 8.1 km/h
631 05-12-2013 04:30:00 2.2 C 5.46 g/m*3 -0.18 C 8.1 km/h
632 05-12-2013 04:35:00 2.2 C 5.46 g/m*3 -0.61 C 9.7 km/h
633 05-12-2013 04:40:00 2.2 C 5.46 g/m*3 0.36 C 6.4 km/h
634 05-12-2013 04:45:00 2.2 C 5.46 g/m*3 -0.61 C 9.7 km/h
635 05-12-2013 04:50:00 2.2 C 5.46 g/m*3 -0.99 C 11.3 km/h
636 05-12-2013 04:55:00 2.2 C 5.46 g/m*3 -0.99 C 11.3 km/h
637 05-12-2013 05:00:00 2.2 C 5.46 g/m*3 -0.99 C 11.3 km/h
638 05-12-2013 05:05:00 2.2 C 5.46 g/m*3 -0.61 C 9.7 km/h
639 05-12-2013 05:10:00 2.2 C 5.46 g/m*3 -0.18 C 8.1 km/h
640 05-12-2013 05:15:00 2.2 C 5.46 g/m*3 -0.61 C 9.7 km/h
641 05-12-2013 05:20:00 2.1 C 5.43 g/m*3 0.24 C 6.4 km/h
642 05-12-2013 05:25:00 2.1 C 5.43 g/m*3 0.24 C 6.4 km/h
643 05-12-2013 05:30:00 2.1 C 5.43 g/m*3 2.1 C 4.8 km/h
644 05-12-2013 05:35:00 2.1 C 5.43 g/m*3 -0.73 C 9.7 km/h
645 05-12-2013 05:40:00 2.1 C 5.43 g/m*3 2.1 C 3.2 km/h
646 05-12-2013 05:45:00 2.2 C 5.46 g/m*3 -0.18 C 8.1 km/h
647 05-12-2013 05:50:00 2.2 C 5.46 g/m*3 -0.18 C 8.1 km/h
648 05-12-2013 05:55:00 2.2 C 5.46 g/m*3 0.36 C 6.4 km/h
649 05-12-2013 06:00:00 2.2 C 5.46 g/m*3 0.36 C 6.4 km/h
650 05-12-2013 06:05:00 2.2 C 5.46 g/m*3 0.36 C 6.4 km/h
Sensor: Nr:Datum:Temp:Abs-Feuchte:Windchill:Wind:
Aussen-T/F 651 05-12-2013 06:10:00 2.2 C 5.46 g/m*3 -0.61 C 9.7 km/h
652 05-12-2013 06:15:00 2.3 C 5.5 g/m*3 -0.07 C 8.1 km/h
653 05-12-2013 06:20:00 2.3 C 5.5 g/m*3 -0.07 C 8.1 km/h
654 05-12-2013 06:25:00 2.3 C 5.5 g/m*3 -0.07 C 8.1 km/h
655 05-12-2013 06:30:00 2.4 C 5.54 g/m*3 2.4 C 4.8 km/h
656 05-12-2013 06:35:00 2.5 C 5.58 g/m*3 0.71 C 6.4 km/h
657 05-12-2013 06:40:00 2.6 C 5.61 g/m*3 2.6 C 4.8 km/h
658 05-12-2013 06:45:00 2.6 C 5.61 g/m*3 0.82 C 6.4 km/h
659 05-12-2013 06:50:00 2.6 C 5.56 g/m*3 0.82 C 6.4 km/h
660 05-12-2013 06:55:00 2.6 C 5.56 g/m*3 -0.14 C 9.7 km/h
661 05-12-2013 07:00:00 2.6 C 5.56 g/m*3 -0.5 C 11.3 km/h
662 05-12-2013 07:05:00 2.6 C 5.56 g/m*3 -0.83 C 12.9 km/h
663 05-12-2013 07:10:00 2.4 C 5.48 g/m*3 -1.07 C 12.9 km/h
664 05-12-2013 07:15:00 2.4 C 5.48 g/m*3 -0.37 C 9.7 km/h
665 05-12-2013 07:20:00 2.4 C 5.48 g/m*3 -0.37 C 9.7 km/h
666 05-12-2013 07:28:00 2.3 C 5.44 g/m*3 0.47 C 6.4 km/h
667 05-12-2013 07:30:00 2.2 C 5.41 g/m*3 2.2 C 0 km/h
668 05-12-2013 07:35:00 2.1 C 5.31 g/m*3 2.1 C 4.8 km/h
669 05-12-2013 07:56:00 2.1 C 5.31 g/m*3 2.1 C 1.6 km/h
670 05-12-2013 08:00:00 1.7 C 5.17 g/m*3 1.7 C 4.8 km/h
671 05-12-2013 08:05:00 1.6 C 5.14 g/m*3 -1.33 C 9.7 km/h
672 05-12-2013 08:10:00 1.6 C 5.14 g/m*3 1.6 C 4.8 km/h
673 05-12-2013 08:15:00 1.4 C 5.07 g/m*3 1.4 C 3.2 km/h
674 05-12-2013 08:20:00 1.4 C 5.07 g/m*3 1.4 C 4.8 km/h
675 05-12-2013 08:25:00 1.2 C 5 g/m*3 1.2 C 3.2 km/h
Sensor: Nr:Datum:Temp:Abs-Feuchte:Windchill:Wind:
Aussen-T/F 676 05-12-2013 08:30:00 1.2 C 5.05 g/m*3 1.2 C 4.8 km/h
677 05-12-2013 08:35:00 1.3 C 5.09 g/m*3 1.3 C 3.2 km/h
678 05-12-2013 08:40:00 1.4 C 5.12 g/m*3 1.4 C 4.8 km/h
679 05-12-2013 08:45:00 1.4 C 5.12 g/m*3 -1.12 C 8.1 km/h
680 05-12-2013 08:50:00 1.4 C 5.12 g/m*3 1.4 C 3.2 km/h
681 05-12-2013 08:55:00 1.4 C 5.12 g/m*3 1.4 C 3.2 km/h
682 05-12-2013 09:00:00 1.6 C 5.19 g/m*3 -0.89 C 8.1 km/h
683 05-12-2013 09:05:00 1.7 C 5.23 g/m*3 1.7 C 4.8 km/h
684 05-12-2013 09:10:00 1.9 C 5.3 g/m*3 1.9 C 4.8 km/h
685 05-12-2013 09:15:00 2 C 5.33 g/m*3 2 C 4.8 km/h
686 05-12-2013 09:20:00 2.2 C 5.41 g/m*3 0.36 C 6.4 km/h
687 05-12-2013 09:25:00 2.3 C 5.44 g/m*3 0.47 C 6.4 km/h
688 05-12-2013 09:30:00 2.4 C 5.42 g/m*3 0.59 C 6.4 km/h
689 05-12-2013 09:35:00 2.5 C 5.46 g/m*3 -0.26 C 9.7 km/h
690 05-12-2013 09:40:00 2.6 C 5.5 g/m*3 -0.14 C 9.7 km/h
691 05-12-2013 09:45:00 2.7 C 5.48 g/m*3 -0.71 C 12.9 km/h
692 05-12-2013 09:50:00 2.8 C 5.46 g/m*3 -1.14 C 16.1 km/h
693 05-12-2013 09:55:00 3 C 5.53 g/m*3 -0.34 C 12.9 km/h
694 05-12-2013 10:00:00 3.1 C 5.57 g/m*3 -0.22 C 12.9 km/h
695 05-12-2013 10:05:00 3.2 C 5.54 g/m*3 0.58 C 9.7 km/h
696 05-12-2013 10:10:00 3.3 C 5.64 g/m*3 1.63 C 6.4 km/h
697 05-12-2013 10:15:00 3.3 C 5.64 g/m*3 0.7 C 9.7 km/h
698 05-12-2013 10:20:00 3.4 C 5.62 g/m*3 0.46 C 11.3 km/h
699 05-12-2013 10:25:00 3.3 C 5.58 g/m*3 -0.26 C 14.5 km/h
700 05-12-2013 10:30:00 3.3 C 5.58 g/m*3 0.7 C 9.7 km/h
Sensor: Nr:Datum:Temp:Abs-Feuchte:Windchill:Wind:
Aussen-T/F 701 05-12-2013 10:35:00 3.3 C 5.58 g/m*3 3.3 C 4.8 km/h
702 05-12-2013 10:40:00 3.3 C 5.64 g/m*3 1.63 C 6.4 km/h
703 05-12-2013 10:45:00 3.4 C 5.62 g/m*3 0.46 C 11.3 km/h
704 05-12-2013 10:50:00 3.4 C 5.62 g/m*3 0.82 C 9.7 km/h
705 05-12-2013 10:55:00 3.5 C 5.66 g/m*3 0.94 C 9.7 km/h
706 05-12-2013 11:00:00 3.6 C 5.69 g/m*3 1.06 C 9.7 km/h
707 05-12-2013 11:05:00 3.6 C 5.63 g/m*3 0.7 C 11.3 km/h
708 05-12-2013 11:10:00 3.7 C 5.67 g/m*3 1.18 C 9.7 km/h
709 05-12-2013 11:15:00 3.7 C 5.67 g/m*3 1.58 C 8.1 km/h
710 05-12-2013 11:20:00 3.8 C 5.65 g/m*3 0.94 C 11.3 km/h
711 05-12-2013 11:25:00 3.8 C 5.65 g/m*3 0.35 C 14.5 km/h
712 05-12-2013 11:30:00 3.9 C 5.62 g/m*3 0.22 C 16.1 km/h
713 05-12-2013 11:35:00 3.9 C 5.62 g/m*3 0.75 C 12.9 km/h
714 05-12-2013 11:40:00 3.9 C 5.62 g/m*3 -0.23 C 19.3 km/h
715 05-12-2013 11:45:00 4 C 5.59 g/m*3 0.6 C 14.5 km/h
716 05-12-2013 11:50:00 3.9 C 5.56 g/m*3 0.22 C 16.1 km/h
717 05-12-2013 11:55:00 4 C 5.59 g/m*3 -0.31 C 20.9 km/h
718 05-12-2013 12:00:00 4 C 5.59 g/m*3 -0.31 C 20.9 km/h
719 05-12-2013 12:05:00 4 C 5.59 g/m*3 0.34 C 16.1 km/h
720 05-12-2013 12:10:00 4 C 5.53 g/m*3 0.34 C 16.1 km/h
721 05-12-2013 12:15:00 4 C 5.47 g/m*3 0.34 C 16.1 km/h
722 05-12-2013 12:20:00 3.9 C 5.43 g/m*3 -0.97 C 25.7 km/h
723 05-12-2013 12:25:00 3.8 C 5.4 g/m*3 -0.56 C 20.9 km/h
724 05-12-2013 12:30:00 3.8 C 5.33 g/m*3 -0.56 C 20.9 km/h
725 05-12-2013 12:35:00 3.8 C 5.33 g/m*3 -0.56 C 20.9 km/h
Sensor: Nr:Datum:Temp:Abs-Feuchte:Windchill:Wind:
Aussen-T/F 726 05-12-2013 12:40:00 3.9 C 5.37 g/m*3 0.47 C 14.5 km/h
727 05-12-2013 12:45:00 3.9 C 5.31 g/m*3 0.47 C 14.5 km/h
728 05-12-2013 12:50:00 4 C 5.34 g/m*3 0.11 C 17.7 km/h
729 05-12-2013 12:55:00 4 C 5.34 g/m*3 0.11 C 17.7 km/h
730 05-12-2013 13:00:00 4.1 C 5.44 g/m*3 0.72 C 14.5 km/h
731 05-12-2013 13:05:00 4.1 C 5.38 g/m*3 -0.55 C 24.1 km/h
732 05-12-2013 13:10:00 4.1 C 5.38 g/m*3 1 C 12.9 km/h
733 05-12-2013 13:15:00 4.1 C 5.38 g/m*3 1 C 12.9 km/h
734 05-12-2013 13:20:00 4.1 C 5.31 g/m*3 1 C 12.9 km/h
735 05-12-2013 13:25:00 4.1 C 5.31 g/m*3 1.31 C 11.3 km/h
736 05-12-2013 13:30:00 4.2 C 5.35 g/m*3 0.36 C 17.7 km/h
737 05-12-2013 13:35:00 4.2 C 5.28 g/m*3 0.15 C 19.3 km/h
738 05-12-2013 13:40:00 4.2 C 5.28 g/m*3 0.36 C 17.7 km/h
739 05-12-2013 13:45:00 4.3 C 5.25 g/m*3 0.97 C 14.5 km/h
740 05-12-2013 13:50:00 4.3 C 5.25 g/m*3 0.49 C 17.7 km/h
741 05-12-2013 13:55:00 4.4 C 5.35 g/m*3 0.84 C 16.1 km/h
742 05-12-2013 14:00:00 4.4 C 5.29 g/m*3 1.67 C 11.3 km/h
743 05-12-2013 14:05:00 4.4 C 5.29 g/m*3 0.4 C 19.3 km/h
744 05-12-2013 14:10:00 4.4 C 5.29 g/m*3 -0.16 C 24.1 km/h
745 05-12-2013 14:15:00 4.5 C 5.32 g/m*3 -0.03 C 24.1 km/h
746 05-12-2013 14:20:00 4.5 C 5.32 g/m*3 0.14 C 22.5 km/h
747 05-12-2013 14:25:00 4.6 C 5.36 g/m*3 0.86 C 17.7 km/h
748 05-12-2013 14:30:00 4.6 C 5.36 g/m*3 0.45 C 20.9 km/h
749 05-12-2013 14:35:00 4.6 C 5.29 g/m*3 1.09 C 16.1 km/h
750 05-12-2013 14:40:00 4.6 C 5.36 g/m*3 1.91 C 11.3 km/h
Sensor: Nr:Datum:Temp:Abs-Feuchte:Windchill:Wind:
Aussen-T/F 751 05-12-2013 14:45:00 4.7 C 5.4 g/m*3 1.46 C 14.5 km/h
752 05-12-2013 14:50:00 4.7 C 5.33 g/m*3 1.21 C 16.1 km/h
753 05-12-2013 14:55:00 4.8 C 5.36 g/m*3 2.15 C 11.3 km/h
754 05-12-2013 15:00:00 4.8 C 5.3 g/m*3 0.9 C 19.3 km/h
755 05-12-2013 15:05:00 4.9 C 5.33 g/m*3 0.83 C 20.9 km/h
756 05-12-2013 15:10:00 4.9 C 5.33 g/m*3 0.15 C 27.4 km/h
757 05-12-2013 15:15:00 5 C 5.3 g/m*3 0.45 C 25.7 km/h
758 05-12-2013 15:20:00 5.1 C 5.34 g/m*3 0.27 C 29 km/h
759 05-12-2013 15:25:00 5.1 C 5.27 g/m*3 0.91 C 22.5 km/h
760 05-12-2013 15:30:00 5.2 C 5.23 g/m*3 0.4 C 29 km/h
761 05-12-2013 15:35:00 5.2 C 5.23 g/m*3 0.4 C 29 km/h
762 05-12-2013 15:40:00 5.3 C 5.2 g/m*3 0.67 C 27.4 km/h
763 05-12-2013 15:45:00 5.3 C 5.13 g/m*3 0.26 C 32.2 km/h
764 05-12-2013 15:50:00 5.4 C 5.16 g/m*3 0.66 C 29 km/h
765 05-12-2013 15:55:00 5.4 C 5.09 g/m*3 0.27 C 33.8 km/h
766 05-12-2013 16:00:00 5.4 C 5.09 g/m*3 0.27 C 33.8 km/h
767 05-12-2013 16:05:00 5.4 C 5.02 g/m*3 0.96 C 25.7 km/h
768 05-12-2013 16:10:00 5.4 C 5.02 g/m*3 1.12 C 24.1 km/h
769 05-12-2013 16:15:00 5.5 C 4.99 g/m*3 0.65 C 30.6 km/h
770 05-12-2013 16:20:00 5.6 C 5.02 g/m*3 0.53 C 33.8 km/h
771 05-12-2013 16:25:00 5.6 C 4.95 g/m*3 0.92 C 29 km/h
772 05-12-2013 16:30:00 5.6 C 5.02 g/m*3 1.22 C 25.7 km/h
773 05-12-2013 16:35:00 5.6 C 5.02 g/m*3 0.78 C 30.6 km/h
774 05-12-2013 16:40:00 5.6 C 5.09 g/m*3 0.92 C 29 km/h
775 05-12-2013 16:45:00 5.5 C 5.06 g/m*3 0.65 C 30.6 km/h
Sensor: Nr:Datum:Temp:Abs-Feuchte:Windchill:Wind:
Aussen-T/F 776 05-12-2013 16:50:00 5.5 C 5.06 g/m*3 0.4 C 33.8 km/h
777 05-12-2013 16:55:00 5.4 C 5.02 g/m*3 1.66 C 19.3 km/h
778 05-12-2013 17:00:00 5.4 C 5.09 g/m*3 1.66 C 19.3 km/h
779 05-12-2013 17:05:00 5.4 C 5.16 g/m*3 1.66 C 19.3 km/h
780 05-12-2013 17:10:00 5.4 C 5.16 g/m*3 2.32 C 14.5 km/h
781 05-12-2013 17:15:00 5.4 C 5.16 g/m*3 1.29 C 22.5 km/h
782 05-12-2013 17:38:00 5.4 C 5.16 g/m*3 1.12 C 24.1 km/h
783 05-12-2013 17:40:00 5.6 C 5.3 g/m*3 2.11 C 17.7 km/h
784 05-12-2013 17:45:00 5.6 C 5.37 g/m*3 0.92 C 29 km/h
785 05-12-2013 17:50:00 5.7 C 5.48 g/m*3 0.21 C 40.2 km/h
786 05-12-2013 17:55:00 5.7 C 5.48 g/m*3 0.21 C 40.2 km/h
787 05-12-2013 18:00:00 5.7 C 5.55 g/m*3 1.05 C 29 km/h
788 05-12-2013 18:05:00 5.6 C 5.59 g/m*3 1.06 C 27.4 km/h
789 05-12-2013 18:10:00 5.5 C 5.62 g/m*3 1.09 C 25.7 km/h
790 05-12-2013 18:15:00 5.4 C 5.72 g/m*3 0.39 C 32.2 km/h
791 05-12-2013 18:20:00 5.3 C 5.75 g/m*3 1.16 C 22.5 km/h
792 05-12-2013 18:25:00 5.3 C 5.68 g/m*3 0.83 C 25.7 km/h
793 05-12-2013 18:30:00 5.4 C 5.72 g/m*3 1.29 C 22.5 km/h
794 05-12-2013 18:35:00 5.6 C 5.73 g/m*3 1.38 C 24.1 km/h
795 05-12-2013 18:40:00 5.7 C 5.76 g/m*3 0.66 C 33.8 km/h
796 05-12-2013 18:45:00 5.7 C 5.76 g/m*3 2.03 C 19.3 km/h
797 05-12-2013 18:50:00 5.6 C 5.8 g/m*3 1.06 C 27.4 km/h
798 05-12-2013 18:55:00 5.6 C 5.8 g/m*3 1.06 C 27.4 km/h
799 05-12-2013 19:00:00 5.6 C 5.87 g/m*3 1.06 C 27.4 km/h
800 05-12-2013 19:05:00 5.5 C 5.83 g/m*3 0.93 C 27.4 km/h
Sensor: Nr:Datum:Temp:Abs-Feuchte:Windchill:Wind:
Aussen-T/F 801 05-12-2013 19:10:00 5.4 C 5.86 g/m*3 0.66 C 29 km/h
802 05-12-2013 19:15:00 5.4 C 5.93 g/m*3 0.52 C 30.6 km/h
803 05-12-2013 19:20:00 5.3 C 5.96 g/m*3 1.53 C 19.3 km/h
804 05-12-2013 19:25:00 5.2 C 5.99 g/m*3 0.4 C 29 km/h
805 05-12-2013 19:30:00 5.2 C 5.99 g/m*3 0.86 C 24.1 km/h
806 05-12-2013 19:35:00 5.2 C 6.06 g/m*3 0.86 C 24.1 km/h
807 05-12-2013 19:40:00 5.1 C 6.02 g/m*3 1.28 C 19.3 km/h
808 05-12-2013 19:45:00 5.1 C 6.02 g/m*3 0.27 C 29 km/h
809 05-12-2013 19:50:00 5.1 C 6.02 g/m*3 0.74 C 24.1 km/h
810 05-12-2013 19:55:00 5.1 C 6.02 g/m*3 0 C 32.2 km/h
811 05-12-2013 20:00:00 5.2 C 6.06 g/m*3 1.21 C 20.9 km/h
812 05-12-2013 20:05:00 5.3 C 6.03 g/m*3 0.83 C 25.7 km/h
813 05-12-2013 20:10:00 5.3 C 6.03 g/m*3 1.16 C 22.5 km/h
814 05-12-2013 20:15:00 5.3 C 6.1 g/m*3 1.53 C 19.3 km/h
815 05-12-2013 20:20:00 5.2 C 6.13 g/m*3 2.34 C 12.9 km/h
816 05-12-2013 20:25:00 5.1 C 6.16 g/m*3 1.28 C 19.3 km/h
817 05-12-2013 20:30:00 5 C 6.18 g/m*3 0.78 C 22.5 km/h
818 05-12-2013 20:35:00 4.9 C 6.14 g/m*3 0.32 C 25.7 km/h
819 05-12-2013 20:40:00 5.1 C 6.29 g/m*3 0.74 C 24.1 km/h
820 05-12-2013 20:45:00 5.2 C 6.27 g/m*3 1.61 C 17.7 km/h
821 05-12-2013 20:50:00 5.3 C 6.31 g/m*3 1.16 C 22.5 km/h
822 05-12-2013 20:55:00 5.6 C 6.29 g/m*3 1.91 C 19.3 km/h
823 05-12-2013 21:00:00 5.8 C 6.3 g/m*3 2.58 C 16.1 km/h
824 05-12-2013 21:05:00 5.9 C 6.27 g/m*3 2.93 C 14.5 km/h
825 05-12-2013 21:10:00 6.3 C 6.29 g/m*3 2.98 C 17.7 km/h
Sensor: Nr:Datum:Temp:Abs-Feuchte:Windchill:Wind:
Aussen-T/F 826 05-12-2013 21:15:00 6.7 C 6.23 g/m*3 3.69 C 16.1 km/h
827 05-12-2013 21:20:00 7.1 C 6.24 g/m*3 3 C 27.4 km/h
828 05-12-2013 21:25:00 7.4 C 6.04 g/m*3 3.14 C 30.6 km/h
829 05-12-2013 21:30:00 7.5 C 5.92 g/m*3 3.96 C 22.5 km/h
830 05-12-2013 21:35:00 7.6 C 5.72 g/m*3 3.52 C 29 km/h
831 05-12-2013 21:40:00 7.5 C 5.76 g/m*3 3.81 C 24.1 km/h
832 05-12-2013 21:45:00 7.3 C 5.77 g/m*3 4.9 C 12.9 km/h
833 05-12-2013 21:50:00 7.1 C 5.85 g/m*3 3.8 C 19.3 km/h
834 05-12-2013 21:55:00 6.8 C 5.74 g/m*3 3.42 C 19.3 km/h
835 05-12-2013 22:00:00 6.7 C 5.7 g/m*3 2.94 C 22.5 km/h
836 05-12-2013 22:05:00 6.6 C 5.44 g/m*3 3.36 C 17.7 km/h
837 05-12-2013 22:10:00 6.6 C 5.36 g/m*3 3.57 C 16.1 km/h
838 05-12-2013 22:15:00 6.6 C 5.36 g/m*3 3.57 C 16.1 km/h
839 05-12-2013 22:20:00 6.6 C 5.28 g/m*3 3.57 C 16.1 km/h
840 05-12-2013 22:25:00 6.5 C 5.7 g/m*3 1.84 C 32.2 km/h
841 05-12-2013 22:30:00 5.8 C 5.66 g/m*3 1.32 C 27.4 km/h
842 05-12-2013 22:35:00 5.1 C 5.54 g/m*3 1.71 C 16.1 km/h
843 05-12-2013 22:40:00 4.8 C 5.57 g/m*3 2.15 C 11.3 km/h
844 05-12-2013 22:45:00 4.6 C 5.56 g/m*3 2.64 C 8.1 km/h
845 05-12-2013 22:50:00 4.3 C 5.51 g/m*3 4.3 C 4.8 km/h
846 05-12-2013 22:55:00 4.3 C 5.32 g/m*3 0.72 C 16.1 km/h
847 05-12-2013 23:00:00 4.7 C 5.33 g/m*3 1.21 C 16.1 km/h
848 05-12-2013 23:05:00 5.1 C 5.2 g/m*3 1.09 C 20.9 km/h
849 05-12-2013 23:10:00 5.4 C 5.23 g/m*3 2.87 C 11.3 km/h
850 05-12-2013 23:15:00 5.6 C 5.3 g/m*3 3.44 C 9.7 km/h
Sensor: Nr:Datum:Temp:Abs-Feuchte:Windchill:Wind:
Aussen-T/F 851 05-12-2013 23:20:00 5.7 C 5.27 g/m*3 2.95 C 12.9 km/h
852 05-12-2013 23:25:00 5.7 C 5.27 g/m*3 3.93 C 8.1 km/h
853 05-12-2013 23:30:00 5.7 C 5.27 g/m*3 2.69 C 14.5 km/h
854 05-12-2013 23:35:00 5.6 C 5.51 g/m*3 1.38 C 24.1 km/h
855 05-12-2013 23:40:00 4.9 C 5.4 g/m*3 0.83 C 20.9 km/h
856 05-12-2013 23:45:00 4.1 C 5.44 g/m*3 -1.45 C 33.8 km/h
857 05-12-2013 23:50:00 3.6 C 5.39 g/m*3 -0.15 C 16.1 km/h
858 05-12-2013 23:55:00 3.3 C 5.34 g/m*3 -0.26 C 14.5 km/h
859 06-12-2013 00:00:00 3.2 C 5.36 g/m*3 -0.39 C 14.5 km/h
860 06-12-2013 00:05:00 3.2 C 5.36 g/m*3 -0.89 C 17.7 km/h
861 06-12-2013 00:10:00 3.2 C 5.36 g/m*3 -0.89 C 17.7 km/h
862 06-12-2013 00:15:00 3.2 C 5.36 g/m*3 -0.39 C 14.5 km/h
863 06-12-2013 00:20:00 3.1 C 5.33 g/m*3 0.87 C 8.1 km/h
864 06-12-2013 00:25:00 3.1 C 5.27 g/m*3 0.46 C 9.7 km/h
865 06-12-2013 00:30:00 3 C 5.29 g/m*3 -0.02 C 11.3 km/h
866 06-12-2013 00:35:00 3.1 C 5.33 g/m*3 -0.22 C 12.9 km/h
867 06-12-2013 00:40:00 3 C 5.35 g/m*3 -0.02 C 11.3 km/h
868 06-12-2013 00:45:00 3 C 5.35 g/m*3 3 C 4.8 km/h
869 06-12-2013 00:50:00 2.9 C 5.37 g/m*3 0.64 C 8.1 km/h
870 06-12-2013 00:55:00 2.9 C 5.32 g/m*3 0.64 C 8.1 km/h
871 06-12-2013 01:00:00 3.2 C 5.3 g/m*3 0.99 C 8.1 km/h
872 06-12-2013 01:05:00 3.4 C 5.31 g/m*3 3.4 C 4.8 km/h
873 06-12-2013 01:10:00 3.3 C 5.28 g/m*3 1.11 C 8.1 km/h
874 06-12-2013 01:15:00 3.3 C 5.22 g/m*3 0.7 C 9.7 km/h
875 06-12-2013 01:20:00 3.4 C 5.19 g/m*3 1.75 C 6.4 km/h
Sensor: Nr:Datum:Temp:Abs-Feuchte:Windchill:Wind:
Aussen-T/F 876 06-12-2013 01:25:00 3.3 C 5.16 g/m*3 0.02 C 12.9 km/h
877 06-12-2013 01:30:00 3.4 C 5.13 g/m*3 1.75 C 6.4 km/h
878 06-12-2013 01:35:00 3.6 C 5.08 g/m*3 1.98 C 6.4 km/h
879 06-12-2013 01:40:00 3.7 C 4.92 g/m*3 0.23 C 14.5 km/h
880 06-12-2013 01:45:00 3.8 C 4.89 g/m*3 0.63 C 12.9 km/h
881 06-12-2013 01:50:00 3.8 C 4.83 g/m*3 0.94 C 11.3 km/h
882 06-12-2013 01:55:00 3.8 C 4.77 g/m*3 1.7 C 8.1 km/h
883 06-12-2013 02:00:00 3.8 C 4.77 g/m*3 1.7 C 8.1 km/h
884 06-12-2013 02:05:00 3.8 C 4.77 g/m*3 1.29 C 9.7 km/h
885 06-12-2013 02:10:00 3.7 C 4.74 g/m*3 0.82 C 11.3 km/h
886 06-12-2013 02:15:00 3.7 C 4.74 g/m*3 0.51 C 12.9 km/h
887 06-12-2013 02:20:00 3.7 C 4.74 g/m*3 0.51 C 12.9 km/h
888 06-12-2013 02:25:00 3.8 C 4.71 g/m*3 0.63 C 12.9 km/h
889 06-12-2013 02:30:00 3.7 C 4.74 g/m*3 1.58 C 8.1 km/h
890 06-12-2013 02:35:00 3.7 C 4.74 g/m*3 0.23 C 14.5 km/h
891 06-12-2013 02:40:00 3.5 C 4.73 g/m*3 1.86 C 6.4 km/h
892 06-12-2013 02:45:00 3.3 C 4.67 g/m*3 0.34 C 11.3 km/h
893 06-12-2013 02:50:00 3.3 C 4.73 g/m*3 1.63 C 6.4 km/h
894 06-12-2013 02:55:00 3.3 C 4.73 g/m*3 0.7 C 9.7 km/h
895 06-12-2013 03:00:00 3.2 C 4.7 g/m*3 0.58 C 9.7 km/h
896 06-12-2013 03:05:00 3.3 C 4.67 g/m*3 1.11 C 8.1 km/h
897 06-12-2013 03:10:00 3.5 C 4.67 g/m*3 1.34 C 8.1 km/h
898 06-12-2013 03:15:00 3.4 C 4.64 g/m*3 1.23 C 8.1 km/h
899 06-12-2013 03:20:00 3.4 C 4.7 g/m*3 0.46 C 11.3 km/h
900 06-12-2013 03:25:00 3.5 C 4.73 g/m*3 0.58 C 11.3 km/h
Sensor: Nr:Datum:Temp:Abs-Feuchte:Windchill:Wind:
Aussen-T/F 901 06-12-2013 03:30:00 3.6 C 4.77 g/m*3 1.46 C 8.1 km/h
902 06-12-2013 03:35:00 3.6 C 4.77 g/m*3 1.98 C 6.4 km/h
903 06-12-2013 03:40:00 3.7 C 4.74 g/m*3 -0.03 C 16.1 km/h
904 06-12-2013 03:45:00 3.7 C 4.74 g/m*3 0.51 C 12.9 km/h
905 06-12-2013 03:50:00 3.8 C 4.71 g/m*3 0.1 C 16.1 km/h
906 06-12-2013 03:55:00 3.9 C 4.74 g/m*3 0.75 C 12.9 km/h
907 06-12-2013 04:00:00 3.9 C 4.74 g/m*3 -0.01 C 17.7 km/h
908 06-12-2013 04:05:00 4 C 4.77 g/m*3 1.53 C 9.7 km/h
909 06-12-2013 04:10:00 4 C 4.77 g/m*3 -0.11 C 19.3 km/h
910 06-12-2013 04:15:00 4.1 C 4.8 g/m*3 1 C 12.9 km/h
911 06-12-2013 04:20:00 4.2 C 4.77 g/m*3 1.12 C 12.9 km/h
912 06-12-2013 04:25:00 4.2 C 4.77 g/m*3 0.36 C 17.7 km/h
913 06-12-2013 04:30:00 4.3 C 4.8 g/m*3 0.97 C 14.5 km/h
914 06-12-2013 04:35:00 4.3 C 4.86 g/m*3 1.55 C 11.3 km/h
915 06-12-2013 04:40:00 4.2 C 4.83 g/m*3 0.59 C 16.1 km/h
916 06-12-2013 04:45:00 4.2 C 4.77 g/m*3 1.77 C 9.7 km/h
917 06-12-2013 04:50:00 4.2 C 4.77 g/m*3 1.12 C 12.9 km/h
918 06-12-2013 04:55:00 4.3 C 4.74 g/m*3 0.97 C 14.5 km/h
919 06-12-2013 05:00:00 4.4 C 4.7 g/m*3 0.84 C 16.1 km/h
920 06-12-2013 05:05:00 4.4 C 4.7 g/m*3 2.01 C 9.7 km/h
921 06-12-2013 05:10:00 4.4 C 4.77 g/m*3 1.67 C 11.3 km/h
922 06-12-2013 05:15:00 4.4 C 4.7 g/m*3 1.36 C 12.9 km/h
923 06-12-2013 05:20:00 4.4 C 4.64 g/m*3 0.61 C 17.7 km/h
924 06-12-2013 05:25:00 4.4 C 4.57 g/m*3 1.67 C 11.3 km/h
925 06-12-2013 05:30:00 4.5 C 4.67 g/m*3 0.96 C 16.1 km/h
Sensor: Nr:Datum:Temp:Abs-Feuchte:Windchill:Wind:
Aussen-T/F 926 06-12-2013 05:35:00 4.5 C 4.6 g/m*3 1.79 C 11.3 km/h
927 06-12-2013 05:40:00 4.6 C 4.57 g/m*3 -0.38 C 29 km/h
928 06-12-2013 05:45:00 4.6 C 4.57 g/m*3 1.09 C 16.1 km/h
929 06-12-2013 05:50:00 4.6 C 4.5 g/m*3 0.86 C 17.7 km/h
930 06-12-2013 05:55:00 4.6 C 4.43 g/m*3 1.09 C 16.1 km/h
931 06-12-2013 06:00:00 4.6 C 4.37 g/m*3 1.09 C 16.1 km/h
932 06-12-2013 06:05:00 4.6 C 4.37 g/m*3 1.09 C 16.1 km/h
933 06-12-2013 06:10:00 4.4 C 4.37 g/m*3 1.36 C 12.9 km/h
934 06-12-2013 06:15:00 4.4 C 4.44 g/m*3 2.01 C 9.7 km/h
935 06-12-2013 06:20:00 4.3 C 4.41 g/m*3 0.97 C 14.5 km/h
936 06-12-2013 06:25:00 4.4 C 4.51 g/m*3 1.36 C 12.9 km/h
937 06-12-2013 06:30:00 4.4 C 4.51 g/m*3 1.36 C 12.9 km/h
938 06-12-2013 06:35:00 4.4 C 4.64 g/m*3 0.84 C 16.1 km/h
939 06-12-2013 06:40:00 4.2 C 4.7 g/m*3 -0.24 C 22.5 km/h
940 06-12-2013 06:45:00 4.1 C 4.8 g/m*3 0.72 C 14.5 km/h
941 06-12-2013 06:50:00 3.9 C 4.8 g/m*3 -0.01 C 17.7 km/h
942 06-12-2013 06:55:00 3.7 C 4.86 g/m*3 -0.69 C 20.9 km/h
943 06-12-2013 07:00:00 3.6 C 4.89 g/m*3 -0.15 C 16.1 km/h
944 06-12-2013 07:05:00 3.4 C 4.83 g/m*3 -0.4 C 16.1 km/h
945 06-12-2013 07:10:00 3.3 C 4.79 g/m*3 -0.26 C 14.5 km/h
946 06-12-2013 07:15:00 3.4 C 4.83 g/m*3 0.46 C 11.3 km/h
947 06-12-2013 07:20:00 3.4 C 4.7 g/m*3 -0.4 C 16.1 km/h
948 06-12-2013 07:25:00 3.5 C 4.61 g/m*3 -0.28 C 16.1 km/h
949 06-12-2013 07:30:00 3.6 C 4.52 g/m*3 -0.15 C 16.1 km/h
950 06-12-2013 07:35:00 3.7 C 4.36 g/m*3 -0.03 C 16.1 km/h
Sensor: Nr:Datum:Temp:Abs-Feuchte:Windchill:Wind:
Aussen-T/F 951 06-12-2013 07:40:00 3.8 C 4.39 g/m*3 0.63 C 12.9 km/h
952 06-12-2013 07:45:00 3.9 C 4.36 g/m*3 0.75 C 12.9 km/h
953 06-12-2013 07:50:00 3.9 C 4.29 g/m*3 0.47 C 14.5 km/h
954 06-12-2013 07:55:00 3.8 C 4.33 g/m*3 -1.1 C 25.7 km/h
955 06-12-2013 08:00:00 3.8 C 4.33 g/m*3 1.29 C 9.7 km/h
956 06-12-2013 08:05:00 3.7 C 4.3 g/m*3 0.51 C 12.9 km/h
957 06-12-2013 08:10:00 3.7 C 4.3 g/m*3 1.18 C 9.7 km/h
958 06-12-2013 08:15:00 3.7 C 4.3 g/m*3 0.23 C 14.5 km/h
959 06-12-2013 08:20:00 3.7 C 4.36 g/m*3 0.51 C 12.9 km/h
960 06-12-2013 08:25:00 3.7 C 4.3 g/m*3 1.18 C 9.7 km/h
961 06-12-2013 08:30:00 3.7 C 4.3 g/m*3 0.51 C 12.9 km/h
962 06-12-2013 08:35:00 3.7 C 4.3 g/m*3 -0.03 C 16.1 km/h
963 06-12-2013 08:40:00 3.7 C 4.36 g/m*3 -0.26 C 17.7 km/h
964 06-12-2013 08:45:00 3.6 C 4.33 g/m*3 1.06 C 9.7 km/h
965 06-12-2013 08:50:00 3.6 C 4.33 g/m*3 0.39 C 12.9 km/h
966 06-12-2013 08:55:00 3.6 C 4.33 g/m*3 0.7 C 11.3 km/h
967 06-12-2013 09:00:00 3.7 C 4.36 g/m*3 -0.03 C 16.1 km/h
968 06-12-2013 09:05:00 3.7 C 4.3 g/m*3 0.23 C 14.5 km/h
969 06-12-2013 09:10:00 3.7 C 4.3 g/m*3 0.51 C 12.9 km/h
970 06-12-2013 09:15:00 3.8 C 4.33 g/m*3 -0.14 C 17.7 km/h
971 06-12-2013 09:20:00 3.8 C 4.33 g/m*3 -0.14 C 17.7 km/h
972 06-12-2013 09:25:00 3.8 C 4.33 g/m*3 -0.36 C 19.3 km/h
973 06-12-2013 09:30:00 3.8 C 4.33 g/m*3 -0.14 C 17.7 km/h
974 06-12-2013 09:35:00 3.9 C 4.36 g/m*3 0.75 C 12.9 km/h
975 06-12-2013 09:40:00 3.9 C 4.29 g/m*3 0.75 C 12.9 km/h
Sensor: Nr:Datum:Temp:Abs-Feuchte:Windchill:Wind:
Aussen-T/F 976 06-12-2013 09:45:00 4 C 4.32 g/m*3 0.34 C 16.1 km/h
977 06-12-2013 09:50:00 4 C 4.32 g/m*3 0.11 C 17.7 km/h
978 06-12-2013 09:55:00 4.1 C 4.35 g/m*3 0.24 C 17.7 km/h
979 06-12-2013 10:00:00 4.2 C 4.38 g/m*3 0.15 C 19.3 km/h
980 06-12-2013 10:05:00 4.2 C 4.38 g/m*3 0.84 C 14.5 km/h
981 06-12-2013 10:10:00 4.2 C 4.38 g/m*3 0.59 C 16.1 km/h
982 06-12-2013 10:15:00 4.3 C 4.35 g/m*3 -0.77 C 29 km/h
983 06-12-2013 10:20:00 4.3 C 4.41 g/m*3 0.72 C 16.1 km/h
984 06-12-2013 10:25:00 4.3 C 4.35 g/m*3 0.49 C 17.7 km/h
985 06-12-2013 10:30:00 4.3 C 4.41 g/m*3 0.27 C 19.3 km/h
986 06-12-2013 10:35:00 4.3 C 4.35 g/m*3 0.27 C 19.3 km/h
987 06-12-2013 10:40:00 4.3 C 4.35 g/m*3 -0.11 C 22.5 km/h
988 06-12-2013 10:45:00 4.4 C 4.37 g/m*3 0.61 C 17.7 km/h
989 06-12-2013 10:50:00 4.3 C 4.35 g/m*3 0.49 C 17.7 km/h
990 06-12-2013 10:55:00 4.3 C 4.35 g/m*3 0.72 C 16.1 km/h
991 06-12-2013 11:00:00 4.3 C 4.35 g/m*3 0.49 C 17.7 km/h
992 06-12-2013 11:05:00 4.4 C 4.37 g/m*3 0.84 C 16.1 km/h
993 06-12-2013 11:10:00 4.4 C 4.37 g/m*3 0.4 C 19.3 km/h
994 06-12-2013 11:15:00 4.4 C 4.37 g/m*3 0.84 C 16.1 km/h
995 06-12-2013 11:20:00 4.4 C 4.37 g/m*3 0.61 C 17.7 km/h
996 06-12-2013 11:25:00 4.6 C 4.43 g/m*3 0.86 C 17.7 km/h
997 06-12-2013 11:30:00 4.6 C 4.43 g/m*3 1.34 C 14.5 km/h
998 06-12-2013 11:35:00 4.7 C 4.4 g/m*3 1.46 C 14.5 km/h
999 06-12-2013 11:40:00 4.7 C 4.4 g/m*3 1.46 C 14.5 km/h
1000 06-12-2013 11:45:00 4.7 C 4.4 g/m*3 0.58 C 20.9 km/h
Sensor: Nr:Datum:Temp:Abs-Feuchte:Windchill:Wind:
Aussen-T/F 1001 06-12-2013 11:50:00 4.7 C 4.4 g/m*3 0.78 C 19.3 km/h
1002 06-12-2013 11:55:00 4.6 C 4.43 g/m*3 1.34 C 14.5 km/h
1003 06-12-2013 12:00:00 4.6 C 4.43 g/m*3 1.34 C 14.5 km/h
1004 06-12-2013 12:05:00 4.7 C 4.53 g/m*3 0.99 C 17.7 km/h
1005 06-12-2013 12:10:00 4.7 C 4.53 g/m*3 1.21 C 16.1 km/h
1006 06-12-2013 12:15:00 4.7 C 4.53 g/m*3 2.76 C 8.1 km/h
1007 06-12-2013 12:20:00 4.7 C 4.46 g/m*3 1.21 C 16.1 km/h
1008 06-12-2013 12:25:00 4.7 C 4.4 g/m*3 1.21 C 16.1 km/h
1009 06-12-2013 12:30:00 4.7 C 4.46 g/m*3 0.58 C 20.9 km/h
1010 06-12-2013 12:35:00 4.8 C 4.43 g/m*3 0.71 C 20.9 km/h
1011 06-12-2013 12:40:00 4.7 C 4.4 g/m*3 0.06 C 25.7 km/h
1012 06-12-2013 12:45:00 4.8 C 4.43 g/m*3 0.19 C 25.7 km/h
1013 06-12-2013 12:50:00 4.8 C 4.43 g/m*3 0.9 C 19.3 km/h
1014 06-12-2013 12:55:00 4.8 C 4.29 g/m*3 0.9 C 19.3 km/h
1015 06-12-2013 13:00:00 4.8 C 4.29 g/m*3 0.52 C 22.5 km/h
1016 06-12-2013 13:05:00 4.9 C 4.32 g/m*3 0.83 C 20.9 km/h
1017 06-12-2013 13:10:00 4.9 C 4.32 g/m*3 1.24 C 17.7 km/h
1018 06-12-2013 13:15:00 4.9 C 4.25 g/m*3 1.24 C 17.7 km/h
1019 06-12-2013 13:20:00 4.9 C 4.25 g/m*3 1.03 C 19.3 km/h
1020 06-12-2013 13:25:00 4.9 C 4.25 g/m*3 1.24 C 17.7 km/h
1021 06-12-2013 13:30:00 4.9 C 4.25 g/m*3 0.83 C 20.9 km/h
1022 06-12-2013 13:35:00 4.9 C 4.32 g/m*3 0.83 C 20.9 km/h
1023 06-12-2013 13:40:00 4.9 C 4.32 g/m*3 0.83 C 20.9 km/h
1024 06-12-2013 13:45:00 4.9 C 4.32 g/m*3 0.83 C 20.9 km/h
1025 06-12-2013 13:50:00 4.9 C 4.32 g/m*3 0.83 C 20.9 km/h
Sensor: Nr:Datum:Temp:Abs-Feuchte:Windchill:Wind:
Aussen-T/F 1026 06-12-2013 13:55:00 4.9 C 4.32 g/m*3 0.65 C 22.5 km/h
1027 06-12-2013 14:00:00 4.9 C 4.25 g/m*3 0.65 C 22.5 km/h
1028 06-12-2013 14:05:00 4.9 C 4.32 g/m*3 0.15 C 27.4 km/h
1029 06-12-2013 14:10:00 4.9 C 4.32 g/m*3 1.24 C 17.7 km/h
1030 06-12-2013 14:15:00 4.9 C 4.32 g/m*3 0.83 C 20.9 km/h
1031 06-12-2013 14:20:00 4.9 C 4.32 g/m*3 1.24 C 17.7 km/h
1032 06-12-2013 14:25:00 4.9 C 4.25 g/m*3 1.03 C 19.3 km/h
1033 06-12-2013 14:30:00 4.9 C 4.25 g/m*3 0.32 C 25.7 km/h
1034 06-12-2013 14:35:00 4.9 C 4.25 g/m*3 1.03 C 19.3 km/h
1035 06-12-2013 14:40:00 4.9 C 4.25 g/m*3 2.27 C 11.3 km/h
1036 06-12-2013 14:45:00 4.9 C 4.25 g/m*3 1.03 C 19.3 km/h
1037 06-12-2013 14:50:00 4.8 C 4.22 g/m*3 1.34 C 16.1 km/h
1038 06-12-2013 14:55:00 4.8 C 4.22 g/m*3 1.11 C 17.7 km/h
1039 06-12-2013 15:00:00 4.8 C 4.22 g/m*3 1.34 C 16.1 km/h
1040 06-12-2013 15:05:00 4.7 C 4.26 g/m*3 0.4 C 22.5 km/h
1041 06-12-2013 15:10:00 4.7 C 4.33 g/m*3 0.99 C 17.7 km/h
1042 06-12-2013 15:15:00 4.6 C 4.3 g/m*3 1.34 C 14.5 km/h
1043 06-12-2013 15:20:00 4.6 C 4.3 g/m*3 0.27 C 22.5 km/h
1044 06-12-2013 15:25:00 4.6 C 4.3 g/m*3 0.27 C 22.5 km/h
1045 06-12-2013 15:30:00 4.6 C 4.37 g/m*3 1.09 C 16.1 km/h
1046 06-12-2013 15:35:00 4.6 C 4.37 g/m*3 1.34 C 14.5 km/h
1047 06-12-2013 15:40:00 4.6 C 4.37 g/m*3 1.09 C 16.1 km/h
1048 06-12-2013 15:45:00 4.5 C 4.34 g/m*3 0.52 C 19.3 km/h
1049 06-12-2013 15:50:00 4.5 C 4.34 g/m*3 1.79 C 11.3 km/h
1050 06-12-2013 15:55:00 4.4 C 4.31 g/m*3 1.36 C 12.9 km/h
Sensor: Nr:Datum:Temp:Abs-Feuchte:Windchill:Wind:
Aussen-T/F 1051 06-12-2013 16:00:00 4.4 C 4.31 g/m*3 -0.16 C 24.1 km/h
1052 06-12-2013 16:05:00 4.4 C 4.31 g/m*3 0.84 C 16.1 km/h
1053 06-12-2013 16:10:00 4.4 C 4.31 g/m*3 1.67 C 11.3 km/h
1054 06-12-2013 16:15:00 4.4 C 4.44 g/m*3 0.01 C 22.5 km/h
1055 06-12-2013 16:20:00 4.3 C 4.41 g/m*3 1.24 C 12.9 km/h
1056 06-12-2013 16:25:00 4.2 C 4.45 g/m*3 0.59 C 16.1 km/h
1057 06-12-2013 16:30:00 4.2 C 4.51 g/m*3 1.43 C 11.3 km/h
1058 06-12-2013 16:35:00 4.2 C 4.57 g/m*3 1.43 C 11.3 km/h
1059 06-12-2013 16:40:00 4.1 C 4.54 g/m*3 1 C 12.9 km/h
1060 06-12-2013 16:45:00 4.1 C 4.54 g/m*3 2.05 C 8.1 km/h
1061 06-12-2013 16:50:00 4.1 C 4.61 g/m*3 2.05 C 8.1 km/h
1062 06-12-2013 16:55:00 3.9 C 4.74 g/m*3 1.82 C 8.1 km/h
1063 06-12-2013 17:00:00 3.7 C 4.86 g/m*3 0.82 C 11.3 km/h
1064 06-12-2013 17:05:00 3.5 C 4.92 g/m*3 1.86 C 6.4 km/h
1065 06-12-2013 17:10:00 3.3 C 4.97 g/m*3 3.3 C 4.8 km/h
1066 06-12-2013 17:15:00 3.2 C 5 g/m*3 1.51 C 6.4 km/h
1067 06-12-2013 17:20:00 3 C 4.99 g/m*3 -0.34 C 12.9 km/h
1068 06-12-2013 17:25:00 2.8 C 4.99 g/m*3 1.05 C 6.4 km/h
1069 06-12-2013 17:30:00 2.7 C 5.01 g/m*3 -0.02 C 9.7 km/h
1070 06-12-2013 17:35:00 2.5 C 5 g/m*3 -0.26 C 9.7 km/h
1071 06-12-2013 17:40:00 2.4 C 5.02 g/m*3 0.59 C 6.4 km/h
1072 06-12-2013 17:45:00 2.3 C 5.05 g/m*3 2.3 C 4.8 km/h
1073 06-12-2013 17:50:00 2.3 C 5.05 g/m*3 0.47 C 6.4 km/h
1074 06-12-2013 17:55:00 2.3 C 5.05 g/m*3 -0.07 C 8.1 km/h
1075 06-12-2013 18:00:00 2.3 C 5.05 g/m*3 -0.49 C 9.7 km/h
Sensor: Nr:Datum:Temp:Abs-Feuchte:Windchill:Wind:
Aussen-T/F 1076 06-12-2013 18:05:00 2.2 C 5.01 g/m*3 -0.18 C 8.1 km/h
1077 06-12-2013 18:10:00 2.2 C 5.07 g/m*3 2.2 C 4.8 km/h
1078 06-12-2013 18:15:00 2.2 C 5.07 g/m*3 0.36 C 6.4 km/h
1079 06-12-2013 18:20:00 2.2 C 5.07 g/m*3 -0.18 C 8.1 km/h
1080 06-12-2013 18:25:00 2.2 C 5.07 g/m*3 -0.99 C 11.3 km/h
1081 06-12-2013 18:30:00 2.3 C 5.1 g/m*3 -0.87 C 11.3 km/h
1082 06-12-2013 18:35:00 2.3 C 5.05 g/m*3 -0.87 C 11.3 km/h
1083 06-12-2013 18:40:00 2.3 C 5.1 g/m*3 -0.49 C 9.7 km/h
1084 06-12-2013 18:45:00 2.2 C 5.07 g/m*3 -0.18 C 8.1 km/h
1085 06-12-2013 18:50:00 2.2 C 5.07 g/m*3 -0.18 C 8.1 km/h
1086 06-12-2013 18:55:00 2.2 C 5.07 g/m*3 -0.61 C 9.7 km/h
1087 06-12-2013 19:00:00 2.2 C 5.07 g/m*3 0.36 C 6.4 km/h
1088 06-12-2013 19:05:00 2.3 C 5.05 g/m*3 0.47 C 6.4 km/h
1089 06-12-2013 19:10:00 2.3 C 5.05 g/m*3 -0.49 C 9.7 km/h
1090 06-12-2013 19:15:00 2.4 C 5.02 g/m*3 -0.37 C 9.7 km/h
1091 06-12-2013 19:20:00 2.5 C 5 g/m*3 0.71 C 6.4 km/h
1092 06-12-2013 19:25:00 2.5 C 5.06 g/m*3 2.5 C 4.8 km/h
1093 06-12-2013 19:30:00 2.4 C 5.08 g/m*3 0.05 C 8.1 km/h
1094 06-12-2013 19:35:00 2.3 C 5.05 g/m*3 0.47 C 6.4 km/h
1095 06-12-2013 19:40:00 2.4 C 5.08 g/m*3 2.4 C 4.8 km/h
1096 06-12-2013 19:45:00 2.4 C 5.02 g/m*3 0.05 C 8.1 km/h
1097 06-12-2013 19:50:00 2.5 C 5.06 g/m*3 0.17 C 8.1 km/h
1098 06-12-2013 19:55:00 2.6 C 5.03 g/m*3 0.82 C 6.4 km/h
1099 06-12-2013 20:00:00 2.6 C 5.03 g/m*3 0.82 C 6.4 km/h
1100 06-12-2013 20:05:00 2.7 C 5.07 g/m*3 2.7 C 4.8 km/h
Sensor: Nr:Datum:Temp:Abs-Feuchte:Windchill:Wind:
Aussen-T/F 1101 06-12-2013 20:10:00 2.7 C 5.07 g/m*3 0.94 C 6.4 km/h
1102 06-12-2013 20:15:00 2.7 C 5.07 g/m*3 2.7 C 4.8 km/h
1103 06-12-2013 20:20:00 2.6 C 5.03 g/m*3 -0.83 C 12.9 km/h
1104 06-12-2013 20:25:00 2.6 C 5.03 g/m*3 0.82 C 6.4 km/h
1105 06-12-2013 20:30:00 2.6 C 5.03 g/m*3 0.82 C 6.4 km/h
1106 06-12-2013 20:35:00 2.7 C 5.01 g/m*3 -1 C 14.5 km/h
1107 06-12-2013 20:40:00 2.8 C 4.99 g/m*3 0.1 C 9.7 km/h
1108 06-12-2013 20:45:00 2.8 C 4.93 g/m*3 0.1 C 9.7 km/h
1109 06-12-2013 20:50:00 2.9 C 4.9 g/m*3 -0.46 C 12.9 km/h
1110 06-12-2013 20:55:00 3 C 4.93 g/m*3 -0.02 C 11.3 km/h
1111 06-12-2013 21:00:00 3.1 C 4.91 g/m*3 0.1 C 11.3 km/h
1112 06-12-2013 21:05:00 3.1 C 4.91 g/m*3 -0.22 C 12.9 km/h
1113 06-12-2013 21:10:00 3.2 C 4.94 g/m*3 -0.1 C 12.9 km/h
1114 06-12-2013 21:15:00 3.2 C 4.88 g/m*3 -0.1 C 12.9 km/h
1115 06-12-2013 21:20:00 3.2 C 4.88 g/m*3 -0.39 C 14.5 km/h
1116 06-12-2013 21:25:00 3.2 C 4.88 g/m*3 0.58 C 9.7 km/h
1117 06-12-2013 21:30:00 3.2 C 4.82 g/m*3 0.58 C 9.7 km/h
1118 06-12-2013 21:35:00 3.3 C 4.79 g/m*3 0.34 C 11.3 km/h
1119 06-12-2013 21:40:00 3.3 C 4.79 g/m*3 0.34 C 11.3 km/h
1120 06-12-2013 21:45:00 3.3 C 4.79 g/m*3 0.34 C 11.3 km/h
1121 06-12-2013 21:50:00 3.3 C 4.79 g/m*3 1.11 C 8.1 km/h
1122 06-12-2013 21:55:00 3.3 C 4.79 g/m*3 -0.26 C 14.5 km/h
1123 06-12-2013 22:00:00 3.3 C 4.79 g/m*3 0.7 C 9.7 km/h
1124 06-12-2013 22:05:00 3.3 C 4.73 g/m*3 1.11 C 8.1 km/h
1125 06-12-2013 22:10:00 3.3 C 4.73 g/m*3 0.34 C 11.3 km/h
Sensor: Nr:Datum:Temp:Abs-Feuchte:Windchill:Wind:
Aussen-T/F 1126 06-12-2013 22:15:00 3.3 C 4.73 g/m*3 0.34 C 11.3 km/h
1127 06-12-2013 22:20:00 3.3 C 4.73 g/m*3 1.63 C 6.4 km/h
1128 06-12-2013 22:25:00 3.3 C 4.79 g/m*3 0.02 C 12.9 km/h
1129 06-12-2013 22:30:00 3.3 C 4.73 g/m*3 0.02 C 12.9 km/h
1130 06-12-2013 22:35:00 3.4 C 4.7 g/m*3 0.82 C 9.7 km/h
1131 06-12-2013 22:40:00 3.6 C 4.77 g/m*3 1.06 C 9.7 km/h
1132 06-12-2013 22:45:00 3.6 C 4.7 g/m*3 1.46 C 8.1 km/h
1133 06-12-2013 22:50:00 3.6 C 4.7 g/m*3 0.39 C 12.9 km/h
1134 06-12-2013 22:55:00 3.7 C 4.74 g/m*3 -0.03 C 16.1 km/h
1135 06-12-2013 23:00:00 3.7 C 4.74 g/m*3 0.51 C 12.9 km/h
1136 06-12-2013 23:05:00 3.6 C 4.77 g/m*3 0.7 C 11.3 km/h
1137 06-12-2013 23:10:00 3.6 C 4.77 g/m*3 0.39 C 12.9 km/h
1138 06-12-2013 23:15:00 3.7 C 4.8 g/m*3 0.82 C 11.3 km/h
1139 06-12-2013 23:20:00 3.7 C 4.8 g/m*3 0.82 C 11.3 km/h
1140 06-12-2013 23:25:00 3.6 C 4.77 g/m*3 0.11 C 14.5 km/h
1141 06-12-2013 23:30:00 3.5 C 4.73 g/m*3 0.27 C 12.9 km/h
1142 06-12-2013 23:35:00 3.4 C 4.76 g/m*3 0.14 C 12.9 km/h
1143 06-12-2013 23:40:00 3.3 C 4.73 g/m*3 0.02 C 12.9 km/h
1144 06-12-2013 23:45:00 3.3 C 4.73 g/m*3 0.02 C 12.9 km/h
1145 06-12-2013 23:50:00 3.3 C 4.79 g/m*3 -0.52 C 16.1 km/h
1146 06-12-2013 23:55:00 3.3 C 4.79 g/m*3 0.34 C 11.3 km/h
1147 07-12-2013 00:00:00 3.3 C 4.79 g/m*3 0.7 C 9.7 km/h
1148 07-12-2013 00:05:00 3.3 C 4.79 g/m*3 0.7 C 9.7 km/h
1149 07-12-2013 00:10:00 3.3 C 4.79 g/m*3 1.11 C 8.1 km/h
1150 07-12-2013 00:15:00 3.3 C 4.73 g/m*3 0.7 C 9.7 km/h
Sensor: Nr:Datum:Temp:Abs-Feuchte:Windchill:Wind:
Aussen-T/F 1151 07-12-2013 00:20:00 3.3 C 4.79 g/m*3 0.7 C 9.7 km/h
1152 07-12-2013 00:25:00 3.3 C 4.73 g/m*3 0.7 C 9.7 km/h
1153 07-12-2013 00:30:00 3.3 C 4.73 g/m*3 1.11 C 8.1 km/h
1154 07-12-2013 00:35:00 3.3 C 4.73 g/m*3 0.34 C 11.3 km/h
1155 07-12-2013 00:40:00 3.3 C 4.67 g/m*3 0.34 C 11.3 km/h
1156 07-12-2013 00:45:00 3.4 C 4.7 g/m*3 1.23 C 8.1 km/h
1157 07-12-2013 00:50:00 3.4 C 4.7 g/m*3 0.46 C 11.3 km/h
1158 07-12-2013 00:55:00 3.4 C 4.7 g/m*3 0.82 C 9.7 km/h
1159 07-12-2013 01:00:00 3.4 C 4.7 g/m*3 0.46 C 11.3 km/h
1160 07-12-2013 01:05:00 3.4 C 4.7 g/m*3 0.82 C 9.7 km/h
1161 07-12-2013 01:10:00 3.5 C 4.73 g/m*3 -0.02 C 14.5 km/h
1162 07-12-2013 01:15:00 3.5 C 4.73 g/m*3 -0.02 C 14.5 km/h
1163 07-12-2013 01:20:00 3.5 C 4.73 g/m*3 0.94 C 9.7 km/h
1164 07-12-2013 01:25:00 3.4 C 4.7 g/m*3 0.82 C 9.7 km/h
1165 07-12-2013 01:30:00 3.4 C 4.7 g/m*3 1.23 C 8.1 km/h
1166 07-12-2013 01:35:00 3.3 C 4.73 g/m*3 0.02 C 12.9 km/h
1167 07-12-2013 01:40:00 3.2 C 4.76 g/m*3 3.2 C 4.8 km/h
1168 07-12-2013 01:45:00 3.2 C 4.76 g/m*3 0.99 C 8.1 km/h
1169 07-12-2013 01:50:00 3.2 C 4.76 g/m*3 3.2 C 4.8 km/h
1170 07-12-2013 01:55:00 3.2 C 4.76 g/m*3 0.99 C 8.1 km/h
1171 07-12-2013 02:00:00 3.2 C 4.76 g/m*3 1.51 C 6.4 km/h
1172 07-12-2013 02:05:00 3.2 C 4.76 g/m*3 0.58 C 9.7 km/h
1173 07-12-2013 02:10:00 3.2 C 4.76 g/m*3 0.99 C 8.1 km/h
1174 07-12-2013 02:15:00 3.2 C 4.76 g/m*3 3.2 C 4.8 km/h
1175 07-12-2013 02:20:00 3.2 C 4.76 g/m*3 1.51 C 6.4 km/h
Sensor: Nr:Datum:Temp:Abs-Feuchte:Windchill:Wind:
Aussen-T/F 1176 07-12-2013 02:25:00 3.1 C 4.79 g/m*3 3.1 C 4.8 km/h
1177 07-12-2013 02:30:00 3.1 C 4.73 g/m*3 0.1 C 11.3 km/h
1178 07-12-2013 02:35:00 3.1 C 4.73 g/m*3 0.87 C 8.1 km/h
1179 07-12-2013 02:40:00 2.9 C 4.72 g/m*3 2.9 C 4.8 km/h
1180 07-12-2013 02:45:00 2.8 C 4.69 g/m*3 1.05 C 6.4 km/h
1181 07-12-2013 02:50:00 2.9 C 4.72 g/m*3 0.22 C 9.7 km/h
1182 07-12-2013 02:55:00 2.9 C 4.72 g/m*3 0.64 C 8.1 km/h
1183 07-12-2013 03:00:00 3.1 C 4.79 g/m*3 3.1 C 4.8 km/h
1184 07-12-2013 03:05:00 3 C 4.76 g/m*3 3 C 4.8 km/h
1185 07-12-2013 03:10:00 3.1 C 4.79 g/m*3 3.1 C 4.8 km/h
1186 07-12-2013 03:15:00 2.9 C 4.78 g/m*3 0.64 C 8.1 km/h
1187 07-12-2013 03:20:00 3 C 4.82 g/m*3 0.34 C 9.7 km/h
1188 07-12-2013 03:25:00 3.1 C 4.79 g/m*3 0.46 C 9.7 km/h
1189 07-12-2013 03:30:00 3.1 C 4.79 g/m*3 3.1 C 4.8 km/h
1190 07-12-2013 03:35:00 3.1 C 4.79 g/m*3 1.4 C 6.4 km/h
1191 07-12-2013 03:40:00 3.2 C 4.76 g/m*3 0.58 C 9.7 km/h
1192 07-12-2013 03:45:00 3.2 C 4.76 g/m*3 0.99 C 8.1 km/h
1193 07-12-2013 03:50:00 3.2 C 4.76 g/m*3 3.2 C 4.8 km/h
1194 07-12-2013 03:55:00 3.2 C 4.76 g/m*3 0.99 C 8.1 km/h
1195 07-12-2013 04:00:00 3.3 C 4.73 g/m*3 0.7 C 9.7 km/h
1196 07-12-2013 04:05:00 3.3 C 4.73 g/m*3 0.7 C 9.7 km/h
1197 07-12-2013 04:10:00 3.4 C 4.76 g/m*3 1.23 C 8.1 km/h
1198 07-12-2013 04:15:00 3.4 C 4.83 g/m*3 3.4 C 4.8 km/h
1199 07-12-2013 04:20:00 3.3 C 4.73 g/m*3 1.63 C 6.4 km/h
1200 07-12-2013 04:25:00 3.4 C 4.83 g/m*3 3.4 C 4.8 km/h
Sensor: Nr:Datum:Temp:Abs-Feuchte:Windchill:Wind:
Aussen-T/F 1201 07-12-2013 04:30:00 3.4 C 4.83 g/m*3 1.75 C 6.4 km/h
1202 07-12-2013 04:35:00 3.4 C 4.83 g/m*3 0.46 C 11.3 km/h
1203 07-12-2013 04:40:00 3.4 C 4.76 g/m*3 1.75 C 6.4 km/h
1204 07-12-2013 04:45:00 3.4 C 4.76 g/m*3 0.82 C 9.7 km/h
1205 07-12-2013 04:50:00 3.4 C 4.76 g/m*3 0.82 C 9.7 km/h
1206 07-12-2013 04:55:00 3.4 C 4.76 g/m*3 3.4 C 4.8 km/h
1207 07-12-2013 05:00:00 3.4 C 4.7 g/m*3 0.82 C 9.7 km/h
1208 07-12-2013 05:05:00 3.4 C 4.76 g/m*3 1.23 C 8.1 km/h
1209 07-12-2013 05:10:00 3.4 C 4.76 g/m*3 0.46 C 11.3 km/h
1210 07-12-2013 05:15:00 3.4 C 4.76 g/m*3 3.4 C 4.8 km/h
1211 07-12-2013 05:20:00 3.4 C 4.76 g/m*3 3.4 C 4.8 km/h
1212 07-12-2013 05:25:00 3.4 C 4.76 g/m*3 0.82 C 9.7 km/h
1213 07-12-2013 05:30:00 3.4 C 4.76 g/m*3 3.4 C 4.8 km/h
1214 07-12-2013 05:35:00 3.3 C 4.67 g/m*3 1.11 C 8.1 km/h
1215 07-12-2013 05:40:00 3.3 C 4.73 g/m*3 3.3 C 4.8 km/h
1216 07-12-2013 05:45:00 3.3 C 4.73 g/m*3 0.34 C 11.3 km/h
1217 07-12-2013 05:50:00 3.2 C 4.7 g/m*3 1.51 C 6.4 km/h
1218 07-12-2013 05:55:00 3.2 C 4.7 g/m*3 0.58 C 9.7 km/h
1219 07-12-2013 06:00:00 3.1 C 4.73 g/m*3 3.1 C 4.8 km/h
1220 07-12-2013 06:05:00 3.1 C 4.73 g/m*3 1.4 C 6.4 km/h
1221 07-12-2013 06:10:00 3.1 C 4.73 g/m*3 1.4 C 6.4 km/h
1222 07-12-2013 06:15:00 3 C 4.7 g/m*3 3 C 4.8 km/h
1223 07-12-2013 06:20:00 2.9 C 4.67 g/m*3 0.22 C 9.7 km/h
1224 07-12-2013 06:25:00 2.9 C 4.67 g/m*3 1.17 C 6.4 km/h
1225 07-12-2013 06:30:00 2.8 C 4.63 g/m*3 -0.26 C 11.3 km/h
Sensor: Nr:Datum:Temp:Abs-Feuchte:Windchill:Wind:
Aussen-T/F 1226 07-12-2013 06:35:00 2.8 C 4.63 g/m*3 -0.26 C 11.3 km/h
1227 07-12-2013 06:40:00 2.8 C 4.63 g/m*3 0.52 C 8.1 km/h
1228 07-12-2013 06:45:00 2.8 C 4.69 g/m*3 0.1 C 9.7 km/h
1229 07-12-2013 06:50:00 2.8 C 4.69 g/m*3 -0.26 C 11.3 km/h
1230 07-12-2013 06:55:00 2.8 C 4.69 g/m*3 -0.26 C 11.3 km/h
1231 07-12-2013 07:00:00 2.8 C 4.69 g/m*3 0.1 C 9.7 km/h
1232 07-12-2013 07:05:00 2.8 C 4.69 g/m*3 0.1 C 9.7 km/h
1233 07-12-2013 07:10:00 2.8 C 4.69 g/m*3 0.1 C 9.7 km/h
1234 07-12-2013 07:15:00 2.8 C 4.69 g/m*3 1.05 C 6.4 km/h
1235 07-12-2013 07:20:00 2.8 C 4.69 g/m*3 0.52 C 8.1 km/h
1236 07-12-2013 07:25:00 2.7 C 4.72 g/m*3 -0.71 C 12.9 km/h
1237 07-12-2013 07:30:00 2.7 C 4.72 g/m*3 -0.02 C 9.7 km/h
1238 07-12-2013 07:35:00 2.7 C 4.78 g/m*3 0.4 C 8.1 km/h
1239 07-12-2013 07:40:00 2.7 C 4.72 g/m*3 -0.02 C 9.7 km/h
1240 07-12-2013 07:45:00 2.7 C 4.72 g/m*3 -0.38 C 11.3 km/h
1241 07-12-2013 07:50:00 2.7 C 4.78 g/m*3 -0.02 C 9.7 km/h
1242 07-12-2013 07:55:00 2.7 C 4.78 g/m*3 -0.02 C 9.7 km/h
1243 07-12-2013 08:00:00 2.7 C 4.78 g/m*3 2.7 C 4.8 km/h
1244 07-12-2013 08:05:00 2.8 C 4.81 g/m*3 -0.88 C 14.5 km/h
1245 07-12-2013 08:10:00 2.8 C 4.81 g/m*3 0.1 C 9.7 km/h
1246 07-12-2013 08:15:00 2.8 C 4.87 g/m*3 0.52 C 8.1 km/h
1247 07-12-2013 08:20:00 2.8 C 4.81 g/m*3 0.52 C 8.1 km/h
1248 07-12-2013 08:25:00 2.8 C 4.87 g/m*3 1.05 C 6.4 km/h
1249 07-12-2013 08:30:00 2.8 C 4.87 g/m*3 2.8 C 4.8 km/h
1250 07-12-2013 08:35:00 2.8 C 4.87 g/m*3 2.8 C 4.8 km/h
Sensor: Nr:Datum:Temp:Abs-Feuchte:Windchill:Wind:
Aussen-T/F 1251 07-12-2013 08:40:00 2.8 C 4.87 g/m*3 0.1 C 9.7 km/h
1252 07-12-2013 08:45:00 2.9 C 4.96 g/m*3 0.22 C 9.7 km/h
1253 07-12-2013 08:50:00 2.8 C 4.93 g/m*3 1.05 C 6.4 km/h
1254 07-12-2013 08:55:00 2.8 C 4.99 g/m*3 1.05 C 6.4 km/h
1255 07-12-2013 09:00:00 2.8 C 5.04 g/m*3 1.05 C 6.4 km/h
1256 07-12-2013 09:05:00 2.7 C 5.07 g/m*3 -0.02 C 9.7 km/h
1257 07-12-2013 09:10:00 2.6 C 5.09 g/m*3 0.29 C 8.1 km/h
1258 07-12-2013 09:15:00 2.6 C 5.15 g/m*3 0.82 C 6.4 km/h
1259 07-12-2013 09:20:00 2.5 C 5.12 g/m*3 -0.26 C 9.7 km/h
1260 07-12-2013 09:25:00 2.4 C 5.14 g/m*3 0.59 C 6.4 km/h
1261 07-12-2013 09:30:00 2.4 C 5.14 g/m*3 2.4 C 4.8 km/h
1262 07-12-2013 09:35:00 2.5 C 5.23 g/m*3 2.5 C 3.2 km/h
1263 07-12-2013 09:40:00 2.4 C 5.2 g/m*3 2.4 C 3.2 km/h
1264 07-12-2013 09:45:00 2.5 C 5.29 g/m*3 2.5 C 4.8 km/h
1265 07-12-2013 09:50:00 2.5 C 5.29 g/m*3 2.5 C 3.2 km/h
1266 07-12-2013 09:55:00 2.5 C 5.29 g/m*3 2.5 C 3.2 km/h
1267 07-12-2013 10:00:00 2.6 C 5.32 g/m*3 2.6 C 1.6 km/h
1268 07-12-2013 10:05:00 2.6 C 5.32 g/m*3 2.6 C 1.6 km/h
1269 07-12-2013 10:10:00 2.6 C 5.32 g/m*3 2.6 C 3.2 km/h
1270 07-12-2013 10:15:00 2.6 C 5.38 g/m*3 2.6 C 1.6 km/h
1271 07-12-2013 10:20:00 2.6 C 5.38 g/m*3 2.6 C 1.6 km/h
1272 07-12-2013 10:25:00 2.7 C 5.42 g/m*3 2.7 C 4.8 km/h
1273 07-12-2013 10:30:00 2.7 C 5.42 g/m*3 2.7 C 1.6 km/h
1274 07-12-2013 10:35:00 2.8 C 5.46 g/m*3 2.8 C 1.6 km/h
1275 07-12-2013 10:40:00 2.8 C 5.46 g/m*3 2.8 C 1.6 km/h
Sensor: Nr:Datum:Temp:Abs-Feuchte:Windchill:Wind:
Aussen-T/F 1276 07-12-2013 10:45:00 2.8 C 5.46 g/m*3 2.8 C 0 km/h
1277 07-12-2013 10:50:00 2.9 C 5.49 g/m*3 2.9 C 0 km/h
1278 07-12-2013 10:55:00 2.9 C 5.49 g/m*3 2.9 C 0 km/h
1279 07-12-2013 11:00:00 2.9 C 5.49 g/m*3 2.9 C 0 km/h
1280 07-12-2013 11:05:00 3.1 C 5.63 g/m*3 3.1 C 4.8 km/h
1281 07-12-2013 11:10:00 3.1 C 5.63 g/m*3 3.1 C 1.6 km/h
1282 07-12-2013 11:15:00 3.1 C 5.57 g/m*3 3.1 C 0 km/h
1283 07-12-2013 11:20:00 3.1 C 5.57 g/m*3 3.1 C 0 km/h
1284 07-12-2013 11:25:00 3.1 C 5.57 g/m*3 3.1 C 3.2 km/h
1285 07-12-2013 11:30:00 3.2 C 5.6 g/m*3 0.99 C 8.1 km/h
1286 07-12-2013 11:35:00 3.3 C 5.64 g/m*3 1.63 C 6.4 km/h
1287 07-12-2013 11:40:00 3.3 C 5.64 g/m*3 1.11 C 8.1 km/h
1288 07-12-2013 11:45:00 3.4 C 5.68 g/m*3 1.75 C 6.4 km/h
1289 07-12-2013 11:50:00 3.6 C 5.76 g/m*3 1.46 C 8.1 km/h
1290 07-12-2013 11:55:00 3.7 C 5.8 g/m*3 0.82 C 11.3 km/h
1291 07-12-2013 12:00:00 3.8 C 5.77 g/m*3 0.94 C 11.3 km/h
1292 07-12-2013 12:05:00 3.8 C 5.77 g/m*3 1.29 C 9.7 km/h
1293 07-12-2013 12:10:00 3.9 C 5.81 g/m*3 1.41 C 9.7 km/h
1294 07-12-2013 12:15:00 4.1 C 5.89 g/m*3 2.55 C 6.4 km/h
1295 07-12-2013 12:20:00 4.2 C 5.86 g/m*3 1.12 C 12.9 km/h
1296 07-12-2013 12:25:00 4.2 C 5.86 g/m*3 1.77 C 9.7 km/h
1297 07-12-2013 12:30:00 4.3 C 5.9 g/m*3 1.55 C 11.3 km/h
1298 07-12-2013 12:35:00 4.3 C 5.9 g/m*3 0.97 C 14.5 km/h
1299 07-12-2013 12:40:00 4.3 C 5.84 g/m*3 1.55 C 11.3 km/h
1300 07-12-2013 12:45:00 4.4 C 5.88 g/m*3 2.01 C 9.7 km/h
Sensor: Nr:Datum:Temp:Abs-Feuchte:Windchill:Wind:
Aussen-T/F 1301 07-12-2013 12:50:00 4.4 C 5.94 g/m*3 2.4 C 8.1 km/h
1302 07-12-2013 12:55:00 4.4 C 5.94 g/m*3 2.4 C 8.1 km/h
1303 07-12-2013 13:00:00 4.6 C 6.02 g/m*3 4.6 C 4.8 km/h
1304 07-12-2013 13:05:00 4.7 C 6.06 g/m*3 2.76 C 8.1 km/h
1305 07-12-2013 13:10:00 4.7 C 6 g/m*3 1.73 C 12.9 km/h
1306 07-12-2013 13:15:00 4.7 C 6 g/m*3 2.37 C 9.7 km/h
1307 07-12-2013 13:20:00 4.8 C 6.04 g/m*3 2.15 C 11.3 km/h
1308 07-12-2013 13:25:00 4.8 C 6.04 g/m*3 1.85 C 12.9 km/h
1309 07-12-2013 13:30:00 4.8 C 6.04 g/m*3 1.34 C 16.1 km/h
1310 07-12-2013 13:35:00 4.9 C 6.08 g/m*3 1.46 C 16.1 km/h
1311 07-12-2013 13:40:00 4.9 C 6.08 g/m*3 2.61 C 9.7 km/h
1312 07-12-2013 13:45:00 4.9 C 6.08 g/m*3 1.97 C 12.9 km/h
1313 07-12-2013 13:50:00 4.9 C 6.08 g/m*3 2.61 C 9.7 km/h
1314 07-12-2013 13:55:00 5 C 6.12 g/m*3 1.58 C 16.1 km/h
1315 07-12-2013 14:00:00 5 C 6.12 g/m*3 1.58 C 16.1 km/h
1316 07-12-2013 14:05:00 5.1 C 6.16 g/m*3 0.91 C 22.5 km/h
1317 07-12-2013 14:10:00 5.1 C 6.16 g/m*3 2.84 C 9.7 km/h
1318 07-12-2013 14:15:00 5.2 C 6.2 g/m*3 2.96 C 9.7 km/h
1319 07-12-2013 14:20:00 5.2 C 6.2 g/m*3 2.63 C 11.3 km/h
1320 07-12-2013 14:25:00 5.3 C 6.24 g/m*3 2.75 C 11.3 km/h
1321 07-12-2013 14:30:00 5.3 C 6.17 g/m*3 2.46 C 12.9 km/h
1322 07-12-2013 14:35:00 5.4 C 6.21 g/m*3 2.87 C 11.3 km/h
1323 07-12-2013 14:40:00 5.5 C 6.25 g/m*3 1.99 C 17.7 km/h
1324 07-12-2013 14:45:00 5.6 C 6.29 g/m*3 1.91 C 19.3 km/h
1325 07-12-2013 14:50:00 5.7 C 6.33 g/m*3 3.56 C 9.7 km/h
Sensor: Nr:Datum:Temp:Abs-Feuchte:Windchill:Wind:
Aussen-T/F 1326 07-12-2013 14:55:00 5.7 C 6.33 g/m*3 2.69 C 14.5 km/h
1327 07-12-2013 15:00:00 5.7 C 6.33 g/m*3 2.69 C 14.5 km/h
1328 07-12-2013 15:05:00 5.8 C 6.38 g/m*3 2.81 C 14.5 km/h
1329 07-12-2013 15:10:00 5.8 C 6.3 g/m*3 2.81 C 14.5 km/h
1330 07-12-2013 15:15:00 5.8 C 6.3 g/m*3 3.68 C 9.7 km/h
1331 07-12-2013 15:20:00 5.9 C 6.35 g/m*3 2.93 C 14.5 km/h
1332 07-12-2013 15:25:00 5.9 C 6.35 g/m*3 3.48 C 11.3 km/h
1333 07-12-2013 15:30:00 6 C 6.39 g/m*3 3.31 C 12.9 km/h
1334 07-12-2013 15:35:00 6.1 C 6.43 g/m*3 2.95 C 16.1 km/h
1335 07-12-2013 15:40:00 6.1 C 6.43 g/m*3 3.72 C 11.3 km/h
1336 07-12-2013 15:45:00 6.1 C 6.36 g/m*3 3.72 C 11.3 km/h
1337 07-12-2013 15:50:00 6.1 C 6.43 g/m*3 3.18 C 14.5 km/h
1338 07-12-2013 15:55:00 6 C 6.46 g/m*3 4.75 C 6.4 km/h
1339 07-12-2013 16:00:00 5.9 C 6.42 g/m*3 3.48 C 11.3 km/h
1340 07-12-2013 16:05:00 5.9 C 6.42 g/m*3 3.19 C 12.9 km/h
1341 07-12-2013 16:10:00 5.9 C 6.42 g/m*3 2.93 C 14.5 km/h
1342 07-12-2013 16:15:00 6 C 6.39 g/m*3 2.82 C 16.1 km/h
1343 07-12-2013 16:20:00 6.1 C 6.43 g/m*3 2.95 C 16.1 km/h
1344 07-12-2013 16:25:00 6 C 6.39 g/m*3 3.31 C 12.9 km/h
1345 07-12-2013 16:30:00 6 C 6.39 g/m*3 4.75 C 6.4 km/h
1346 07-12-2013 16:35:00 5.9 C 6.42 g/m*3 3.19 C 12.9 km/h
1347 07-12-2013 16:40:00 5.9 C 6.42 g/m*3 3.19 C 12.9 km/h
1348 07-12-2013 16:45:00 5.9 C 6.42 g/m*3 3.48 C 11.3 km/h
1349 07-12-2013 16:50:00 5.9 C 6.42 g/m*3 3.8 C 9.7 km/h
1350 07-12-2013 16:55:00 5.9 C 6.42 g/m*3 3.8 C 9.7 km/h
Sensor: Nr:Datum:Temp:Abs-Feuchte:Windchill:Wind:
Aussen-T/F 1351 07-12-2013 17:00:00 5.9 C 6.42 g/m*3 4.17 C 8.1 km/h
1352 07-12-2013 17:05:00 5.9 C 6.42 g/m*3 2.93 C 14.5 km/h
1353 07-12-2013 17:10:00 5.9 C 6.42 g/m*3 4.63 C 6.4 km/h
1354 07-12-2013 17:15:00 5.9 C 6.42 g/m*3 3.48 C 11.3 km/h
1355 07-12-2013 17:20:00 5.9 C 6.42 g/m*3 2.93 C 14.5 km/h
1356 07-12-2013 17:25:00 5.9 C 6.42 g/m*3 4.17 C 8.1 km/h
1357 07-12-2013 17:30:00 6 C 6.46 g/m*3 3.92 C 9.7 km/h
1358 07-12-2013 17:35:00 6 C 6.46 g/m*3 2.41 C 19.3 km/h
1359 07-12-2013 17:40:00 6.1 C 6.5 g/m*3 3.18 C 14.5 km/h
1360 07-12-2013 17:45:00 6.2 C 6.47 g/m*3 3.3 C 14.5 km/h
1361 07-12-2013 17:50:00 6.2 C 6.47 g/m*3 3.3 C 14.5 km/h
1362 07-12-2013 17:55:00 6.2 C 6.47 g/m*3 3.56 C 12.9 km/h
1363 07-12-2013 18:00:00 6.2 C 6.47 g/m*3 4.15 C 9.7 km/h
1364 07-12-2013 18:05:00 6.1 C 6.43 g/m*3 3.43 C 12.9 km/h
1365 07-12-2013 18:10:00 6.1 C 6.43 g/m*3 3.72 C 11.3 km/h
1366 07-12-2013 18:15:00 6 C 6.46 g/m*3 3.31 C 12.9 km/h
1367 07-12-2013 18:20:00 5.9 C 6.42 g/m*3 5.9 C 4.8 km/h
1368 07-12-2013 18:25:00 5.9 C 6.42 g/m*3 3.48 C 11.3 km/h
1369 07-12-2013 18:30:00 6 C 6.46 g/m*3 3.92 C 9.7 km/h
1370 07-12-2013 18:35:00 5.9 C 6.42 g/m*3 4.17 C 8.1 km/h
1371 07-12-2013 18:40:00 5.9 C 6.42 g/m*3 3.8 C 9.7 km/h
1372 07-12-2013 18:45:00 5.9 C 6.42 g/m*3 3.48 C 11.3 km/h
1373 07-12-2013 18:50:00 5.9 C 6.42 g/m*3 3.8 C 9.7 km/h
1374 07-12-2013 18:55:00 6 C 6.53 g/m*3 3.6 C 11.3 km/h
1375 07-12-2013 19:00:00 6.1 C 6.5 g/m*3 2.95 C 16.1 km/h
Sensor: Nr:Datum:Temp:Abs-Feuchte:Windchill:Wind:
Aussen-T/F 1376 07-12-2013 19:05:00 6.2 C 6.55 g/m*3 3.56 C 12.9 km/h
1377 07-12-2013 19:10:00 6.2 C 6.55 g/m*3 3.84 C 11.3 km/h
1378 07-12-2013 19:15:00 6.2 C 6.55 g/m*3 4.15 C 9.7 km/h
1379 07-12-2013 19:20:00 6.2 C 6.55 g/m*3 4.52 C 8.1 km/h
1380 07-12-2013 19:25:00 6.2 C 6.55 g/m*3 4.52 C 8.1 km/h
1381 07-12-2013 19:30:00 6.1 C 6.58 g/m*3 4.04 C 9.7 km/h
1382 07-12-2013 19:35:00 6.1 C 6.58 g/m*3 4.4 C 8.1 km/h
1383 07-12-2013 19:40:00 6 C 6.53 g/m*3 4.75 C 6.4 km/h
1384 07-12-2013 19:45:00 6.1 C 6.58 g/m*3 4.04 C 9.7 km/h
1385 07-12-2013 19:50:00 6.1 C 6.58 g/m*3 4.86 C 6.4 km/h
1386 07-12-2013 19:55:00 6.1 C 6.58 g/m*3 6.1 C 4.8 km/h
1387 07-12-2013 20:00:00 6.1 C 6.58 g/m*3 4.04 C 9.7 km/h
1388 07-12-2013 20:05:00 6.1 C 6.58 g/m*3 3.72 C 11.3 km/h
1389 07-12-2013 20:10:00 6.1 C 6.5 g/m*3 4.04 C 9.7 km/h
1390 07-12-2013 20:15:00 6.2 C 6.55 g/m*3 3.84 C 11.3 km/h
1391 07-12-2013 20:20:00 6.2 C 6.55 g/m*3 4.52 C 8.1 km/h
1392 07-12-2013 20:25:00 6.2 C 6.55 g/m*3 4.52 C 8.1 km/h
1393 07-12-2013 20:30:00 6.2 C 6.55 g/m*3 4.98 C 6.4 km/h
1394 07-12-2013 20:35:00 6.2 C 6.55 g/m*3 3.56 C 12.9 km/h
1395 07-12-2013 20:40:00 6.3 C 6.51 g/m*3 3.43 C 14.5 km/h
1396 07-12-2013 20:45:00 6.4 C 6.56 g/m*3 5.21 C 6.4 km/h
1397 07-12-2013 20:50:00 6.4 C 6.56 g/m*3 4.08 C 11.3 km/h
1398 07-12-2013 20:55:00 6.4 C 6.56 g/m*3 3.55 C 14.5 km/h
1399 07-12-2013 21:00:00 6.4 C 6.56 g/m*3 4.08 C 11.3 km/h
1400 07-12-2013 21:05:00 6.3 C 6.51 g/m*3 4.27 C 9.7 km/h
Sensor: Nr:Datum:Temp:Abs-Feuchte:Windchill:Wind:
Aussen-T/F 1401 07-12-2013 21:10:00 6.3 C 6.51 g/m*3 4.27 C 9.7 km/h
1402 07-12-2013 21:15:00 6.3 C 6.51 g/m*3 4.27 C 9.7 km/h
1403 07-12-2013 21:20:00 6.3 C 6.51 g/m*3 5.1 C 6.4 km/h
1404 07-12-2013 21:25:00 6.2 C 6.55 g/m*3 3.56 C 12.9 km/h
1405 07-12-2013 21:30:00 6.2 C 6.55 g/m*3 3.56 C 12.9 km/h
1406 07-12-2013 21:35:00 6.2 C 6.55 g/m*3 4.15 C 9.7 km/h
1407 07-12-2013 21:40:00 6.1 C 6.5 g/m*3 6.1 C 4.8 km/h
1408 07-12-2013 21:45:00 6 C 6.46 g/m*3 4.28 C 8.1 km/h
1409 07-12-2013 21:50:00 6 C 6.53 g/m*3 3.6 C 11.3 km/h
1410 07-12-2013 21:55:00 5.9 C 6.49 g/m*3 4.63 C 6.4 km/h
1411 07-12-2013 22:00:00 6 C 6.53 g/m*3 4.28 C 8.1 km/h
1412 07-12-2013 22:05:00 6.1 C 6.5 g/m*3 4.86 C 6.4 km/h
1413 07-12-2013 22:10:00 6.1 C 6.5 g/m*3 3.43 C 12.9 km/h
1414 07-12-2013 22:15:00 6.1 C 6.5 g/m*3 4.04 C 9.7 km/h
1415 07-12-2013 22:20:00 6.1 C 6.5 g/m*3 4.4 C 8.1 km/h
1416 07-12-2013 22:25:00 6.1 C 6.5 g/m*3 4.86 C 6.4 km/h
1417 07-12-2013 22:30:00 6 C 6.46 g/m*3 4.28 C 8.1 km/h
1418 07-12-2013 22:35:00 5.9 C 6.42 g/m*3 4.63 C 6.4 km/h
1419 07-12-2013 22:40:00 5.9 C 6.49 g/m*3 3.8 C 9.7 km/h
1420 07-12-2013 22:45:00 5.9 C 6.42 g/m*3 3.8 C 9.7 km/h
1421 07-12-2013 22:50:00 6 C 6.46 g/m*3 3.92 C 9.7 km/h
1422 07-12-2013 22:55:00 6 C 6.46 g/m*3 3.06 C 14.5 km/h
1423 07-12-2013 23:00:00 6 C 6.46 g/m*3 3.92 C 9.7 km/h
1424 07-12-2013 23:05:00 5.9 C 6.42 g/m*3 4.17 C 8.1 km/h
1425 07-12-2013 23:10:00 6 C 6.46 g/m*3 4.28 C 8.1 km/h
Sensor: Nr:Datum:Temp:Abs-Feuchte:Windchill:Wind:
Aussen-T/F 1426 07-12-2013 23:15:00 6.1 C 6.43 g/m*3 4.4 C 8.1 km/h
1427 07-12-2013 23:20:00 6.1 C 6.43 g/m*3 4.86 C 6.4 km/h
1428 07-12-2013 23:25:00 6.1 C 6.43 g/m*3 4.4 C 8.1 km/h
1429 07-12-2013 23:30:00 6.1 C 6.43 g/m*3 3.72 C 11.3 km/h
1430 07-12-2013 23:35:00 6.2 C 6.47 g/m*3 4.52 C 8.1 km/h
1431 07-12-2013 23:40:00 6.1 C 6.43 g/m*3 4.86 C 6.4 km/h
1432 07-12-2013 23:45:00 5.9 C 6.35 g/m*3 5.9 C 4.8 km/h
1433 07-12-2013 23:50:00 5.9 C 6.35 g/m*3 4.17 C 8.1 km/h
1434 07-12-2013 23:55:00 5.9 C 6.35 g/m*3 4.63 C 6.4 km/h
1435 08-12-2013 00:00:00 6 C 6.39 g/m*3 3.92 C 9.7 km/h
1436 08-12-2013 00:05:00 6 C 6.39 g/m*3 3.92 C 9.7 km/h
1437 08-12-2013 00:10:00 5.9 C 6.35 g/m*3 3.8 C 9.7 km/h
1438 08-12-2013 00:15:00 5.9 C 6.35 g/m*3 4.17 C 8.1 km/h
1439 08-12-2013 00:20:00 5.9 C 6.27 g/m*3 4.17 C 8.1 km/h
1440 08-12-2013 00:25:00 5.7 C 6.26 g/m*3 5.7 C 4.8 km/h
1441 08-12-2013 00:30:00 5.7 C 6.26 g/m*3 3.93 C 8.1 km/h
1442 08-12-2013 00:35:00 5.7 C 6.26 g/m*3 4.4 C 6.4 km/h
1443 08-12-2013 00:40:00 5.7 C 6.26 g/m*3 4.4 C 6.4 km/h
1444 08-12-2013 00:45:00 5.6 C 6.22 g/m*3 3.44 C 9.7 km/h
1445 08-12-2013 00:50:00 5.6 C 6.22 g/m*3 4.29 C 6.4 km/h
1446 08-12-2013 00:55:00 5.5 C 6.25 g/m*3 5.5 C 4.8 km/h
1447 08-12-2013 01:00:00 5.6 C 6.29 g/m*3 4.29 C 6.4 km/h
1448 08-12-2013 01:05:00 5.6 C 6.29 g/m*3 3.81 C 8.1 km/h
1449 08-12-2013 01:10:00 5.5 C 6.25 g/m*3 4.17 C 6.4 km/h
1450 08-12-2013 01:15:00 5.4 C 6.21 g/m*3 4.06 C 6.4 km/h
Sensor: Nr:Datum:Temp:Abs-Feuchte:Windchill:Wind:
Aussen-T/F 1451 08-12-2013 01:20:00 5.4 C 6.21 g/m*3 5.4 C 4.8 km/h
1452 08-12-2013 01:25:00 5.4 C 6.28 g/m*3 5.4 C 4.8 km/h
1453 08-12-2013 01:30:00 5.5 C 6.32 g/m*3 3.7 C 8.1 km/h
1454 08-12-2013 01:35:00 5.6 C 6.29 g/m*3 4.29 C 6.4 km/h
1455 08-12-2013 01:40:00 5.6 C 6.29 g/m*3 4.29 C 6.4 km/h
1456 08-12-2013 01:45:00 5.7 C 6.33 g/m*3 4.4 C 6.4 km/h
1457 08-12-2013 01:50:00 5.6 C 6.29 g/m*3 4.29 C 6.4 km/h
1458 08-12-2013 01:55:00 5.6 C 6.36 g/m*3 3.11 C 11.3 km/h
1459 08-12-2013 02:00:00 5.7 C 6.4 g/m*3 3.23 C 11.3 km/h
1460 08-12-2013 02:05:00 5.7 C 6.4 g/m*3 5.7 C 4.8 km/h
1461 08-12-2013 02:10:00 5.7 C 6.4 g/m*3 5.7 C 4.8 km/h
1462 08-12-2013 02:15:00 5.7 C 6.4 g/m*3 3.93 C 8.1 km/h
1463 08-12-2013 02:20:00 5.8 C 6.45 g/m*3 4.52 C 6.4 km/h
1464 08-12-2013 02:25:00 5.7 C 6.4 g/m*3 4.4 C 6.4 km/h
1465 08-12-2013 02:30:00 5.6 C 6.36 g/m*3 5.6 C 3.2 km/h
1466 08-12-2013 02:35:00 5.4 C 6.28 g/m*3 5.4 C 3.2 km/h
1467 08-12-2013 02:40:00 5.4 C 6.35 g/m*3 5.4 C 3.2 km/h
1468 08-12-2013 02:45:00 5.3 C 6.31 g/m*3 5.3 C 3.2 km/h
1469 08-12-2013 02:50:00 5.2 C 6.27 g/m*3 5.2 C 3.2 km/h
1470 08-12-2013 02:55:00 5.1 C 6.29 g/m*3 5.1 C 3.2 km/h
1471 08-12-2013 03:00:00 5.2 C 6.33 g/m*3 5.2 C 4.8 km/h
1472 08-12-2013 03:05:00 5.3 C 6.31 g/m*3 5.3 C 4.8 km/h
1473 08-12-2013 03:10:00 5.5 C 6.39 g/m*3 3.7 C 8.1 km/h
1474 08-12-2013 03:15:00 5.7 C 6.4 g/m*3 5.7 C 4.8 km/h
1475 08-12-2013 03:20:00 5.8 C 6.45 g/m*3 4.05 C 8.1 km/h
Sensor: Nr:Datum:Temp:Abs-Feuchte:Windchill:Wind:
Aussen-T/F 1476 08-12-2013 03:25:00 5.7 C 6.4 g/m*3 5.7 C 4.8 km/h
1477 08-12-2013 03:30:00 5.7 C 6.33 g/m*3 5.7 C 4.8 km/h
1478 08-12-2013 03:35:00 5.8 C 6.38 g/m*3 5.8 C 3.2 km/h
1479 08-12-2013 03:40:00 5.8 C 6.38 g/m*3 3.68 C 9.7 km/h
1480 08-12-2013 03:45:00 5.8 C 6.38 g/m*3 4.05 C 8.1 km/h
1481 08-12-2013 03:50:00 5.8 C 6.3 g/m*3 5.8 C 4.8 km/h
1482 08-12-2013 03:55:00 5.8 C 6.3 g/m*3 3.68 C 9.7 km/h
1483 08-12-2013 04:00:00 5.9 C 6.35 g/m*3 5.9 C 4.8 km/h
1484 08-12-2013 04:05:00 5.9 C 6.35 g/m*3 5.9 C 3.2 km/h
1485 08-12-2013 04:10:00 5.8 C 6.3 g/m*3 5.8 C 3.2 km/h
1486 08-12-2013 04:15:00 5.8 C 6.3 g/m*3 4.52 C 6.4 km/h
1487 08-12-2013 04:20:00 5.8 C 6.3 g/m*3 4.05 C 8.1 km/h
1488 08-12-2013 04:25:00 5.8 C 6.3 g/m*3 5.8 C 4.8 km/h
1489 08-12-2013 04:30:00 5.8 C 6.3 g/m*3 5.8 C 1.6 km/h
1490 08-12-2013 04:35:00 5.7 C 6.33 g/m*3 5.7 C 1.6 km/h
1491 08-12-2013 04:40:00 5.6 C 6.29 g/m*3 5.6 C 0 km/h
1492 08-12-2013 04:45:00 5.5 C 6.32 g/m*3 5.5 C 0 km/h
1493 08-12-2013 04:50:00 5.4 C 6.28 g/m*3 5.4 C 4.8 km/h
1494 08-12-2013 04:55:00 5.3 C 6.24 g/m*3 5.3 C 1.6 km/h
1495 08-12-2013 05:00:00 5.3 C 6.31 g/m*3 5.3 C 0 km/h
1496 08-12-2013 05:05:00 5.2 C 6.27 g/m*3 5.2 C 1.6 km/h
1497 08-12-2013 05:10:00 5.2 C 6.27 g/m*3 5.2 C 4.8 km/h
1498 08-12-2013 05:15:00 5.3 C 6.31 g/m*3 3.08 C 9.7 km/h
1499 08-12-2013 05:20:00 5.5 C 6.32 g/m*3 4.17 C 6.4 km/h
1500 08-12-2013 05:25:00 5.7 C 6.4 g/m*3 3.56 C 9.7 km/h
Sensor: Nr:Datum:Temp:Abs-Feuchte:Windchill:Wind:
Aussen-T/F 1501 08-12-2013 05:30:00 5.8 C 6.38 g/m*3 4.52 C 6.4 km/h
1502 08-12-2013 05:35:00 5.8 C 6.38 g/m*3 4.05 C 8.1 km/h
1503 08-12-2013 05:40:00 5.9 C 6.42 g/m*3 4.63 C 6.4 km/h
1504 08-12-2013 05:45:00 6 C 6.46 g/m*3 3.6 C 11.3 km/h
1505 08-12-2013 05:50:00 6 C 6.46 g/m*3 6 C 4.8 km/h
1506 08-12-2013 05:55:00 5.9 C 6.42 g/m*3 5.9 C 3.2 km/h
1507 08-12-2013 06:00:00 5.8 C 6.45 g/m*3 5.8 C 3.2 km/h
1508 08-12-2013 06:05:00 5.9 C 6.42 g/m*3 3.48 C 11.3 km/h
1509 08-12-2013 06:10:00 6.1 C 6.5 g/m*3 4.4 C 8.1 km/h
1510 08-12-2013 06:15:00 6.1 C 6.5 g/m*3 6.1 C 3.2 km/h
1511 08-12-2013 06:20:00 6 C 6.53 g/m*3 6 C 4.8 km/h
1512 08-12-2013 06:25:00 6 C 6.46 g/m*3 4.28 C 8.1 km/h
1513 08-12-2013 06:30:00 6 C 6.46 g/m*3 4.75 C 6.4 km/h
1514 08-12-2013 06:35:00 6 C 6.46 g/m*3 4.75 C 6.4 km/h
1515 08-12-2013 06:40:00 6.1 C 6.5 g/m*3 4.4 C 8.1 km/h
1516 08-12-2013 06:45:00 6.2 C 6.55 g/m*3 4.98 C 6.4 km/h
1517 08-12-2013 06:50:00 6.2 C 6.55 g/m*3 4.98 C 6.4 km/h
1518 08-12-2013 06:55:00 6.2 C 6.55 g/m*3 4.98 C 6.4 km/h
1519 08-12-2013 07:00:00 6.1 C 6.5 g/m*3 6.1 C 4.8 km/h
1520 08-12-2013 07:05:00 6.2 C 6.55 g/m*3 6.2 C 1.6 km/h
1521 08-12-2013 07:10:00 6.1 C 6.5 g/m*3 4.04 C 9.7 km/h
1522 08-12-2013 07:15:00 6.1 C 6.5 g/m*3 6.1 C 4.8 km/h
1523 08-12-2013 07:20:00 6.1 C 6.5 g/m*3 4.04 C 9.7 km/h
1524 08-12-2013 07:25:00 6.1 C 6.5 g/m*3 4.86 C 6.4 km/h
1525 08-12-2013 07:30:00 6.1 C 6.5 g/m*3 4.4 C 8.1 km/h
Sensor: Nr:Datum:Temp:Abs-Feuchte:Windchill:Wind:
Aussen-T/F 1526 08-12-2013 07:35:00 6.1 C 6.5 g/m*3 4.86 C 6.4 km/h
1527 08-12-2013 07:40:00 6.1 C 6.5 g/m*3 4.04 C 9.7 km/h
1528 08-12-2013 07:45:00 6.1 C 6.58 g/m*3 4.04 C 9.7 km/h
1529 08-12-2013 07:50:00 6.1 C 6.58 g/m*3 3.72 C 11.3 km/h
1530 08-12-2013 07:55:00 6.1 C 6.58 g/m*3 4.04 C 9.7 km/h
1531 08-12-2013 08:00:00 6.1 C 6.58 g/m*3 2.95 C 16.1 km/h
1532 08-12-2013 08:05:00 6.1 C 6.58 g/m*3 3.72 C 11.3 km/h
1533 08-12-2013 08:10:00 6.1 C 6.65 g/m*3 3.43 C 12.9 km/h
1534 08-12-2013 08:15:00 6 C 6.6 g/m*3 3.92 C 9.7 km/h
1535 08-12-2013 08:20:00 6 C 6.6 g/m*3 3.92 C 9.7 km/h
1536 08-12-2013 08:25:00 5.9 C 6.56 g/m*3 4.17 C 8.1 km/h
1537 08-12-2013 08:30:00 6 C 6.6 g/m*3 4.75 C 6.4 km/h
1538 08-12-2013 08:35:00 6.1 C 6.65 g/m*3 4.04 C 9.7 km/h
1539 08-12-2013 08:40:00 6.1 C 6.65 g/m*3 3.72 C 11.3 km/h
1540 08-12-2013 08:45:00 6.1 C 6.65 g/m*3 4.4 C 8.1 km/h
1541 08-12-2013 08:50:00 6.1 C 6.65 g/m*3 4.86 C 6.4 km/h
1542 08-12-2013 08:55:00 6.2 C 6.69 g/m*3 4.15 C 9.7 km/h
1543 08-12-2013 09:00:00 6.2 C 6.69 g/m*3 3.84 C 11.3 km/h
1544 08-12-2013 09:05:00 6.3 C 6.66 g/m*3 4.27 C 9.7 km/h
1545 08-12-2013 09:10:00 6.4 C 6.63 g/m*3 4.08 C 11.3 km/h
1546 08-12-2013 09:15:00 6.6 C 6.64 g/m*3 4.04 C 12.9 km/h
1547 08-12-2013 09:20:00 6.7 C 6.69 g/m*3 5.11 C 8.1 km/h
1548 08-12-2013 09:25:00 6.7 C 6.69 g/m*3 4.17 C 12.9 km/h
1549 08-12-2013 09:30:00 6.7 C 6.76 g/m*3 4.17 C 12.9 km/h
1550 08-12-2013 09:35:00 6.6 C 6.72 g/m*3 4.63 C 9.7 km/h
Sensor: Nr:Datum:Temp:Abs-Feuchte:Windchill:Wind:
Aussen-T/F 1551 08-12-2013 09:40:00 6.6 C 6.64 g/m*3 4.63 C 9.7 km/h
1552 08-12-2013 09:45:00 6.7 C 6.69 g/m*3 4.44 C 11.3 km/h
1553 08-12-2013 09:50:00 6.7 C 6.69 g/m*3 4.17 C 12.9 km/h
1554 08-12-2013 09:55:00 6.6 C 6.64 g/m*3 4.99 C 8.1 km/h
1555 08-12-2013 10:00:00 6.6 C 6.72 g/m*3 4.63 C 9.7 km/h
1556 08-12-2013 10:05:00 6.5 C 6.67 g/m*3 5.33 C 6.4 km/h
1557 08-12-2013 10:10:00 6.4 C 6.63 g/m*3 4.75 C 8.1 km/h
1558 08-12-2013 10:15:00 6.3 C 6.59 g/m*3 6.3 C 4.8 km/h
1559 08-12-2013 10:20:00 6.4 C 6.71 g/m*3 5.21 C 6.4 km/h
1560 08-12-2013 10:25:00 6.5 C 6.75 g/m*3 3.67 C 14.5 km/h
1561 08-12-2013 10:30:00 6.7 C 6.76 g/m*3 4.17 C 12.9 km/h
1562 08-12-2013 10:35:00 6.8 C 6.81 g/m*3 4.87 C 9.7 km/h
1563 08-12-2013 10:40:00 7 C 6.82 g/m*3 5.11 C 9.7 km/h
1564 08-12-2013 10:45:00 7.1 C 6.86 g/m*3 4.65 C 12.9 km/h
1565 08-12-2013 10:50:00 7.2 C 6.91 g/m*3 5.04 C 11.3 km/h
1566 08-12-2013 10:55:00 7.3 C 6.87 g/m*3 4.9 C 12.9 km/h
1567 08-12-2013 11:00:00 7.4 C 6.92 g/m*3 5.28 C 11.3 km/h
1568 08-12-2013 11:05:00 7.4 C 6.92 g/m*3 4.56 C 16.1 km/h
1569 08-12-2013 11:10:00 7.6 C 6.93 g/m*3 5.02 C 14.5 km/h
1570 08-12-2013 11:15:00 7.7 C 6.89 g/m*3 5.38 C 12.9 km/h
1571 08-12-2013 11:20:00 7.7 C 6.89 g/m*3 6.28 C 8.1 km/h
1572 08-12-2013 11:25:00 7.7 C 6.89 g/m*3 5.94 C 9.7 km/h
1573 08-12-2013 11:30:00 7.8 C 7.02 g/m*3 5.51 C 12.9 km/h
1574 08-12-2013 11:35:00 7.8 C 6.94 g/m*3 5.27 C 14.5 km/h
1575 08-12-2013 11:40:00 7.7 C 6.97 g/m*3 4.93 C 16.1 km/h
Sensor: Nr:Datum:Temp:Abs-Feuchte:Windchill:Wind:
Aussen-T/F 1576 08-12-2013 11:45:00 7.8 C 7.02 g/m*3 5.06 C 16.1 km/h
1577 08-12-2013 11:50:00 7.8 C 7.02 g/m*3 5.27 C 14.5 km/h
1578 08-12-2013 11:55:00 7.8 C 7.02 g/m*3 5.77 C 11.3 km/h
1579 08-12-2013 12:00:00 7.8 C 7.02 g/m*3 6.06 C 9.7 km/h
1580 08-12-2013 12:05:00 7.8 C 7.02 g/m*3 5.27 C 14.5 km/h
1581 08-12-2013 12:10:00 7.8 C 7.02 g/m*3 6.06 C 9.7 km/h
1582 08-12-2013 12:15:00 7.9 C 6.98 g/m*3 4.98 C 17.7 km/h
1583 08-12-2013 12:20:00 7.9 C 6.98 g/m*3 5.18 C 16.1 km/h
1584 08-12-2013 12:25:00 8 C 7.03 g/m*3 5.3 C 16.1 km/h
1585 08-12-2013 12:30:00 8 C 7.03 g/m*3 5.75 C 12.9 km/h
1586 08-12-2013 12:35:00 8 C 7.03 g/m*3 5.52 C 14.5 km/h
1587 08-12-2013 12:40:00 8 C 7.03 g/m*3 5.52 C 14.5 km/h
1588 08-12-2013 12:45:00 7.9 C 6.98 g/m*3 4.63 C 20.9 km/h
1589 08-12-2013 12:50:00 7.9 C 6.98 g/m*3 5.39 C 14.5 km/h
1590 08-12-2013 12:55:00 7.9 C 6.98 g/m*3 6.18 C 9.7 km/h
1591 08-12-2013 13:00:00 7.8 C 6.94 g/m*3 5.27 C 14.5 km/h
1592 08-12-2013 13:05:00 7.8 C 7.02 g/m*3 6.06 C 9.7 km/h
1593 08-12-2013 13:10:00 7.8 C 7.02 g/m*3 5.77 C 11.3 km/h
1594 08-12-2013 13:15:00 7.8 C 7.02 g/m*3 5.77 C 11.3 km/h
1595 08-12-2013 13:20:00 7.8 C 7.02 g/m*3 6.4 C 8.1 km/h
1596 08-12-2013 13:25:00 7.7 C 7.05 g/m*3 5.65 C 11.3 km/h
1597 08-12-2013 13:30:00 7.7 C 7.05 g/m*3 5.65 C 11.3 km/h
1598 08-12-2013 13:35:00 7.6 C 7.09 g/m*3 6.6 C 6.4 km/h
1599 08-12-2013 13:40:00 7.6 C 7.09 g/m*3 6.6 C 6.4 km/h
1600 08-12-2013 13:45:00 7.6 C 7.01 g/m*3 5.53 C 11.3 km/h
Sensor: Nr:Datum:Temp:Abs-Feuchte:Windchill:Wind:
Aussen-T/F 1601 08-12-2013 13:50:00 7.7 C 7.05 g/m*3 5.15 C 14.5 km/h
1602 08-12-2013 13:55:00 7.7 C 7.05 g/m*3 6.28 C 8.1 km/h
1603 08-12-2013 14:00:00 7.7 C 7.05 g/m*3 5.65 C 11.3 km/h
1604 08-12-2013 14:05:00 7.7 C 7.05 g/m*3 6.28 C 8.1 km/h
1605 08-12-2013 14:10:00 7.7 C 7.14 g/m*3 5.94 C 9.7 km/h
1606 08-12-2013 14:15:00 7.7 C 7.14 g/m*3 6.28 C 8.1 km/h
1607 08-12-2013 14:20:00 7.7 C 7.14 g/m*3 5.65 C 11.3 km/h
1608 08-12-2013 14:25:00 7.7 C 7.05 g/m*3 6.71 C 6.4 km/h
1609 08-12-2013 14:30:00 7.7 C 7.05 g/m*3 6.71 C 6.4 km/h
1610 08-12-2013 14:35:00 7.7 C 7.05 g/m*3 6.28 C 8.1 km/h
1611 08-12-2013 14:40:00 7.7 C 6.97 g/m*3 5.38 C 12.9 km/h
1612 08-12-2013 14:45:00 7.8 C 7.02 g/m*3 6.4 C 8.1 km/h
1613 08-12-2013 14:50:00 7.9 C 6.98 g/m*3 5.18 C 16.1 km/h
1614 08-12-2013 14:55:00 7.9 C 6.98 g/m*3 5.89 C 11.3 km/h
1615 08-12-2013 15:00:00 7.9 C 6.98 g/m*3 5.89 C 11.3 km/h
1616 08-12-2013 15:05:00 8 C 6.94 g/m*3 6.01 C 11.3 km/h
1617 08-12-2013 15:10:00 8.1 C 6.99 g/m*3 5.64 C 14.5 km/h
1618 08-12-2013 15:15:00 8.1 C 6.99 g/m*3 5.87 C 12.9 km/h
1619 08-12-2013 15:20:00 8.2 C 7.03 g/m*3 5.55 C 16.1 km/h
1620 08-12-2013 15:25:00 8.1 C 6.99 g/m*3 5.64 C 14.5 km/h
1621 08-12-2013 15:30:00 8.1 C 6.99 g/m*3 5.64 C 14.5 km/h
1622 08-12-2013 15:35:00 8.1 C 6.99 g/m*3 5.43 C 16.1 km/h
1623 08-12-2013 15:40:00 8.1 C 6.99 g/m*3 6.75 C 8.1 km/h
1624 08-12-2013 15:45:00 8.1 C 6.99 g/m*3 7.17 C 6.4 km/h
1625 08-12-2013 15:50:00 8.1 C 6.99 g/m*3 5.64 C 14.5 km/h
Sensor: Nr:Datum:Temp:Abs-Feuchte:Windchill:Wind:
Aussen-T/F 1626 08-12-2013 15:55:00 8 C 6.94 g/m*3 7.06 C 6.4 km/h
1627 08-12-2013 16:00:00 8 C 7.03 g/m*3 5.52 C 14.5 km/h
1628 08-12-2013 16:05:00 7.9 C 6.98 g/m*3 5.18 C 16.1 km/h
1629 08-12-2013 16:10:00 7.8 C 6.94 g/m*3 5.06 C 16.1 km/h
1630 08-12-2013 16:15:00 7.8 C 7.02 g/m*3 5.27 C 14.5 km/h
1631 08-12-2013 16:20:00 7.8 C 7.02 g/m*3 6.06 C 9.7 km/h
1632 08-12-2013 16:25:00 7.8 C 7.02 g/m*3 5.77 C 11.3 km/h
1633 08-12-2013 16:30:00 7.7 C 6.97 g/m*3 5.15 C 14.5 km/h
1634 08-12-2013 16:35:00 7.6 C 6.93 g/m*3 5.53 C 11.3 km/h
1635 08-12-2013 16:40:00 7.5 C 6.88 g/m*3 5.41 C 11.3 km/h
1636 08-12-2013 16:45:00 7.4 C 6.92 g/m*3 5.02 C 12.9 km/h
1637 08-12-2013 16:50:00 7.4 C 6.92 g/m*3 5.28 C 11.3 km/h
1638 08-12-2013 16:55:00 7.3 C 6.87 g/m*3 5.47 C 9.7 km/h
1639 08-12-2013 17:00:00 7.3 C 6.87 g/m*3 5.16 C 11.3 km/h
1640 08-12-2013 17:05:00 7.3 C 6.87 g/m*3 5.16 C 11.3 km/h
1641 08-12-2013 17:10:00 7.3 C 6.87 g/m*3 4.66 C 14.5 km/h
1642 08-12-2013 17:15:00 7.3 C 6.87 g/m*3 4.66 C 14.5 km/h
1643 08-12-2013 17:20:00 7.2 C 6.91 g/m*3 5.04 C 11.3 km/h
1644 08-12-2013 17:25:00 7.3 C 6.95 g/m*3 4.66 C 14.5 km/h
1645 08-12-2013 17:30:00 7.3 C 6.95 g/m*3 4.44 C 16.1 km/h
1646 08-12-2013 17:35:00 7.3 C 6.87 g/m*3 4.66 C 14.5 km/h
1647 08-12-2013 17:40:00 7.4 C 6.92 g/m*3 4.78 C 14.5 km/h
1648 08-12-2013 17:45:00 7.4 C 6.92 g/m*3 4.17 C 19.3 km/h
1649 08-12-2013 17:50:00 7.4 C 6.92 g/m*3 5.28 C 11.3 km/h
1650 08-12-2013 17:55:00 7.3 C 6.87 g/m*3 4.66 C 14.5 km/h
Sensor: Nr:Datum:Temp:Abs-Feuchte:Windchill:Wind:
Aussen-T/F 1651 08-12-2013 18:00:00 7.3 C 6.87 g/m*3 5.47 C 9.7 km/h
1652 08-12-2013 18:05:00 7.2 C 6.91 g/m*3 5.04 C 11.3 km/h
1653 08-12-2013 18:10:00 7.3 C 6.95 g/m*3 4.66 C 14.5 km/h
1654 08-12-2013 18:15:00 7.3 C 6.95 g/m*3 4.9 C 12.9 km/h
1655 08-12-2013 18:20:00 7.3 C 6.95 g/m*3 4.44 C 16.1 km/h
1656 08-12-2013 18:25:00 7.3 C 6.95 g/m*3 4.44 C 16.1 km/h
1657 08-12-2013 18:30:00 7.3 C 6.95 g/m*3 4.9 C 12.9 km/h
1658 08-12-2013 18:35:00 7.4 C 6.92 g/m*3 4.56 C 16.1 km/h
1659 08-12-2013 18:40:00 7.4 C 6.92 g/m*3 4.36 C 17.7 km/h
1660 08-12-2013 18:45:00 7.4 C 7 g/m*3 5.58 C 9.7 km/h
1661 08-12-2013 18:50:00 7.4 C 7 g/m*3 5.02 C 12.9 km/h
1662 08-12-2013 18:55:00 7.4 C 7 g/m*3 5.02 C 12.9 km/h
1663 08-12-2013 19:00:00 7.5 C 7.04 g/m*3 4.9 C 14.5 km/h
1664 08-12-2013 19:05:00 7.5 C 7.04 g/m*3 5.14 C 12.9 km/h
1665 08-12-2013 19:10:00 7.4 C 7 g/m*3 5.02 C 12.9 km/h
1666 08-12-2013 19:15:00 7.4 C 7 g/m*3 5.02 C 12.9 km/h
1667 08-12-2013 19:20:00 7.4 C 7 g/m*3 5.02 C 12.9 km/h
1668 08-12-2013 19:25:00 7.4 C 7 g/m*3 5.93 C 8.1 km/h
1669 08-12-2013 19:30:00 7.4 C 7 g/m*3 6.37 C 6.4 km/h
1670 08-12-2013 19:35:00 7.4 C 7 g/m*3 5.28 C 11.3 km/h
1671 08-12-2013 19:40:00 7.3 C 6.95 g/m*3 6.25 C 6.4 km/h
1672 08-12-2013 19:45:00 7.3 C 6.95 g/m*3 5.81 C 8.1 km/h
1673 08-12-2013 19:50:00 7.3 C 6.95 g/m*3 5.16 C 11.3 km/h
1674 08-12-2013 19:55:00 7.3 C 6.95 g/m*3 6.25 C 6.4 km/h
1675 08-12-2013 20:00:00 7.3 C 6.95 g/m*3 4.66 C 14.5 km/h
Sensor: Nr:Datum:Temp:Abs-Feuchte:Windchill:Wind:
Aussen-T/F 1676 08-12-2013 20:05:00 7.4 C 7 g/m*3 5.28 C 11.3 km/h
1677 08-12-2013 20:10:00 7.5 C 6.96 g/m*3 5.14 C 12.9 km/h
1678 08-12-2013 20:15:00 7.6 C 7.01 g/m*3 4.81 C 16.1 km/h
1679 08-12-2013 20:20:00 7.7 C 6.97 g/m*3 4.93 C 16.1 km/h
1680 08-12-2013 20:25:00 7.9 C 6.98 g/m*3 4.8 C 19.3 km/h
1681 08-12-2013 20:30:00 7.9 C 6.98 g/m*3 5.63 C 12.9 km/h
1682 08-12-2013 20:35:00 7.9 C 6.98 g/m*3 4.98 C 17.7 km/h
1683 08-12-2013 20:40:00 8 C 6.94 g/m*3 4.76 C 20.9 km/h
1684 08-12-2013 20:45:00 8 C 6.94 g/m*3 5.75 C 12.9 km/h
1685 08-12-2013 20:50:00 8.1 C 6.99 g/m*3 5.43 C 16.1 km/h
1686 08-12-2013 20:55:00 8.1 C 6.99 g/m*3 4.73 C 22.5 km/h
1687 08-12-2013 21:00:00 8.1 C 6.99 g/m*3 4.73 C 22.5 km/h
1688 08-12-2013 21:05:00 8.1 C 6.99 g/m*3 4.89 C 20.9 km/h
1689 08-12-2013 21:10:00 8.2 C 6.95 g/m*3 5.76 C 14.5 km/h
1690 08-12-2013 21:15:00 8.3 C 7 g/m*3 5.14 C 20.9 km/h
1691 08-12-2013 21:20:00 8.3 C 6.91 g/m*3 4.84 C 24.1 km/h
1692 08-12-2013 21:25:00 8.3 C 6.91 g/m*3 5.89 C 14.5 km/h
1693 08-12-2013 21:30:00 8.3 C 7 g/m*3 5.89 C 14.5 km/h
1694 08-12-2013 21:35:00 8.2 C 6.95 g/m*3 4.86 C 22.5 km/h
1695 08-12-2013 21:40:00 8.2 C 6.95 g/m*3 5.36 C 17.7 km/h
1696 08-12-2013 21:45:00 8.2 C 6.95 g/m*3 5.36 C 17.7 km/h
1697 08-12-2013 21:50:00 8.2 C 6.95 g/m*3 5.36 C 17.7 km/h
1698 08-12-2013 21:55:00 8.2 C 6.95 g/m*3 5.99 C 12.9 km/h
1699 08-12-2013 22:00:00 8.1 C 6.91 g/m*3 5.05 C 19.3 km/h
1700 08-12-2013 22:05:00 8.2 C 6.95 g/m*3 5.76 C 14.5 km/h
Sensor: Nr:Datum:Temp:Abs-Feuchte:Windchill:Wind:
Aussen-T/F 1701 08-12-2013 22:10:00 8.1 C 6.91 g/m*3 5.64 C 14.5 km/h
1702 08-12-2013 22:15:00 8.1 C 6.91 g/m*3 6.13 C 11.3 km/h
1703 08-12-2013 22:20:00 8.2 C 6.95 g/m*3 4.71 C 24.1 km/h
1704 08-12-2013 22:25:00 8.2 C 6.95 g/m*3 6.25 C 11.3 km/h
1705 08-12-2013 22:30:00 8.2 C 6.95 g/m*3 5.55 C 16.1 km/h
1706 08-12-2013 22:35:00 8.1 C 6.91 g/m*3 5.43 C 16.1 km/h
1707 08-12-2013 22:40:00 8.2 C 6.95 g/m*3 5.55 C 16.1 km/h
1708 08-12-2013 22:45:00 8.1 C 6.99 g/m*3 6.13 C 11.3 km/h
1709 08-12-2013 22:50:00 7.9 C 6.9 g/m*3 5.63 C 12.9 km/h
1710 08-12-2013 22:55:00 7.8 C 6.94 g/m*3 5.77 C 11.3 km/h
1711 08-12-2013 23:00:00 7.8 C 6.94 g/m*3 6.4 C 8.1 km/h
1712 08-12-2013 23:05:00 7.7 C 6.97 g/m*3 5.94 C 9.7 km/h
1713 08-12-2013 23:10:00 7.7 C 6.97 g/m*3 5.38 C 12.9 km/h
1714 08-12-2013 23:15:00 7.7 C 6.97 g/m*3 5.38 C 12.9 km/h
1715 08-12-2013 23:20:00 7.7 C 6.97 g/m*3 5.15 C 14.5 km/h
1716 08-12-2013 23:25:00 7.7 C 6.97 g/m*3 5.38 C 12.9 km/h
1717 08-12-2013 23:30:00 7.8 C 6.94 g/m*3 5.27 C 14.5 km/h
1718 08-12-2013 23:35:00 7.9 C 6.98 g/m*3 5.39 C 14.5 km/h
1719 08-12-2013 23:40:00 8 C 6.94 g/m*3 5.11 C 17.7 km/h
1720 08-12-2013 23:45:00 8.1 C 6.99 g/m*3 5.43 C 16.1 km/h
1721 08-12-2013 23:50:00 8.1 C 6.99 g/m*3 5.23 C 17.7 km/h
1722 08-12-2013 23:55:00 8.1 C 6.99 g/m*3 5.64 C 14.5 km/h
1723 09-12-2013 00:00:00 8 C 7.03 g/m*3 6.3 C 9.7 km/h
1724 09-12-2013 00:05:00 7.9 C 6.98 g/m*3 6.94 C 6.4 km/h
1725 09-12-2013 00:10:00 7.8 C 6.94 g/m*3 5.27 C 14.5 km/h
Sensor: Nr:Datum:Temp:Abs-Feuchte:Windchill:Wind:
Aussen-T/F 1726 09-12-2013 00:15:00 7.8 C 6.94 g/m*3 5.51 C 12.9 km/h
1727 09-12-2013 00:20:00 7.8 C 6.94 g/m*3 5.27 C 14.5 km/h
1728 09-12-2013 00:25:00 7.9 C 6.98 g/m*3 5.63 C 12.9 km/h
1729 09-12-2013 00:30:00 7.9 C 6.98 g/m*3 5.89 C 11.3 km/h
1730 09-12-2013 00:35:00 7.9 C 6.98 g/m*3 4.98 C 17.7 km/h
1731 09-12-2013 00:40:00 7.9 C 6.98 g/m*3 5.39 C 14.5 km/h
1732 09-12-2013 00:45:00 7.9 C 6.98 g/m*3 5.39 C 14.5 km/h
1733 09-12-2013 00:50:00 8.1 C 6.99 g/m*3 5.64 C 14.5 km/h
1734 09-12-2013 00:55:00 8 C 6.94 g/m*3 6.64 C 8.1 km/h
1735 09-12-2013 01:00:00 7.9 C 6.9 g/m*3 5.18 C 16.1 km/h
1736 09-12-2013 01:05:00 8 C 6.94 g/m*3 4.45 C 24.1 km/h
1737 09-12-2013 01:10:00 8 C 6.86 g/m*3 5.52 C 14.5 km/h
1738 09-12-2013 01:15:00 8 C 6.94 g/m*3 6.3 C 9.7 km/h
1739 09-12-2013 01:20:00 7.9 C 6.9 g/m*3 5.63 C 12.9 km/h
1740 09-12-2013 01:25:00 7.8 C 6.86 g/m*3 5.27 C 14.5 km/h
1741 09-12-2013 01:30:00 7.8 C 6.86 g/m*3 5.77 C 11.3 km/h
1742 09-12-2013 01:35:00 7.7 C 6.81 g/m*3 4.73 C 17.7 km/h
1743 09-12-2013 01:40:00 7.7 C 6.81 g/m*3 4.93 C 16.1 km/h
1744 09-12-2013 01:45:00 7.7 C 6.81 g/m*3 5.38 C 12.9 km/h
1745 09-12-2013 01:50:00 7.7 C 6.81 g/m*3 5.15 C 14.5 km/h
1746 09-12-2013 01:55:00 7.7 C 6.73 g/m*3 4.55 C 19.3 km/h
1747 09-12-2013 02:00:00 7.6 C 6.69 g/m*3 6.16 C 8.1 km/h
1748 09-12-2013 02:05:00 7.6 C 6.69 g/m*3 5.82 C 9.7 km/h
1749 09-12-2013 02:10:00 7.6 C 6.69 g/m*3 5.02 C 14.5 km/h
1750 09-12-2013 02:15:00 7.6 C 6.69 g/m*3 4.42 C 19.3 km/h
Sensor: Nr:Datum:Temp:Abs-Feuchte:Windchill:Wind:
Aussen-T/F 1751 09-12-2013 02:20:00 7.5 C 6.64 g/m*3 5.41 C 11.3 km/h
1752 09-12-2013 02:25:00 7.4 C 6.6 g/m*3 5.02 C 12.9 km/h
1753 09-12-2013 02:30:00 7.4 C 6.6 g/m*3 5.28 C 11.3 km/h
1754 09-12-2013 02:35:00 7.4 C 6.6 g/m*3 5.28 C 11.3 km/h
1755 09-12-2013 02:40:00 7.4 C 6.6 g/m*3 5.28 C 11.3 km/h
1756 09-12-2013 02:45:00 7.3 C 6.56 g/m*3 5.47 C 9.7 km/h
1757 09-12-2013 02:50:00 7.3 C 6.64 g/m*3 4.9 C 12.9 km/h
1758 09-12-2013 02:55:00 7.2 C 6.59 g/m*3 5.69 C 8.1 km/h
1759 09-12-2013 03:00:00 7.2 C 6.59 g/m*3 5.04 C 11.3 km/h
1760 09-12-2013 03:05:00 7.1 C 6.55 g/m*3 5.23 C 9.7 km/h
1761 09-12-2013 03:10:00 7 C 6.51 g/m*3 4.8 C 11.3 km/h
1762 09-12-2013 03:15:00 7 C 6.51 g/m*3 4.53 C 12.9 km/h
1763 09-12-2013 03:20:00 6.9 C 6.47 g/m*3 6.9 C 4.8 km/h
1764 09-12-2013 03:25:00 6.8 C 6.42 g/m*3 5.67 C 6.4 km/h
1765 09-12-2013 03:30:00 6.7 C 6.46 g/m*3 5.11 C 8.1 km/h
1766 09-12-2013 03:35:00 6.7 C 6.46 g/m*3 4.75 C 9.7 km/h
1767 09-12-2013 03:40:00 6.7 C 6.38 g/m*3 4.75 C 9.7 km/h
1768 09-12-2013 03:45:00 6.8 C 6.42 g/m*3 4.56 C 11.3 km/h
1769 09-12-2013 03:50:00 6.8 C 6.42 g/m*3 5.22 C 8.1 km/h
1770 09-12-2013 03:55:00 6.8 C 6.35 g/m*3 4.56 C 11.3 km/h
1771 09-12-2013 04:00:00 6.8 C 6.35 g/m*3 5.22 C 8.1 km/h
1772 09-12-2013 04:05:00 6.8 C 6.35 g/m*3 5.22 C 8.1 km/h
1773 09-12-2013 04:10:00 6.8 C 6.35 g/m*3 4.56 C 11.3 km/h
1774 09-12-2013 04:15:00 6.7 C 6.31 g/m*3 5.56 C 6.4 km/h
1775 09-12-2013 04:20:00 6.7 C 6.31 g/m*3 5.11 C 8.1 km/h
Sensor: Nr:Datum:Temp:Abs-Feuchte:Windchill:Wind:
Aussen-T/F 1776 09-12-2013 04:25:00 6.8 C 6.27 g/m*3 5.67 C 6.4 km/h
1777 09-12-2013 04:30:00 6.8 C 6.27 g/m*3 5.67 C 6.4 km/h
1778 09-12-2013 04:35:00 6.8 C 6.27 g/m*3 4.87 C 9.7 km/h
1779 09-12-2013 04:40:00 6.8 C 6.27 g/m*3 4.56 C 11.3 km/h
1780 09-12-2013 04:45:00 6.8 C 6.27 g/m*3 4.87 C 9.7 km/h
1781 09-12-2013 04:50:00 6.8 C 6.27 g/m*3 4.29 C 12.9 km/h
1782 09-12-2013 04:55:00 6.8 C 6.27 g/m*3 4.56 C 11.3 km/h
1783 09-12-2013 05:00:00 6.9 C 6.24 g/m*3 4.68 C 11.3 km/h
1784 09-12-2013 05:05:00 6.9 C 6.24 g/m*3 4.41 C 12.9 km/h
1785 09-12-2013 05:10:00 6.9 C 6.24 g/m*3 4.16 C 14.5 km/h
1786 09-12-2013 05:15:00 6.8 C 6.19 g/m*3 4.87 C 9.7 km/h
1787 09-12-2013 05:20:00 6.8 C 6.19 g/m*3 4.56 C 11.3 km/h
1788 09-12-2013 05:25:00 6.8 C 6.19 g/m*3 4.56 C 11.3 km/h
1789 09-12-2013 05:30:00 6.8 C 6.19 g/m*3 5.22 C 8.1 km/h
1790 09-12-2013 05:35:00 6.7 C 6.15 g/m*3 4.44 C 11.3 km/h
1791 09-12-2013 05:40:00 6.7 C 6.15 g/m*3 4.75 C 9.7 km/h
1792 09-12-2013 05:45:00 6.7 C 6.15 g/m*3 3.69 C 16.1 km/h
1793 09-12-2013 05:50:00 6.7 C 6.15 g/m*3 4.75 C 9.7 km/h
1794 09-12-2013 05:55:00 6.7 C 6.15 g/m*3 2.94 C 22.5 km/h
1795 09-12-2013 06:00:00 6.7 C 6.15 g/m*3 3.48 C 17.7 km/h
1796 09-12-2013 06:05:00 6.7 C 6.15 g/m*3 4.44 C 11.3 km/h
1797 09-12-2013 06:10:00 6.7 C 6.15 g/m*3 4.44 C 11.3 km/h
1798 09-12-2013 06:15:00 6.7 C 6.15 g/m*3 3.48 C 17.7 km/h
1799 09-12-2013 06:20:00 6.7 C 6.08 g/m*3 4.44 C 11.3 km/h
1800 09-12-2013 06:25:00 6.7 C 6.15 g/m*3 4.75 C 9.7 km/h
Sensor: Nr:Datum:Temp:Abs-Feuchte:Windchill:Wind:
Aussen-T/F 1801 09-12-2013 06:30:00 6.7 C 6.08 g/m*3 3.11 C 20.9 km/h
1802 09-12-2013 06:35:00 6.6 C 6.11 g/m*3 4.32 C 11.3 km/h
1803 09-12-2013 06:40:00 6.6 C 6.11 g/m*3 3.57 C 16.1 km/h
1804 09-12-2013 06:45:00 6.5 C 6.07 g/m*3 3.04 C 19.3 km/h
1805 09-12-2013 06:50:00 6.5 C 6.07 g/m*3 4.87 C 8.1 km/h
1806 09-12-2013 06:55:00 6.4 C 6.04 g/m*3 3.8 C 12.9 km/h
1807 09-12-2013 07:00:00 6.4 C 6.04 g/m*3 4.39 C 9.7 km/h
1808 09-12-2013 07:05:00 6.4 C 6.04 g/m*3 5.21 C 6.4 km/h
1809 09-12-2013 07:10:00 6.3 C 6 g/m*3 4.64 C 8.1 km/h
1810 09-12-2013 07:15:00 6.3 C 6 g/m*3 5.1 C 6.4 km/h
1811 09-12-2013 07:20:00 6.3 C 6.07 g/m*3 4.64 C 8.1 km/h
1812 09-12-2013 07:25:00 6.3 C 6.07 g/m*3 4.64 C 8.1 km/h
1813 09-12-2013 07:30:00 6.2 C 6.03 g/m*3 4.15 C 9.7 km/h
1814 09-12-2013 07:35:00 6.3 C 6.07 g/m*3 4.27 C 9.7 km/h
1815 09-12-2013 07:40:00 6.2 C 6.03 g/m*3 6.2 C 4.8 km/h
1816 09-12-2013 07:45:00 6.1 C 6.06 g/m*3 4.04 C 9.7 km/h
1817 09-12-2013 07:50:00 6.2 C 6.1 g/m*3 3.84 C 11.3 km/h
1818 09-12-2013 07:55:00 6.2 C 6.1 g/m*3 4.15 C 9.7 km/h
1819 09-12-2013 08:00:00 6.2 C 6.03 g/m*3 3.84 C 11.3 km/h
1820 09-12-2013 08:05:00 6.2 C 6.03 g/m*3 3.84 C 11.3 km/h
1821 09-12-2013 08:10:00 6.3 C 6.07 g/m*3 3.96 C 11.3 km/h
1822 09-12-2013 08:15:00 6.5 C 6.07 g/m*3 3.23 C 17.7 km/h
1823 09-12-2013 08:20:00 6.6 C 6.11 g/m*3 4.99 C 8.1 km/h
1824 09-12-2013 08:25:00 6.6 C 6.11 g/m*3 3.36 C 17.7 km/h
1825 09-12-2013 08:30:00 6.6 C 6.11 g/m*3 4.32 C 11.3 km/h
Sensor: Nr:Datum:Temp:Abs-Feuchte:Windchill:Wind:
Aussen-T/F 1826 09-12-2013 08:35:00 6.7 C 6.15 g/m*3 4.75 C 9.7 km/h
1827 09-12-2013 08:40:00 6.7 C 6.15 g/m*3 5.11 C 8.1 km/h
1828 09-12-2013 08:45:00 6.7 C 6.08 g/m*3 3.69 C 16.1 km/h
1829 09-12-2013 08:50:00 6.8 C 6.12 g/m*3 4.56 C 11.3 km/h
1830 09-12-2013 08:55:00 6.8 C 6.12 g/m*3 4.87 C 9.7 km/h
1831 09-12-2013 09:00:00 6.8 C 6.12 g/m*3 4.56 C 11.3 km/h
1832 09-12-2013 09:05:00 6.9 C 6.08 g/m*3 4.68 C 11.3 km/h
1833 09-12-2013 09:10:00 6.9 C 6.08 g/m*3 4.68 C 11.3 km/h
1834 09-12-2013 09:15:00 6.9 C 6.08 g/m*3 3.94 C 16.1 km/h
1835 09-12-2013 09:20:00 6.9 C 6.16 g/m*3 3.94 C 16.1 km/h
1836 09-12-2013 09:25:00 6.9 C 6.08 g/m*3 4.68 C 11.3 km/h
1837 09-12-2013 09:30:00 6.9 C 6.16 g/m*3 3.94 C 16.1 km/h
1838 09-12-2013 09:35:00 6.9 C 6.08 g/m*3 4.41 C 12.9 km/h
1839 09-12-2013 09:40:00 6.9 C 6.08 g/m*3 3.54 C 19.3 km/h
1840 09-12-2013 09:45:00 6.9 C 6.08 g/m*3 3.73 C 17.7 km/h
1841 09-12-2013 09:50:00 7 C 6.12 g/m*3 4.29 C 14.5 km/h
1842 09-12-2013 09:55:00 7.1 C 6.16 g/m*3 4.19 C 16.1 km/h
1843 09-12-2013 10:00:00 7.1 C 6.16 g/m*3 4.19 C 16.1 km/h
1844 09-12-2013 10:05:00 7.1 C 6.16 g/m*3 5.23 C 9.7 km/h
1845 09-12-2013 10:10:00 7.2 C 6.2 g/m*3 4.53 C 14.5 km/h
1846 09-12-2013 10:15:00 7.2 C 6.2 g/m*3 4.31 C 16.1 km/h
1847 09-12-2013 10:20:00 7.3 C 6.24 g/m*3 4.9 C 12.9 km/h
1848 09-12-2013 10:25:00 7.3 C 6.16 g/m*3 4.05 C 19.3 km/h
1849 09-12-2013 10:30:00 7.4 C 6.2 g/m*3 4.17 C 19.3 km/h
1850 09-12-2013 10:35:00 7.4 C 6.2 g/m*3 4.78 C 14.5 km/h
Sensor: Nr:Datum:Temp:Abs-Feuchte:Windchill:Wind:
Aussen-T/F 1851 09-12-2013 10:40:00 7.4 C 6.2 g/m*3 3.68 C 24.1 km/h
1852 09-12-2013 10:45:00 7.4 C 6.2 g/m*3 4.56 C 16.1 km/h
1853 09-12-2013 10:50:00 7.3 C 6.16 g/m*3 4.66 C 14.5 km/h
1854 09-12-2013 10:55:00 7.3 C 6.16 g/m*3 4.66 C 14.5 km/h
1855 09-12-2013 11:00:00 7.3 C 6.24 g/m*3 4.23 C 17.7 km/h
1856 09-12-2013 11:05:00 7.3 C 6.24 g/m*3 5.81 C 8.1 km/h
1857 09-12-2013 11:10:00 7.3 C 6.24 g/m*3 5.47 C 9.7 km/h
1858 09-12-2013 11:15:00 7.3 C 6.24 g/m*3 6.25 C 6.4 km/h
1859 09-12-2013 11:20:00 7.4 C 6.28 g/m*3 5.58 C 9.7 km/h
1860 09-12-2013 11:25:00 7.4 C 6.28 g/m*3 5.02 C 12.9 km/h
1861 09-12-2013 11:30:00 7.4 C 6.36 g/m*3 5.02 C 12.9 km/h
1862 09-12-2013 11:35:00 7.5 C 6.4 g/m*3 6.05 C 8.1 km/h
1863 09-12-2013 11:40:00 7.6 C 6.36 g/m*3 5.02 C 14.5 km/h
1864 09-12-2013 11:45:00 7.7 C 6.41 g/m*3 4.55 C 19.3 km/h
1865 09-12-2013 11:50:00 7.8 C 6.45 g/m*3 5.51 C 12.9 km/h
1866 09-12-2013 11:55:00 7.9 C 6.49 g/m*3 5.39 C 14.5 km/h
1867 09-12-2013 12:00:00 7.9 C 6.41 g/m*3 6.52 C 8.1 km/h
1868 09-12-2013 12:05:00 8.1 C 6.57 g/m*3 7.17 C 6.4 km/h
1869 09-12-2013 12:10:00 8.1 C 6.57 g/m*3 7.17 C 6.4 km/h
1870 09-12-2013 12:15:00 8.1 C 6.57 g/m*3 6.13 C 11.3 km/h
1871 09-12-2013 12:20:00 8.2 C 6.62 g/m*3 6.87 C 8.1 km/h
1872 09-12-2013 12:25:00 8.3 C 6.66 g/m*3 7.41 C 6.4 km/h
1873 09-12-2013 12:30:00 8.3 C 6.66 g/m*3 7.41 C 6.4 km/h
1874 09-12-2013 12:35:00 8.3 C 6.66 g/m*3 6.37 C 11.3 km/h
1875 09-12-2013 12:40:00 8.3 C 6.74 g/m*3 6.99 C 8.1 km/h
Sensor: Nr:Datum:Temp:Abs-Feuchte:Windchill:Wind:
Aussen-T/F 1876 09-12-2013 12:45:00 8.3 C 6.74 g/m*3 6.66 C 9.7 km/h
1877 09-12-2013 12:50:00 8.3 C 6.66 g/m*3 6.66 C 9.7 km/h
1878 09-12-2013 12:55:00 8.4 C 6.79 g/m*3 8.4 C 4.8 km/h
1879 09-12-2013 13:00:00 8.3 C 6.74 g/m*3 8.3 C 4.8 km/h
1880 09-12-2013 13:05:00 8.3 C 6.74 g/m*3 6.99 C 8.1 km/h
1881 09-12-2013 13:10:00 8.4 C 6.79 g/m*3 7.52 C 6.4 km/h
1882 09-12-2013 13:15:00 8.4 C 6.7 g/m*3 6.49 C 11.3 km/h
1883 09-12-2013 13:20:00 8.5 C 6.74 g/m*3 6.61 C 11.3 km/h
1884 09-12-2013 13:25:00 8.5 C 6.74 g/m*3 6.9 C 9.7 km/h
1885 09-12-2013 13:30:00 8.5 C 6.74 g/m*3 7.22 C 8.1 km/h
1886 09-12-2013 13:35:00 8.5 C 6.74 g/m*3 6.61 C 11.3 km/h
1887 09-12-2013 13:40:00 8.5 C 6.66 g/m*3 6.9 C 9.7 km/h
1888 09-12-2013 13:45:00 8.4 C 6.7 g/m*3 7.11 C 8.1 km/h
1889 09-12-2013 13:50:00 8.3 C 6.57 g/m*3 6.99 C 8.1 km/h
1890 09-12-2013 13:55:00 8.3 C 6.66 g/m*3 6.12 C 12.9 km/h
1891 09-12-2013 14:00:00 8.3 C 6.66 g/m*3 6.66 C 9.7 km/h
1892 09-12-2013 14:05:00 8.2 C 6.62 g/m*3 6.25 C 11.3 km/h
1893 09-12-2013 14:10:00 8.1 C 6.66 g/m*3 6.75 C 8.1 km/h
1894 09-12-2013 14:15:00 8 C 6.53 g/m*3 6.3 C 9.7 km/h
1895 09-12-2013 14:20:00 7.9 C 6.57 g/m*3 6.52 C 8.1 km/h
1896 09-12-2013 14:25:00 7.8 C 6.53 g/m*3 6.06 C 9.7 km/h
1897 09-12-2013 14:30:00 7.8 C 6.53 g/m*3 5.51 C 12.9 km/h
1898 09-12-2013 14:35:00 7.8 C 6.53 g/m*3 5.77 C 11.3 km/h
1899 09-12-2013 14:40:00 7.8 C 6.53 g/m*3 5.77 C 11.3 km/h
1900 09-12-2013 14:45:00 7.9 C 6.57 g/m*3 5.63 C 12.9 km/h
Sensor: Nr:Datum:Temp:Abs-Feuchte:Windchill:Wind:
Aussen-T/F 1901 09-12-2013 14:50:00 7.9 C 6.49 g/m*3 5.63 C 12.9 km/h
1902 09-12-2013 14:55:00 7.9 C 6.49 g/m*3 5.18 C 16.1 km/h
1903 09-12-2013 15:00:00 8 C 6.53 g/m*3 5.75 C 12.9 km/h
1904 09-12-2013 15:05:00 8 C 6.53 g/m*3 6.01 C 11.3 km/h
1905 09-12-2013 15:10:00 8 C 6.53 g/m*3 6.01 C 11.3 km/h
1906 09-12-2013 15:15:00 8 C 6.53 g/m*3 6.01 C 11.3 km/h
1907 09-12-2013 15:20:00 7.9 C 6.49 g/m*3 6.18 C 9.7 km/h
1908 09-12-2013 15:25:00 7.9 C 6.57 g/m*3 6.18 C 9.7 km/h
1909 09-12-2013 15:30:00 7.8 C 6.53 g/m*3 6.4 C 8.1 km/h
1910 09-12-2013 15:35:00 7.8 C 6.53 g/m*3 5.77 C 11.3 km/h
1911 09-12-2013 15:40:00 7.7 C 6.57 g/m*3 6.71 C 6.4 km/h
1912 09-12-2013 15:45:00 7.7 C 6.57 g/m*3 6.71 C 6.4 km/h
1913 09-12-2013 15:50:00 7.6 C 6.53 g/m*3 6.6 C 6.4 km/h
1914 09-12-2013 15:55:00 7.5 C 6.48 g/m*3 6.48 C 6.4 km/h
1915 09-12-2013 16:00:00 7.3 C 6.48 g/m*3 6.25 C 6.4 km/h
1916 09-12-2013 16:05:00 7.3 C 6.48 g/m*3 6.25 C 6.4 km/h
1917 09-12-2013 16:10:00 7.1 C 6.4 g/m*3 7.1 C 4.8 km/h
1918 09-12-2013 16:15:00 6.8 C 6.42 g/m*3 6.8 C 4.8 km/h
1919 09-12-2013 16:20:00 6.8 C 6.42 g/m*3 6.8 C 4.8 km/h
1920 09-12-2013 16:25:00 6.7 C 6.38 g/m*3 6.7 C 4.8 km/h
1921 09-12-2013 16:30:00 6.6 C 6.42 g/m*3 5.44 C 6.4 km/h
1922 09-12-2013 16:35:00 6.6 C 6.42 g/m*3 6.6 C 4.8 km/h
1923 09-12-2013 16:40:00 6.6 C 6.34 g/m*3 5.44 C 6.4 km/h
1924 09-12-2013 16:45:00 6.5 C 6.37 g/m*3 6.5 C 4.8 km/h
1925 09-12-2013 16:50:00 6.3 C 6.29 g/m*3 6.3 C 3.2 km/h
Sensor: Nr:Datum:Temp:Abs-Feuchte:Windchill:Wind:
Aussen-T/F 1926 09-12-2013 16:55:00 6.2 C 6.32 g/m*3 6.2 C 4.8 km/h
1927 09-12-2013 17:00:00 6.2 C 6.32 g/m*3 6.2 C 4.8 km/h
1928 09-12-2013 17:05:00 6.2 C 6.32 g/m*3 6.2 C 4.8 km/h
1929 09-12-2013 17:10:00 6 C 6.31 g/m*3 6 C 4.8 km/h
1930 09-12-2013 17:15:00 6 C 6.31 g/m*3 4.28 C 8.1 km/h
1931 09-12-2013 17:20:00 6.2 C 6.4 g/m*3 6.2 C 4.8 km/h
1932 09-12-2013 17:25:00 6.3 C 6.37 g/m*3 5.1 C 6.4 km/h
1933 09-12-2013 17:30:00 6.5 C 6.45 g/m*3 6.5 C 3.2 km/h
1934 09-12-2013 17:35:00 6.4 C 6.33 g/m*3 6.4 C 4.8 km/h
1935 09-12-2013 17:40:00 6.3 C 6.37 g/m*3 6.3 C 4.8 km/h
1936 09-12-2013 17:45:00 6.3 C 6.37 g/m*3 6.3 C 4.8 km/h
1937 09-12-2013 17:50:00 6.2 C 6.32 g/m*3 6.2 C 4.8 km/h
1938 09-12-2013 17:55:00 6.2 C 6.32 g/m*3 6.2 C 4.8 km/h
1939 09-12-2013 18:00:00 6.3 C 6.37 g/m*3 6.3 C 4.8 km/h
1940 09-12-2013 18:05:00 6.3 C 6.37 g/m*3 6.3 C 4.8 km/h
1941 09-12-2013 18:10:00 6.2 C 6.32 g/m*3 6.2 C 4.8 km/h
1942 09-12-2013 18:15:00 6 C 6.31 g/m*3 6 C 4.8 km/h
1943 09-12-2013 18:20:00 5.9 C 6.27 g/m*3 5.9 C 4.8 km/h
1944 09-12-2013 18:25:00 5.9 C 6.35 g/m*3 5.9 C 4.8 km/h
1945 09-12-2013 18:30:00 6 C 6.31 g/m*3 6 C 4.8 km/h
1946 09-12-2013 18:35:00 6.1 C 6.36 g/m*3 4.86 C 6.4 km/h
1947 09-12-2013 18:40:00 6.2 C 6.4 g/m*3 3.3 C 14.5 km/h
1948 09-12-2013 18:45:00 6.3 C 6.37 g/m*3 3.68 C 12.9 km/h
1949 09-12-2013 18:50:00 6.4 C 6.33 g/m*3 5.21 C 6.4 km/h
1950 09-12-2013 18:55:00 6.4 C 6.33 g/m*3 6.4 C 4.8 km/h
Sensor: Nr:Datum:Temp:Abs-Feuchte:Windchill:Wind:
Aussen-T/F 1951 09-12-2013 19:00:00 6.3 C 6.37 g/m*3 6.3 C 3.2 km/h
1952 09-12-2013 19:05:00 6.3 C 6.37 g/m*3 6.3 C 3.2 km/h
1953 09-12-2013 19:10:00 6.1 C 6.36 g/m*3 6.1 C 4.8 km/h
1954 09-12-2013 19:15:00 5.9 C 6.27 g/m*3 5.9 C 3.2 km/h
1955 09-12-2013 19:20:00 5.6 C 6.22 g/m*3 5.6 C 1.6 km/h
1956 09-12-2013 19:25:00 5.3 C 6.17 g/m*3 5.3 C 1.6 km/h
1957 09-12-2013 19:30:00 5.1 C 6.09 g/m*3 5.1 C 0 km/h
1958 09-12-2013 19:35:00 4.9 C 6.08 g/m*3 4.9 C 1.6 km/h
1959 09-12-2013 19:40:00 4.7 C 6 g/m*3 4.7 C 0 km/h
1960 09-12-2013 19:45:00 4.6 C 6.02 g/m*3 4.6 C 0 km/h
1961 09-12-2013 19:50:00 4.5 C 5.98 g/m*3 4.5 C 0 km/h
1962 09-12-2013 19:55:00 4.4 C 6.01 g/m*3 4.4 C 0 km/h
1963 09-12-2013 20:00:00 4.3 C 5.97 g/m*3 4.3 C 0 km/h
1964 09-12-2013 20:05:00 4.3 C 5.97 g/m*3 4.3 C 0 km/h
1965 09-12-2013 20:10:00 4.2 C 5.93 g/m*3 4.2 C 0 km/h
1966 09-12-2013 20:15:00 4.1 C 5.89 g/m*3 4.1 C 0 km/h
1967 09-12-2013 20:20:00 4 C 5.91 g/m*3 4 C 0 km/h
1968 09-12-2013 20:25:00 3.9 C 5.87 g/m*3 3.9 C 1.6 km/h
1969 09-12-2013 20:30:00 3.9 C 5.87 g/m*3 3.9 C 0 km/h
1970 09-12-2013 20:35:00 3.8 C 5.83 g/m*3 3.8 C 0 km/h
1971 09-12-2013 20:40:00 3.8 C 5.9 g/m*3 3.8 C 1.6 km/h
1972 09-12-2013 20:45:00 3.8 C 5.9 g/m*3 3.8 C 0 km/h
1973 09-12-2013 20:50:00 3.8 C 5.9 g/m*3 3.8 C 0 km/h
1974 09-12-2013 20:55:00 3.8 C 5.9 g/m*3 3.8 C 1.6 km/h
1975 09-12-2013 21:00:00 3.8 C 5.9 g/m*3 3.8 C 0 km/h
Sensor: Nr:Datum:Temp:Abs-Feuchte:Windchill:Wind:
Aussen-T/F 1976 09-12-2013 21:05:00 3.7 C 5.86 g/m*3 3.7 C 1.6 km/h
1977 09-12-2013 21:10:00 3.7 C 5.86 g/m*3 3.7 C 1.6 km/h
1978 09-12-2013 21:15:00 3.7 C 5.86 g/m*3 3.7 C 1.6 km/h
1979 09-12-2013 21:20:00 3.6 C 5.82 g/m*3 3.6 C 0 km/h
1980 09-12-2013 21:25:00 3.5 C 5.78 g/m*3 3.5 C 0 km/h
1981 09-12-2013 21:30:00 3.4 C 5.74 g/m*3 3.4 C 0 km/h
1982 09-12-2013 21:35:00 3.3 C 5.7 g/m*3 3.3 C 0 km/h
1983 09-12-2013 21:40:00 3.2 C 5.66 g/m*3 3.2 C 0 km/h
1984 09-12-2013 21:45:00 3.1 C 5.63 g/m*3 3.1 C 0 km/h
1985 09-12-2013 21:50:00 3.1 C 5.63 g/m*3 3.1 C 0 km/h
1986 09-12-2013 21:55:00 3.1 C 5.63 g/m*3 3.1 C 0 km/h
1987 09-12-2013 22:00:00 3 C 5.59 g/m*3 3 C 0 km/h
1988 09-12-2013 22:05:00 2.9 C 5.61 g/m*3 2.9 C 0 km/h
1989 09-12-2013 22:10:00 2.9 C 5.61 g/m*3 2.9 C 0 km/h
1990 09-12-2013 22:15:00 2.9 C 5.61 g/m*3 2.9 C 0 km/h
1991 09-12-2013 22:20:00 2.9 C 5.61 g/m*3 2.9 C 0 km/h
1992 09-12-2013 22:25:00 2.8 C 5.57 g/m*3 2.8 C 0 km/h
1993 09-12-2013 22:30:00 2.8 C 5.57 g/m*3 2.8 C 0 km/h
1994 09-12-2013 22:35:00 2.7 C 5.54 g/m*3 2.7 C 0 km/h
1995 09-12-2013 22:40:00 2.7 C 5.54 g/m*3 2.7 C 0 km/h
1996 09-12-2013 22:45:00 2.7 C 5.54 g/m*3 2.7 C 0 km/h
1997 09-12-2013 22:50:00 2.6 C 5.5 g/m*3 2.6 C 0 km/h
1998 09-12-2013 22:55:00 2.6 C 5.5 g/m*3 2.6 C 0 km/h
1999 09-12-2013 23:00:00 2.6 C 5.5 g/m*3 2.6 C 0 km/h
2000 09-12-2013 23:05:00 2.5 C 5.46 g/m*3 2.5 C 0 km/h
Sensor: Nr:Datum:Temp:Abs-Feuchte:Windchill:Wind:
Aussen-T/F 2001 09-12-2013 23:10:00 2.5 C 5.52 g/m*3 2.5 C 0 km/h
2002 09-12-2013 23:15:00 2.5 C 5.52 g/m*3 2.5 C 0 km/h
2003 09-12-2013 23:20:00 2.4 C 5.42 g/m*3 2.4 C 0 km/h
2004 09-12-2013 23:25:00 2.3 C 5.39 g/m*3 2.3 C 0 km/h
2005 09-12-2013 23:30:00 2.3 C 5.39 g/m*3 2.3 C 0 km/h
2006 09-12-2013 23:35:00 2.3 C 5.39 g/m*3 2.3 C 0 km/h
2007 09-12-2013 23:40:00 2.2 C 5.41 g/m*3 2.2 C 0 km/h
2008 09-12-2013 23:45:00 2.2 C 5.35 g/m*3 2.2 C 0 km/h
2009 09-12-2013 23:50:00 2.1 C 5.31 g/m*3 2.1 C 0 km/h
2010 09-12-2013 23:55:00 2.1 C 5.37 g/m*3 2.1 C 0 km/h

Legende:
   Min
   Max


Maximal/Minimal-Werte vom 03.12.2013 - 09.12.2013

Sensor Min Max Avg
Temp
(Aussen-T/F)
-2.1 °C
03-12-2013  07:15:00
8.5 °C
09-12-2013  13:20:00
4.04 °C
Abs-Feuchte
(Aussen-T/F)
4.06 g/m*3
03-12-2013  07:15:00
7.14 g/m*3
08-12-2013  14:10:00
5.57 g/m*3
Windchill
(Aussen-T/F)
-3.26 C
04-12-2013  03:50:00
8.4 C
09-12-2013  12:55:00
2.18 C

Die Daten stammen von einer Davis Vantage Pro 2 Wetter-Station und werden unter Linux mit der Software wview2wettercgi und aufbereitet. Alle Angaben erfolgen ohne Gewähr für ihre Vollständigkeit oder Richtigkeit.
Kontakt: Rainer Krienke krienke@uni-koblenz.de . Meine Webseiten an der Uni Koblenz oder privat.
Version: $Revision: 0.78 $